Darstellungsparameter: Aktuell verwendete Einstellungen:
Skalierung der Graphiken ... ?
xyx+y,   Skalierungsfaktor:      Skalierung: Modus: x, Faktor: 1
Darstellungszeitraum ... ?
Vom - - bis: - -   Zeitraum: 20.06.2019 - 19.12.2019
Min/Max/Avg-Anzeige ... ?
Zeige MMA aktuell
Zeige MMA Monat
Zeige MMA alles
Zeige --A aktuell
Zeige --A Monat
Zeige --A alles
Keine MMA-Anzeige
MMA:
Keine MMA-Graphiken
MMA-Basis: 20.06.2019 - 19.12.2019
Quicknavigation für Darstellung... ?
Tage:      1T, 2T, 3T, 5T -1T -2T -3T -5T +1T +2T +3T +5T
Wochen: 1W, 2W, 3W -1W -2W -3W +1W +2W +3W
Monate: 1M, 3M, 6M -1M -3M -6M +1M +3M +6M
Jahre:    1J, 3J, 5J, 10J -1J -3J -5J -10J +1J +3J +5J +10J
Nutze für die Darstellung ... ?
Originaldaten oder Mittelwerte auf ...
Stundenbasis Tagesbasis Wochenbasis
Monatsbasis Jahresbasis      Datenbasis: Original-Daten
Darstellen als:
Statistik (Auto) Statistik J:M      Darstellung:
Zur Graphik,    zurück zur Übersicht aller Sensoren.
 
Tabellarische Datenbersicht: ?
 
Sensor: Nr:Datum:Temp:Feuchte:Taupunkt:
Aussen-T/F 1 20-06-2019 00:00:00 19.3 C 81 % 15.96 C
2 20-06-2019 00:05:00 19.2 C 82 % 16.05 C
3 20-06-2019 00:10:00 19.1 C 82 % 15.96 C
4 20-06-2019 00:15:00 18.9 C 82 % 15.76 C
5 20-06-2019 00:20:00 18.8 C 83 % 15.85 C
6 20-06-2019 00:25:00 18.7 C 83 % 15.75 C
7 20-06-2019 00:30:00 18.7 C 84 % 15.94 C
8 20-06-2019 00:35:00 18.6 C 84 % 15.84 C
9 20-06-2019 00:40:00 18.5 C 84 % 15.75 C
10 20-06-2019 00:45:00 18.4 C 85 % 15.83 C
11 20-06-2019 00:50:00 18.4 C 85 % 15.83 C
12 20-06-2019 00:55:00 18.4 C 85 % 15.83 C
13 20-06-2019 01:00:00 18.3 C 85 % 15.74 C
14 20-06-2019 01:05:00 18.3 C 85 % 15.74 C
15 20-06-2019 01:10:00 18.2 C 85 % 15.64 C
16 20-06-2019 01:15:00 18.1 C 86 % 15.72 C
17 20-06-2019 01:20:00 18.1 C 86 % 15.72 C
18 20-06-2019 01:25:00 18 C 86 % 15.62 C
19 20-06-2019 01:30:00 17.9 C 86 % 15.53 C
20 20-06-2019 01:35:00 17.9 C 87 % 15.71 C
21 20-06-2019 01:40:00 17.8 C 87 % 15.61 C
22 20-06-2019 01:45:00 17.8 C 87 % 15.61 C
23 20-06-2019 01:50:00 17.7 C 87 % 15.51 C
24 20-06-2019 01:55:00 17.7 C 88 % 15.69 C
25 20-06-2019 02:00:00 17.6 C 88 % 15.59 C
Sensor: Nr:Datum:Temp:Feuchte:Taupunkt:
Aussen-T/F 26 20-06-2019 02:05:00 17.6 C 88 % 15.59 C
27 20-06-2019 02:10:00 17.5 C 88 % 15.49 C
28 20-06-2019 02:15:00 17.5 C 88 % 15.49 C
29 20-06-2019 02:20:00 17.4 C 88 % 15.39 C
30 20-06-2019 02:25:00 17.4 C 89 % 15.57 C
31 20-06-2019 02:30:00 17.4 C 89 % 15.57 C
32 20-06-2019 02:35:00 17.4 C 89 % 15.57 C
33 20-06-2019 02:40:00 17.4 C 89 % 15.57 C
34 20-06-2019 02:45:00 17.4 C 89 % 15.57 C
35 20-06-2019 02:50:00 17.4 C 90 % 15.74 C
36 20-06-2019 02:55:00 17.5 C 90 % 15.84 C
37 20-06-2019 03:00:00 17.5 C 90 % 15.84 C
38 20-06-2019 03:05:00 17.6 C 90 % 15.94 C
39 20-06-2019 03:10:00 17.6 C 90 % 15.94 C
40 20-06-2019 03:15:00 17.7 C 90 % 16.04 C
41 20-06-2019 03:20:00 17.8 C 90 % 16.14 C
42 20-06-2019 03:25:00 17.8 C 90 % 16.14 C
43 20-06-2019 03:30:00 17.8 C 89 % 15.96 C
44 20-06-2019 03:35:00 17.8 C 89 % 15.96 C
45 20-06-2019 03:40:00 17.7 C 89 % 15.86 C
46 20-06-2019 03:45:00 17.7 C 89 % 15.86 C
47 20-06-2019 03:50:00 17.7 C 89 % 15.86 C
48 20-06-2019 03:55:00 17.7 C 89 % 15.86 C
49 20-06-2019 04:00:00 17.7 C 89 % 15.86 C
50 20-06-2019 04:05:00 17.6 C 89 % 15.77 C
Sensor: Nr:Datum:Temp:Feuchte:Taupunkt:
Aussen-T/F 51 20-06-2019 04:10:00 17.6 C 89 % 15.77 C
52 20-06-2019 04:15:00 17.4 C 89 % 15.57 C
53 20-06-2019 04:20:00 17.4 C 90 % 15.74 C
54 20-06-2019 04:25:00 17.4 C 90 % 15.74 C
55 20-06-2019 04:30:00 17.3 C 89 % 15.47 C
56 20-06-2019 04:35:00 17.2 C 90 % 15.55 C
57 20-06-2019 04:40:00 17.2 C 90 % 15.55 C
58 20-06-2019 04:45:00 17.1 C 90 % 15.45 C
59 20-06-2019 04:50:00 17 C 90 % 15.35 C
60 20-06-2019 04:55:00 16.9 C 90 % 15.25 C
61 20-06-2019 05:00:00 16.9 C 90 % 15.25 C
62 20-06-2019 05:05:00 16.8 C 91 % 15.32 C
63 20-06-2019 05:10:00 16.8 C 91 % 15.32 C
64 20-06-2019 05:15:00 16.7 C 91 % 15.22 C
65 20-06-2019 05:20:00 16.7 C 91 % 15.22 C
66 20-06-2019 05:25:00 16.7 C 91 % 15.22 C
67 20-06-2019 05:30:00 16.6 C 91 % 15.13 C
68 20-06-2019 05:35:00 16.6 C 92 % 15.3 C
69 20-06-2019 05:40:00 16.6 C 92 % 15.3 C
70 20-06-2019 05:45:00 16.6 C 92 % 15.3 C
71 20-06-2019 05:50:00 16.6 C 92 % 15.3 C
72 20-06-2019 05:55:00 16.6 C 92 % 15.3 C
73 20-06-2019 06:00:00 16.6 C 92 % 15.3 C
74 20-06-2019 06:05:00 16.6 C 92 % 15.3 C
75 20-06-2019 06:10:00 16.6 C 93 % 15.46 C
Sensor: Nr:Datum:Temp:Feuchte:Taupunkt:
Aussen-T/F 76 20-06-2019 06:15:00 16.7 C 93 % 15.56 C
77 20-06-2019 06:20:00 16.7 C 93 % 15.56 C
78 20-06-2019 06:25:00 16.8 C 93 % 15.66 C
79 20-06-2019 06:30:00 16.8 C 92 % 15.49 C
80 20-06-2019 06:35:00 16.9 C 93 % 15.76 C
81 20-06-2019 06:40:00 17 C 92 % 15.69 C
82 20-06-2019 06:45:00 17.1 C 92 % 15.79 C
83 20-06-2019 06:50:00 17.2 C 92 % 15.89 C
84 20-06-2019 06:55:00 17.3 C 91 % 15.82 C
85 20-06-2019 07:00:00 17.3 C 91 % 15.82 C
86 20-06-2019 07:05:00 17.4 C 91 % 15.92 C
87 20-06-2019 07:10:00 17.4 C 91 % 15.92 C
88 20-06-2019 07:15:00 17.4 C 91 % 15.92 C
89 20-06-2019 07:20:00 17.4 C 91 % 15.92 C
90 20-06-2019 07:25:00 17.5 C 90 % 15.84 C
91 20-06-2019 07:30:00 17.6 C 90 % 15.94 C
92 20-06-2019 07:35:00 17.8 C 89 % 15.96 C
93 20-06-2019 07:40:00 17.9 C 88 % 15.88 C
94 20-06-2019 07:45:00 18.2 C 87 % 16 C
95 20-06-2019 07:50:00 18.4 C 87 % 16.2 C
96 20-06-2019 07:55:00 18.5 C 85 % 15.93 C
97 20-06-2019 08:00:00 18.6 C 85 % 16.03 C
98 20-06-2019 08:05:00 18.8 C 84 % 16.04 C
99 20-06-2019 08:10:00 18.9 C 84 % 16.14 C
100 20-06-2019 08:15:00 19.2 C 83 % 16.24 C
Sensor: Nr:Datum:Temp:Feuchte:Taupunkt:
Aussen-T/F 101 20-06-2019 08:20:00 19.4 C 82 % 16.25 C
102 20-06-2019 08:25:00 19.6 C 81 % 16.25 C
103 20-06-2019 08:30:00 19.7 C 81 % 16.35 C
104 20-06-2019 08:35:00 19.8 C 80 % 16.25 C
105 20-06-2019 08:40:00 19.8 C 79 % 16.05 C
106 20-06-2019 08:45:00 19.8 C 79 % 16.05 C
107 20-06-2019 08:50:00 19.9 C 80 % 16.35 C
108 20-06-2019 08:55:00 19.9 C 79 % 16.15 C
109 20-06-2019 09:00:00 19.9 C 78 % 15.95 C
110 20-06-2019 09:05:00 20 C 78 % 16.05 C
111 20-06-2019 09:10:00 20.1 C 76 % 15.74 C
112 20-06-2019 09:15:00 20.1 C 77 % 15.94 C
113 20-06-2019 09:20:00 20.1 C 77 % 15.94 C
114 20-06-2019 09:25:00 20.2 C 77 % 16.04 C
115 20-06-2019 09:30:00 20.2 C 77 % 16.04 C
116 20-06-2019 09:35:00 20.2 C 75 % 15.63 C
117 20-06-2019 09:40:00 20.3 C 74 % 15.51 C
118 20-06-2019 09:45:00 20.3 C 74 % 15.51 C
119 20-06-2019 09:50:00 20.4 C 74 % 15.61 C
120 20-06-2019 09:55:00 20.6 C 74 % 15.8 C
121 20-06-2019 10:00:00 20.7 C 73 % 15.69 C
122 20-06-2019 10:05:00 20.8 C 72 % 15.57 C
123 20-06-2019 10:10:00 20.9 C 73 % 15.88 C
124 20-06-2019 10:15:00 21.2 C 72 % 15.95 C
125 20-06-2019 10:20:00 21.4 C 71 % 15.93 C
Sensor: Nr:Datum:Temp:Feuchte:Taupunkt:
Aussen-T/F 126 20-06-2019 10:25:00 21.5 C 70 % 15.8 C
127 20-06-2019 10:30:00 21.4 C 70 % 15.7 C
128 20-06-2019 10:35:00 21.5 C 70 % 15.8 C
129 20-06-2019 10:40:00 21.4 C 69 % 15.48 C
130 20-06-2019 10:45:00 21.5 C 70 % 15.8 C
131 20-06-2019 10:50:00 21.7 C 70 % 15.99 C
132 20-06-2019 10:55:00 21.7 C 69 % 15.77 C
133 20-06-2019 11:00:00 21.6 C 69 % 15.67 C
134 20-06-2019 11:05:00 21.6 C 70 % 15.89 C
135 20-06-2019 11:10:00 21.7 C 70 % 15.99 C
136 20-06-2019 11:15:00 21.8 C 71 % 16.31 C
137 20-06-2019 11:20:00 21.8 C 71 % 16.31 C
138 20-06-2019 11:25:00 21.8 C 70 % 16.09 C
139 20-06-2019 11:30:00 21.9 C 70 % 16.18 C
140 20-06-2019 11:35:00 22.1 C 70 % 16.37 C
141 20-06-2019 11:40:00 22.2 C 69 % 16.24 C
142 20-06-2019 11:45:00 22.1 C 69 % 16.15 C
143 20-06-2019 11:50:00 22 C 69 % 16.05 C
144 20-06-2019 11:55:00 22.1 C 71 % 16.6 C
145 20-06-2019 12:00:00 22.2 C 68 % 16.01 C
146 20-06-2019 12:05:00 22.3 C 67 % 15.88 C
147 20-06-2019 12:10:00 22.3 C 68 % 16.11 C
148 20-06-2019 12:15:00 22.4 C 69 % 16.43 C
149 20-06-2019 12:20:00 22.7 C 67 % 16.26 C
150 20-06-2019 12:25:00 22.8 C 65 % 15.88 C
Sensor: Nr:Datum:Temp:Feuchte:Taupunkt:
Aussen-T/F 151 20-06-2019 12:30:00 22.7 C 66 % 16.02 C
152 20-06-2019 12:35:00 22.7 C 66 % 16.02 C
153 20-06-2019 12:40:00 22.7 C 66 % 16.02 C
154 20-06-2019 12:45:00 22.9 C 66 % 16.21 C
155 20-06-2019 12:50:00 23 C 65 % 16.07 C
156 20-06-2019 12:55:00 23.1 C 65 % 16.16 C
157 20-06-2019 13:00:00 23 C 65 % 16.07 C
158 20-06-2019 13:05:00 23.2 C 64 % 16.01 C
159 20-06-2019 13:10:00 23.4 C 64 % 16.2 C
160 20-06-2019 13:15:00 23.4 C 65 % 16.45 C
161 20-06-2019 13:20:00 23.3 C 64 % 16.11 C
162 20-06-2019 13:25:00 23.2 C 64 % 16.01 C
163 20-06-2019 13:30:00 23.1 C 63 % 15.67 C
164 20-06-2019 13:35:00 23.1 C 65 % 16.16 C
165 20-06-2019 13:40:00 23.1 C 67 % 16.64 C
166 20-06-2019 13:45:00 23.2 C 64 % 16.01 C
167 20-06-2019 13:50:00 23.3 C 66 % 16.59 C
168 20-06-2019 13:55:00 23.6 C 66 % 16.88 C
169 20-06-2019 14:00:00 23.8 C 63 % 16.33 C
170 20-06-2019 14:05:00 23.9 C 62 % 16.18 C
171 20-06-2019 14:10:00 24.2 C 60 % 15.95 C
172 20-06-2019 14:15:00 24.4 C 59 % 15.87 C
173 20-06-2019 14:20:00 24.5 C 59 % 15.96 C
174 20-06-2019 14:25:00 24.8 C 60 % 16.51 C
175 20-06-2019 14:30:00 24.9 C 59 % 16.34 C
Sensor: Nr:Datum:Temp:Feuchte:Taupunkt:
Aussen-T/F 176 20-06-2019 14:35:00 25.1 C 58 % 16.26 C
177 20-06-2019 14:40:00 25.1 C 56 % 15.71 C
178 20-06-2019 14:45:00 25.1 C 55 % 15.43 C
179 20-06-2019 14:50:00 24.9 C 57 % 15.8 C
180 20-06-2019 14:55:00 24.7 C 57 % 15.61 C
181 20-06-2019 15:00:00 24.3 C 59 % 15.78 C
182 20-06-2019 15:05:00 24.1 C 60 % 15.85 C
183 20-06-2019 15:10:00 23.8 C 59 % 15.31 C
184 20-06-2019 15:15:00 23.3 C 63 % 15.86 C
185 20-06-2019 15:20:00 21.8 C 72 % 16.53 C
186 20-06-2019 15:25:00 20.6 C 77 % 16.43 C
187 20-06-2019 15:30:00 20.1 C 82 % 16.93 C
188 20-06-2019 15:35:00 19.8 C 84 % 17.02 C
189 20-06-2019 15:40:00 19.8 C 86 % 17.39 C
190 20-06-2019 15:45:00 19.8 C 85 % 17.21 C
191 20-06-2019 15:50:00 19.9 C 87 % 17.67 C
192 20-06-2019 15:55:00 20.2 C 87 % 17.97 C
193 20-06-2019 16:00:00 20.7 C 84 % 17.9 C
194 20-06-2019 16:05:00 21.3 C 83 % 18.29 C
195 20-06-2019 16:10:00 21.8 C 76 % 17.38 C
196 20-06-2019 16:15:00 22.4 C 74 % 17.54 C
197 20-06-2019 16:20:00 22.9 C 72 % 17.58 C
198 20-06-2019 16:25:00 23.2 C 69 % 17.2 C
199 20-06-2019 16:30:00 23.6 C 70 % 17.81 C
200 20-06-2019 16:35:00 23.7 C 66 % 16.97 C
Sensor: Nr:Datum:Temp:Feuchte:Taupunkt:
Aussen-T/F 201 20-06-2019 16:40:00 23.7 C 67 % 17.21 C
202 20-06-2019 16:45:00 23.6 C 65 % 16.64 C
203 20-06-2019 16:50:00 23.3 C 68 % 17.06 C
204 20-06-2019 16:55:00 22.8 C 69 % 16.82 C
205 20-06-2019 17:00:00 22.5 C 71 % 16.98 C
206 20-06-2019 17:05:00 22.3 C 71 % 16.79 C
207 20-06-2019 17:10:00 22.1 C 72 % 16.82 C
208 20-06-2019 17:15:00 21.8 C 72 % 16.53 C
209 20-06-2019 17:20:00 21.5 C 75 % 16.88 C
210 20-06-2019 17:25:00 21.4 C 79 % 17.61 C
211 20-06-2019 17:30:00 21.1 C 77 % 16.91 C
212 20-06-2019 17:35:00 20.9 C 78 % 16.92 C
213 20-06-2019 17:40:00 20.6 C 80 % 17.03 C
214 20-06-2019 17:45:00 20.4 C 81 % 17.03 C
215 20-06-2019 17:50:00 20.3 C 81 % 16.93 C
216 20-06-2019 17:55:00 20.2 C 81 % 16.84 C
217 20-06-2019 18:00:00 20.1 C 82 % 16.93 C
218 20-06-2019 18:05:00 20.1 C 82 % 16.93 C
219 20-06-2019 18:10:00 19.9 C 82 % 16.74 C
220 20-06-2019 18:15:00 19.9 C 82 % 16.74 C
221 20-06-2019 18:20:00 20.1 C 83 % 17.12 C
222 20-06-2019 18:25:00 20.2 C 80 % 16.64 C
223 20-06-2019 18:30:00 20.2 C 80 % 16.64 C
224 20-06-2019 18:35:00 20.2 C 81 % 16.84 C
225 20-06-2019 18:40:00 20.1 C 81 % 16.74 C
Sensor: Nr:Datum:Temp:Feuchte:Taupunkt:
Aussen-T/F 226 20-06-2019 18:45:00 20 C 80 % 16.44 C
227 20-06-2019 18:50:00 19.8 C 80 % 16.25 C
228 20-06-2019 18:55:00 19.4 C 80 % 15.86 C
229 20-06-2019 19:00:00 19.2 C 82 % 16.05 C
230 20-06-2019 19:05:00 19.1 C 81 % 15.76 C
231 20-06-2019 19:10:00 18.9 C 82 % 15.76 C
232 20-06-2019 19:15:00 18.8 C 81 % 15.47 C
233 20-06-2019 19:20:00 18.8 C 81 % 15.47 C
234 20-06-2019 19:25:00 18.7 C 81 % 15.37 C
235 20-06-2019 19:30:00 18.6 C 82 % 15.47 C
236 20-06-2019 19:35:00 18.7 C 83 % 15.75 C
237 20-06-2019 19:40:00 18.6 C 82 % 15.47 C
238 20-06-2019 19:45:00 18.6 C 83 % 15.66 C
239 20-06-2019 19:50:00 18.6 C 82 % 15.47 C
240 20-06-2019 19:55:00 18.5 C 82 % 15.37 C
241 20-06-2019 20:00:00 18.6 C 82 % 15.47 C
242 20-06-2019 20:05:00 18.6 C 82 % 15.47 C
243 20-06-2019 20:10:00 18.6 C 81 % 15.28 C
244 20-06-2019 20:15:00 18.6 C 82 % 15.47 C
245 20-06-2019 20:20:00 18.6 C 81 % 15.28 C
246 20-06-2019 20:25:00 18.6 C 82 % 15.47 C
247 20-06-2019 20:30:00 18.7 C 82 % 15.57 C
248 20-06-2019 20:35:00 18.7 C 83 % 15.75 C
249 20-06-2019 20:40:00 18.7 C 82 % 15.57 C
250 20-06-2019 20:45:00 18.7 C 83 % 15.75 C
Sensor: Nr:Datum:Temp:Feuchte:Taupunkt:
Aussen-T/F 251 20-06-2019 20:50:00 18.8 C 84 % 16.04 C
252 20-06-2019 20:55:00 18.8 C 84 % 16.04 C
253 20-06-2019 21:00:00 18.7 C 83 % 15.75 C
254 20-06-2019 21:05:00 18.7 C 83 % 15.75 C
255 20-06-2019 21:10:00 18.6 C 83 % 15.66 C
256 20-06-2019 21:15:00 18.5 C 84 % 15.75 C
257 20-06-2019 21:20:00 18.4 C 84 % 15.65 C
258 20-06-2019 21:25:00 18.3 C 84 % 15.55 C
259 20-06-2019 21:30:00 18.2 C 84 % 15.45 C
260 20-06-2019 21:35:00 18.1 C 84 % 15.35 C
261 20-06-2019 21:40:00 18 C 84 % 15.26 C
262 20-06-2019 21:45:00 17.8 C 85 % 15.25 C
263 20-06-2019 21:50:00 17.7 C 85 % 15.15 C
264 20-06-2019 21:55:00 17.6 C 86 % 15.23 C
265 20-06-2019 22:00:00 17.4 C 86 % 15.03 C
266 20-06-2019 22:05:00 17.3 C 86 % 14.94 C
267 20-06-2019 22:10:00 17.2 C 87 % 15.02 C
268 20-06-2019 22:15:00 17.1 C 87 % 14.92 C
269 20-06-2019 22:20:00 17.1 C 87 % 14.92 C
270 20-06-2019 22:25:00 17 C 87 % 14.82 C
271 20-06-2019 22:30:00 16.9 C 87 % 14.72 C
272 20-06-2019 22:35:00 16.8 C 87 % 14.62 C
273 20-06-2019 22:40:00 16.7 C 87 % 14.53 C
274 20-06-2019 22:45:00 16.6 C 87 % 14.43 C
275 20-06-2019 22:50:00 16.4 C 88 % 14.41 C
Sensor: Nr:Datum:Temp:Feuchte:Taupunkt:
Aussen-T/F 276 20-06-2019 22:55:00 16.3 C 88 % 14.31 C
277 20-06-2019 23:00:00 16.2 C 88 % 14.21 C
278 20-06-2019 23:05:00 16.1 C 89 % 14.29 C
279 20-06-2019 23:10:00 16 C 89 % 14.19 C
280 20-06-2019 23:15:00 15.9 C 90 % 14.26 C
281 20-06-2019 23:20:00 15.8 C 90 % 14.16 C
282 20-06-2019 23:25:00 15.7 C 91 % 14.24 C
283 20-06-2019 23:30:00 15.7 C 91 % 14.24 C
284 20-06-2019 23:35:00 15.6 C 92 % 14.31 C
285 20-06-2019 23:40:00 15.5 C 92 % 14.21 C
286 20-06-2019 23:45:00 15.5 C 92 % 14.21 C
287 20-06-2019 23:50:00 15.4 C 92 % 14.11 C
288 20-06-2019 23:55:00 15.3 C 92 % 14.01 C
289 21-06-2019 00:00:00 15.4 C 93 % 14.27 C
290 21-06-2019 00:05:00 15.5 C 94 % 14.54 C
291 21-06-2019 00:10:00 15.6 C 94 % 14.64 C
292 21-06-2019 00:15:00 15.6 C 94 % 14.64 C
293 21-06-2019 00:20:00 15.7 C 94 % 14.74 C
294 21-06-2019 00:25:00 15.7 C 94 % 14.74 C
295 21-06-2019 00:30:00 15.7 C 94 % 14.74 C
296 21-06-2019 00:35:00 15.6 C 93 % 14.47 C
297 21-06-2019 00:40:00 15.4 C 93 % 14.27 C
298 21-06-2019 00:45:00 15.3 C 93 % 14.18 C
299 21-06-2019 00:50:00 15.3 C 93 % 14.18 C
300 21-06-2019 00:55:00 15.2 C 93 % 14.08 C
Sensor: Nr:Datum:Temp:Feuchte:Taupunkt:
Aussen-T/F 301 21-06-2019 01:00:00 15.2 C 93 % 14.08 C
302 21-06-2019 01:05:00 15.1 C 93 % 13.98 C
303 21-06-2019 01:10:00 15.1 C 93 % 13.98 C
304 21-06-2019 01:15:00 15.1 C 93 % 13.98 C
305 21-06-2019 01:20:00 15 C 93 % 13.88 C
306 21-06-2019 01:25:00 14.9 C 93 % 13.78 C
307 21-06-2019 01:30:00 14.9 C 93 % 13.78 C
308 21-06-2019 01:35:00 14.8 C 93 % 13.68 C
309 21-06-2019 01:40:00 14.7 C 93 % 13.58 C
310 21-06-2019 01:45:00 14.7 C 93 % 13.58 C
311 21-06-2019 01:50:00 14.6 C 93 % 13.48 C
312 21-06-2019 01:55:00 14.6 C 93 % 13.48 C
313 21-06-2019 02:00:00 14.7 C 94 % 13.74 C
314 21-06-2019 02:05:00 14.7 C 94 % 13.74 C
315 21-06-2019 02:10:00 14.7 C 94 % 13.74 C
316 21-06-2019 02:15:00 14.7 C 94 % 13.74 C
317 21-06-2019 02:20:00 14.7 C 94 % 13.74 C
318 21-06-2019 02:25:00 14.7 C 94 % 13.74 C
319 21-06-2019 02:30:00 14.8 C 94 % 13.84 C
320 21-06-2019 02:35:00 14.8 C 94 % 13.84 C
321 21-06-2019 02:40:00 14.8 C 95 % 14.01 C
322 21-06-2019 02:45:00 14.9 C 95 % 14.11 C
323 21-06-2019 02:50:00 14.9 C 95 % 14.11 C
324 21-06-2019 02:55:00 15 C 95 % 14.21 C
325 21-06-2019 03:00:00 15 C 95 % 14.21 C
Sensor: Nr:Datum:Temp:Feuchte:Taupunkt:
Aussen-T/F 326 21-06-2019 03:05:00 15 C 94 % 14.04 C
327 21-06-2019 03:10:00 15 C 94 % 14.04 C
328 21-06-2019 03:15:00 15 C 94 % 14.04 C
329 21-06-2019 03:20:00 15.1 C 95 % 14.31 C
330 21-06-2019 03:25:00 15.1 C 95 % 14.31 C
331 21-06-2019 03:30:00 15.1 C 94 % 14.14 C
332 21-06-2019 03:35:00 15.1 C 94 % 14.14 C
333 21-06-2019 03:40:00 15.1 C 94 % 14.14 C
334 21-06-2019 03:45:00 15.1 C 94 % 14.14 C
335 21-06-2019 03:50:00 15.1 C 94 % 14.14 C
336 21-06-2019 03:55:00 15.1 C 94 % 14.14 C
337 21-06-2019 04:00:00 15 C 94 % 14.04 C
338 21-06-2019 04:05:00 15 C 95 % 14.21 C
339 21-06-2019 04:10:00 15.1 C 95 % 14.31 C
340 21-06-2019 04:15:00 15.1 C 94 % 14.14 C
341 21-06-2019 04:20:00 15.1 C 94 % 14.14 C
342 21-06-2019 04:25:00 15 C 94 % 14.04 C
343 21-06-2019 04:30:00 15 C 94 % 14.04 C
344 21-06-2019 04:35:00 14.9 C 94 % 13.94 C
345 21-06-2019 04:40:00 14.8 C 94 % 13.84 C
346 21-06-2019 04:45:00 14.7 C 94 % 13.74 C
347 21-06-2019 04:50:00 14.7 C 94 % 13.74 C
348 21-06-2019 04:55:00 14.6 C 94 % 13.65 C
349 21-06-2019 05:00:00 14.6 C 94 % 13.65 C
350 21-06-2019 05:05:00 14.5 C 94 % 13.55 C
Sensor: Nr:Datum:Temp:Feuchte:Taupunkt:
Aussen-T/F 351 21-06-2019 05:10:00 14.4 C 94 % 13.45 C
352 21-06-2019 05:15:00 14.3 C 93 % 13.18 C
353 21-06-2019 05:20:00 14.3 C 94 % 13.35 C
354 21-06-2019 05:25:00 14.3 C 94 % 13.35 C
355 21-06-2019 05:30:00 14.3 C 94 % 13.35 C
356 21-06-2019 05:35:00 14.3 C 94 % 13.35 C
357 21-06-2019 05:40:00 14.3 C 94 % 13.35 C
358 21-06-2019 05:45:00 14.2 C 94 % 13.25 C
359 21-06-2019 05:50:00 14.2 C 94 % 13.25 C
360 21-06-2019 05:55:00 14.2 C 94 % 13.25 C
361 21-06-2019 06:00:00 14.2 C 94 % 13.25 C
362 21-06-2019 06:05:00 14.2 C 94 % 13.25 C
363 21-06-2019 06:10:00 14.2 C 94 % 13.25 C
364 21-06-2019 06:15:00 14.2 C 94 % 13.25 C
365 21-06-2019 06:20:00 14.2 C 94 % 13.25 C
366 21-06-2019 06:25:00 14.2 C 93 % 13.08 C
367 21-06-2019 06:30:00 14.2 C 93 % 13.08 C
368 21-06-2019 06:35:00 14.1 C 93 % 12.99 C
369 21-06-2019 06:40:00 14.1 C 93 % 12.99 C
370 21-06-2019 06:45:00 14.1 C 93 % 12.99 C
371 21-06-2019 06:50:00 14.2 C 93 % 13.08 C
372 21-06-2019 06:55:00 14.2 C 93 % 13.08 C
373 21-06-2019 07:00:00 14.3 C 93 % 13.18 C
374 21-06-2019 07:05:00 14.4 C 94 % 13.45 C
375 21-06-2019 07:10:00 14.6 C 94 % 13.65 C
Sensor: Nr:Datum:Temp:Feuchte:Taupunkt:
Aussen-T/F 376 21-06-2019 07:15:00 14.6 C 93 % 13.48 C
377 21-06-2019 07:20:00 14.7 C 93 % 13.58 C
378 21-06-2019 07:25:00 14.7 C 93 % 13.58 C
379 21-06-2019 07:30:00 14.6 C 92 % 13.32 C
380 21-06-2019 07:35:00 14.6 C 92 % 13.32 C
381 21-06-2019 07:40:00 14.6 C 92 % 13.32 C
382 21-06-2019 07:45:00 14.7 C 92 % 13.41 C
383 21-06-2019 07:50:00 14.9 C 92 % 13.61 C
384 21-06-2019 07:55:00 14.9 C 92 % 13.61 C
385 21-06-2019 08:00:00 15.1 C 90 % 13.47 C
386 21-06-2019 08:05:00 15.2 C 90 % 13.57 C
387 21-06-2019 08:10:00 15.3 C 85 % 12.79 C
388 21-06-2019 08:15:00 15.5 C 82 % 12.44 C
389 21-06-2019 08:20:00 15.8 C 79 % 12.17 C
390 21-06-2019 08:25:00 16 C 78 % 12.17 C
391 21-06-2019 08:30:00 16.2 C 77 % 12.17 C
392 21-06-2019 08:35:00 16.3 C 76 % 12.07 C
393 21-06-2019 08:40:00 16.3 C 74 % 11.66 C
394 21-06-2019 08:45:00 16.3 C 74 % 11.66 C
395 21-06-2019 08:50:00 16.3 C 73 % 11.46 C
396 21-06-2019 08:55:00 16.3 C 75 % 11.86 C
397 21-06-2019 09:00:00 16.3 C 74 % 11.66 C
398 21-06-2019 09:05:00 16.3 C 74 % 11.66 C
399 21-06-2019 09:10:00 16.4 C 75 % 11.96 C
400 21-06-2019 09:15:00 16.5 C 74 % 11.85 C
Sensor: Nr:Datum:Temp:Feuchte:Taupunkt:
Aussen-T/F 401 21-06-2019 09:20:00 16.6 C 74 % 11.95 C
402 21-06-2019 09:25:00 16.7 C 74 % 12.05 C
403 21-06-2019 09:30:00 16.7 C 74 % 12.05 C
404 21-06-2019 09:35:00 16.8 C 72 % 11.73 C
405 21-06-2019 09:40:00 16.9 C 72 % 11.82 C
406 21-06-2019 09:45:00 17 C 72 % 11.92 C
407 21-06-2019 09:50:00 17.1 C 72 % 12.02 C
408 21-06-2019 09:55:00 17.1 C 72 % 12.02 C
409 21-06-2019 10:00:00 17.2 C 73 % 12.32 C
410 21-06-2019 10:05:00 17.3 C 70 % 11.78 C
411 21-06-2019 10:10:00 17.4 C 69 % 11.66 C
412 21-06-2019 10:15:00 17.7 C 68 % 11.72 C
413 21-06-2019 10:20:00 17.9 C 68 % 11.91 C
414 21-06-2019 10:25:00 18.1 C 68 % 12.11 C
415 21-06-2019 10:30:00 18.4 C 66 % 11.94 C
416 21-06-2019 10:35:00 18.7 C 66 % 12.22 C
417 21-06-2019 10:40:00 19 C 63 % 11.8 C
418 21-06-2019 10:45:00 19.1 C 64 % 12.14 C
419 21-06-2019 10:50:00 19.3 C 62 % 11.84 C
420 21-06-2019 10:55:00 19.3 C 61 % 11.6 C
421 21-06-2019 11:00:00 19.2 C 63 % 11.99 C
422 21-06-2019 11:05:00 19.3 C 61 % 11.6 C
423 21-06-2019 11:10:00 19.4 C 65 % 12.66 C
424 21-06-2019 11:15:00 19.4 C 61 % 11.69 C
425 21-06-2019 11:20:00 19.4 C 60 % 11.44 C
Sensor: Nr:Datum:Temp:Feuchte:Taupunkt:
Aussen-T/F 426 21-06-2019 11:25:00 19.3 C 62 % 11.84 C
427 21-06-2019 11:30:00 19.2 C 61 % 11.5 C
428 21-06-2019 11:35:00 19.4 C 61 % 11.69 C
429 21-06-2019 11:40:00 19.6 C 60 % 11.63 C
430 21-06-2019 11:45:00 19.8 C 59 % 11.56 C
431 21-06-2019 11:50:00 19.7 C 60 % 11.72 C
432 21-06-2019 11:55:00 19.7 C 59 % 11.47 C
433 21-06-2019 12:00:00 19.7 C 63 % 12.46 C
434 21-06-2019 12:05:00 19.8 C 62 % 12.31 C
435 21-06-2019 12:10:00 19.9 C 58 % 11.4 C
436 21-06-2019 12:15:00 20.2 C 58 % 11.68 C
437 21-06-2019 12:20:00 20.2 C 56 % 11.15 C
438 21-06-2019 12:25:00 20.2 C 57 % 11.42 C
439 21-06-2019 12:30:00 20 C 58 % 11.49 C
440 21-06-2019 12:35:00 19.9 C 58 % 11.4 C
441 21-06-2019 12:40:00 20.1 C 58 % 11.58 C
442 21-06-2019 12:45:00 20.2 C 58 % 11.68 C
443 21-06-2019 12:50:00 20.4 C 57 % 11.6 C
444 21-06-2019 12:55:00 20.7 C 56 % 11.61 C
445 21-06-2019 13:00:00 21.1 C 54 % 11.44 C
446 21-06-2019 13:05:00 21.3 C 53 % 11.34 C
447 21-06-2019 13:10:00 21.2 C 54 % 11.53 C
448 21-06-2019 13:15:00 21 C 54 % 11.34 C
449 21-06-2019 13:20:00 21 C 53 % 11.06 C
450 21-06-2019 13:25:00 21.1 C 52 % 10.87 C
Sensor: Nr:Datum:Temp:Feuchte:Taupunkt:
Aussen-T/F 451 21-06-2019 13:30:00 21.1 C 55 % 11.71 C
452 21-06-2019 13:35:00 21.2 C 52 % 10.96 C
453 21-06-2019 13:40:00 21.3 C 53 % 11.34 C
454 21-06-2019 13:45:00 21.5 C 52 % 11.24 C
455 21-06-2019 13:50:00 21.8 C 50 % 10.92 C
456 21-06-2019 13:55:00 22 C 50 % 11.11 C
457 21-06-2019 14:00:00 22.1 C 48 % 10.58 C
458 21-06-2019 14:05:00 21.9 C 48 % 10.4 C
459 21-06-2019 14:10:00 21.9 C 48 % 10.4 C
460 21-06-2019 14:15:00 21.8 C 48 % 10.31 C
461 21-06-2019 14:20:00 21.8 C 49 % 10.62 C
462 21-06-2019 14:25:00 21.8 C 49 % 10.62 C
463 21-06-2019 14:30:00 21.8 C 45 % 9.35 C
464 21-06-2019 14:35:00 21.9 C 45 % 9.44 C
465 21-06-2019 14:40:00 22.1 C 46 % 9.95 C
466 21-06-2019 14:45:00 22.4 C 47 % 10.54 C
467 21-06-2019 14:50:00 22.5 C 48 % 10.95 C
468 21-06-2019 14:55:00 22.4 C 48 % 10.86 C
469 21-06-2019 15:00:00 22.3 C 47 % 10.45 C
470 21-06-2019 15:05:00 22.2 C 47 % 10.36 C
471 21-06-2019 15:10:00 22.1 C 48 % 10.58 C
472 21-06-2019 15:15:00 22.2 C 47 % 10.36 C
473 21-06-2019 15:20:00 22.2 C 48 % 10.67 C
474 21-06-2019 15:25:00 22.6 C 46 % 10.4 C
475 21-06-2019 15:30:00 22.9 C 47 % 11 C
Sensor: Nr:Datum:Temp:Feuchte:Taupunkt:
Aussen-T/F 476 21-06-2019 15:35:00 22.8 C 45 % 10.25 C
477 21-06-2019 15:40:00 22.8 C 44 % 9.92 C
478 21-06-2019 15:45:00 22.8 C 44 % 9.92 C
479 21-06-2019 15:50:00 22.9 C 46 % 10.67 C
480 21-06-2019 15:55:00 23.4 C 46 % 11.13 C
481 21-06-2019 16:00:00 23.8 C 43 % 10.48 C
482 21-06-2019 16:05:00 23.9 C 40 % 9.49 C
483 21-06-2019 16:10:00 23.7 C 41 % 9.68 C
484 21-06-2019 16:15:00 23.6 C 44 % 10.64 C
485 21-06-2019 16:20:00 23.7 C 41 % 9.68 C
486 21-06-2019 16:25:00 23.5 C 43 % 10.21 C
487 21-06-2019 16:30:00 23.2 C 47 % 11.27 C
488 21-06-2019 16:35:00 23.2 C 46 % 10.95 C
489 21-06-2019 16:40:00 23.4 C 45 % 10.8 C
490 21-06-2019 16:45:00 23.8 C 44 % 10.82 C
491 21-06-2019 16:50:00 23.8 C 43 % 10.48 C
492 21-06-2019 16:55:00 24.1 C 42 % 10.39 C
493 21-06-2019 17:00:00 24.5 C 43 % 11.11 C
494 21-06-2019 17:05:00 24.7 C 43 % 11.29 C
495 21-06-2019 17:10:00 25.1 C 41 % 10.93 C
496 21-06-2019 17:15:00 25.1 C 38 % 9.79 C
497 21-06-2019 17:20:00 25.1 C 40 % 10.56 C
498 21-06-2019 17:25:00 25 C 40 % 10.47 C
499 21-06-2019 17:30:00 25.1 C 39 % 10.18 C
500 21-06-2019 17:35:00 25 C 39 % 10.09 C
Sensor: Nr:Datum:Temp:Feuchte:Taupunkt:
Aussen-T/F 501 21-06-2019 17:40:00 25.3 C 39 % 10.36 C
502 21-06-2019 17:45:00 25.4 C 38 % 10.06 C
503 21-06-2019 17:50:00 25.6 C 37 % 9.84 C
504 21-06-2019 17:55:00 25.6 C 37 % 9.84 C
505 21-06-2019 18:00:00 25.7 C 38 % 10.32 C
506 21-06-2019 18:05:00 25.8 C 38 % 10.41 C
507 21-06-2019 18:10:00 25.7 C 37 % 9.92 C
508 21-06-2019 18:15:00 25.6 C 38 % 10.23 C
509 21-06-2019 18:20:00 25.4 C 39 % 10.45 C
510 21-06-2019 18:25:00 25.1 C 40 % 10.56 C
511 21-06-2019 18:30:00 24.8 C 40 % 10.29 C
512 21-06-2019 18:35:00 24.7 C 40 % 10.2 C
513 21-06-2019 18:40:00 24.5 C 40 % 10.02 C
514 21-06-2019 18:45:00 24.3 C 41 % 10.21 C
515 21-06-2019 18:50:00 24.1 C 41 % 10.03 C
516 21-06-2019 18:55:00 23.8 C 42 % 10.12 C
517 21-06-2019 19:00:00 23.8 C 42 % 10.12 C
518 21-06-2019 19:05:00 24.1 C 42 % 10.39 C
519 21-06-2019 19:10:00 24.2 C 41 % 10.12 C
520 21-06-2019 19:15:00 24.2 C 41 % 10.12 C
521 21-06-2019 19:20:00 24 C 43 % 10.66 C
522 21-06-2019 19:25:00 23.8 C 42 % 10.12 C
523 21-06-2019 19:30:00 23.7 C 42 % 10.03 C
524 21-06-2019 19:35:00 23.4 C 43 % 10.12 C
525 21-06-2019 19:40:00 23.3 C 45 % 10.71 C
Sensor: Nr:Datum:Temp:Feuchte:Taupunkt:
Aussen-T/F 526 21-06-2019 19:45:00 23.2 C 44 % 10.28 C
527 21-06-2019 19:50:00 23.1 C 44 % 10.19 C
528 21-06-2019 19:55:00 22.8 C 45 % 10.25 C
529 21-06-2019 20:00:00 22.8 C 45 % 10.25 C
530 21-06-2019 20:05:00 22.7 C 45 % 10.16 C
531 21-06-2019 20:10:00 22.6 C 45 % 10.07 C
532 21-06-2019 20:15:00 22.4 C 46 % 10.22 C
533 21-06-2019 20:20:00 22.5 C 47 % 10.63 C
534 21-06-2019 20:25:00 22.4 C 46 % 10.22 C
535 21-06-2019 20:30:00 22.3 C 46 % 10.13 C
536 21-06-2019 20:35:00 22.1 C 46 % 9.95 C
537 21-06-2019 20:40:00 21.9 C 49 % 10.71 C
538 21-06-2019 20:45:00 21.7 C 48 % 10.22 C
539 21-06-2019 20:50:00 21.5 C 52 % 11.24 C
540 21-06-2019 20:55:00 20.9 C 51 % 10.39 C
541 21-06-2019 21:00:00 20.4 C 53 % 10.51 C
542 21-06-2019 21:05:00 20.2 C 53 % 10.32 C
543 21-06-2019 21:10:00 20.1 C 53 % 10.23 C
544 21-06-2019 21:15:00 20 C 53 % 10.14 C
545 21-06-2019 21:20:00 19.9 C 54 % 10.32 C
546 21-06-2019 21:25:00 19.8 C 57 % 11.04 C
547 21-06-2019 21:30:00 19.6 C 58 % 11.12 C
548 21-06-2019 21:35:00 19.2 C 60 % 11.25 C
549 21-06-2019 21:40:00 18.8 C 59 % 10.63 C
550 21-06-2019 21:45:00 18.5 C 61 % 10.84 C
Sensor: Nr:Datum:Temp:Feuchte:Taupunkt:
Aussen-T/F 551 21-06-2019 21:50:00 18.2 C 62 % 10.81 C
552 21-06-2019 21:55:00 17.8 C 63 % 10.67 C
553 21-06-2019 22:00:00 17.6 C 64 % 10.72 C
554 21-06-2019 22:05:00 17.3 C 64 % 10.43 C
555 21-06-2019 22:10:00 17.1 C 65 % 10.47 C
556 21-06-2019 22:15:00 16.9 C 65 % 10.28 C
557 21-06-2019 22:20:00 16.8 C 66 % 10.42 C
558 21-06-2019 22:25:00 16.7 C 66 % 10.32 C
559 21-06-2019 22:30:00 16.5 C 67 % 10.36 C
560 21-06-2019 22:35:00 16.3 C 67 % 10.17 C
561 21-06-2019 22:40:00 16.2 C 68 % 10.29 C
562 21-06-2019 22:45:00 16.1 C 68 % 10.2 C
563 21-06-2019 22:50:00 15.9 C 68 % 10.01 C
564 21-06-2019 22:55:00 15.8 C 69 % 10.13 C
565 21-06-2019 23:00:00 15.8 C 70 % 10.34 C
566 21-06-2019 23:05:00 15.7 C 70 % 10.25 C
567 21-06-2019 23:10:00 15.6 C 71 % 10.37 C
568 21-06-2019 23:15:00 15.5 C 72 % 10.48 C
569 21-06-2019 23:20:00 15.4 C 72 % 10.38 C
570 21-06-2019 23:25:00 15.3 C 72 % 10.29 C
571 21-06-2019 23:30:00 15.2 C 73 % 10.4 C
572 21-06-2019 23:35:00 15.1 C 73 % 10.3 C
573 21-06-2019 23:40:00 14.9 C 73 % 10.11 C
574 21-06-2019 23:45:00 14.9 C 74 % 10.31 C
575 21-06-2019 23:50:00 14.8 C 75 % 10.42 C
Sensor: Nr:Datum:Temp:Feuchte:Taupunkt:
Aussen-T/F 576 21-06-2019 23:55:00 14.6 C 75 % 10.22 C
577 22-06-2019 00:00:00 14.4 C 76 % 10.23 C
578 22-06-2019 00:05:00 14.3 C 77 % 10.33 C
579 22-06-2019 00:10:00 14.2 C 78 % 10.42 C
580 22-06-2019 00:15:00 14 C 78 % 10.23 C
581 22-06-2019 00:20:00 13.8 C 79 % 10.22 C
582 22-06-2019 00:25:00 13.7 C 79 % 10.13 C
583 22-06-2019 00:30:00 13.6 C 79 % 10.03 C
584 22-06-2019 00:35:00 13.5 C 80 % 10.12 C
585 22-06-2019 00:40:00 13.4 C 80 % 10.02 C
586 22-06-2019 00:45:00 13.3 C 80 % 9.93 C
587 22-06-2019 00:50:00 13.2 C 81 % 10.01 C
588 22-06-2019 00:55:00 13.2 C 81 % 10.01 C
589 22-06-2019 01:00:00 13.1 C 82 % 10.1 C
590 22-06-2019 01:05:00 13.1 C 82 % 10.1 C
591 22-06-2019 01:10:00 13.1 C 82 % 10.1 C
592 22-06-2019 01:15:00 13.1 C 82 % 10.1 C
593 22-06-2019 01:20:00 13.1 C 82 % 10.1 C
594 22-06-2019 01:25:00 13.1 C 82 % 10.1 C
595 22-06-2019 01:30:00 13.1 C 82 % 10.1 C
596 22-06-2019 01:35:00 13.1 C 82 % 10.1 C
597 22-06-2019 01:40:00 13 C 82 % 10 C
598 22-06-2019 01:45:00 12.9 C 83 % 10.09 C
599 22-06-2019 01:50:00 12.8 C 83 % 9.99 C
600 22-06-2019 01:55:00 12.7 C 83 % 9.89 C
Sensor: Nr:Datum:Temp:Feuchte:Taupunkt:
Aussen-T/F 601 22-06-2019 02:00:00 12.6 C 84 % 9.97 C
602 22-06-2019 02:05:00 12.4 C 84 % 9.78 C
603 22-06-2019 02:10:00 12.3 C 85 % 9.85 C
604 22-06-2019 02:15:00 12.3 C 85 % 9.85 C
605 22-06-2019 02:20:00 12.2 C 85 % 9.76 C
606 22-06-2019 02:25:00 12.2 C 86 % 9.93 C
607 22-06-2019 02:30:00 12.1 C 86 % 9.83 C
608 22-06-2019 02:35:00 12 C 86 % 9.73 C
609 22-06-2019 02:40:00 11.9 C 86 % 9.64 C
610 22-06-2019 02:45:00 11.8 C 87 % 9.71 C
611 22-06-2019 02:50:00 11.8 C 87 % 9.71 C
612 22-06-2019 02:55:00 11.7 C 87 % 9.61 C
613 22-06-2019 03:00:00 11.7 C 88 % 9.78 C
614 22-06-2019 03:05:00 11.7 C 88 % 9.78 C
615 22-06-2019 03:10:00 11.6 C 88 % 9.68 C
616 22-06-2019 03:15:00 11.6 C 88 % 9.68 C
617 22-06-2019 03:20:00 11.6 C 88 % 9.68 C
618 22-06-2019 03:25:00 11.5 C 88 % 9.58 C
619 22-06-2019 03:30:00 11.4 C 89 % 9.65 C
620 22-06-2019 03:35:00 11.4 C 89 % 9.65 C
621 22-06-2019 03:40:00 11.4 C 89 % 9.65 C
622 22-06-2019 03:45:00 11.4 C 89 % 9.65 C
623 22-06-2019 03:50:00 11.4 C 89 % 9.65 C
624 22-06-2019 03:55:00 11.3 C 89 % 9.55 C
625 22-06-2019 04:00:00 11.3 C 90 % 9.72 C
Sensor: Nr:Datum:Temp:Feuchte:Taupunkt:
Aussen-T/F 626 22-06-2019 04:05:00 11.3 C 90 % 9.72 C
627 22-06-2019 04:10:00 11.3 C 90 % 9.72 C
628 22-06-2019 04:15:00 11.2 C 90 % 9.62 C
629 22-06-2019 04:20:00 11.1 C 90 % 9.52 C
630 22-06-2019 04:25:00 11.1 C 90 % 9.52 C
631 22-06-2019 04:30:00 11 C 90 % 9.42 C
632 22-06-2019 04:35:00 11 C 91 % 9.59 C
633 22-06-2019 04:40:00 10.9 C 91 % 9.49 C
634 22-06-2019 04:45:00 10.9 C 91 % 9.49 C
635 22-06-2019 04:50:00 10.8 C 91 % 9.39 C
636 22-06-2019 04:55:00 10.8 C 91 % 9.39 C
637 22-06-2019 05:00:00 10.8 C 91 % 9.39 C
638 22-06-2019 05:05:00 10.8 C 91 % 9.39 C
639 22-06-2019 05:10:00 10.7 C 91 % 9.29 C
640 22-06-2019 05:15:00 10.7 C 92 % 9.45 C
641 22-06-2019 05:20:00 10.7 C 92 % 9.45 C
642 22-06-2019 05:25:00 10.7 C 92 % 9.45 C
643 22-06-2019 05:30:00 10.7 C 92 % 9.45 C
644 22-06-2019 05:35:00 10.7 C 92 % 9.45 C
645 22-06-2019 05:40:00 10.6 C 92 % 9.36 C
646 22-06-2019 05:45:00 10.6 C 92 % 9.36 C
647 22-06-2019 05:50:00 10.5 C 92 % 9.26 C
648 22-06-2019 05:55:00 10.6 C 92 % 9.36 C
649 22-06-2019 06:00:00 10.6 C 92 % 9.36 C
650 22-06-2019 06:05:00 10.6 C 93 % 9.52 C
Sensor: Nr:Datum:Temp:Feuchte:Taupunkt:
Aussen-T/F 651 22-06-2019 06:10:00 10.6 C 93 % 9.52 C
652 22-06-2019 06:15:00 10.6 C 93 % 9.52 C
653 22-06-2019 06:20:00 10.7 C 93 % 9.62 C
654 22-06-2019 06:25:00 10.7 C 93 % 9.62 C
655 22-06-2019 06:30:00 10.7 C 93 % 9.62 C
656 22-06-2019 06:35:00 10.7 C 93 % 9.62 C
657 22-06-2019 06:40:00 10.8 C 93 % 9.71 C
658 22-06-2019 06:45:00 10.8 C 93 % 9.71 C
659 22-06-2019 06:50:00 10.8 C 93 % 9.71 C
660 22-06-2019 06:55:00 10.9 C 94 % 9.97 C
661 22-06-2019 07:00:00 11 C 94 % 10.07 C
662 22-06-2019 07:05:00 11.1 C 94 % 10.17 C
663 22-06-2019 07:10:00 11.2 C 94 % 10.27 C
664 22-06-2019 07:15:00 11.4 C 94 % 10.47 C
665 22-06-2019 07:20:00 11.6 C 94 % 10.67 C
666 22-06-2019 07:25:00 11.7 C 94 % 10.77 C
667 22-06-2019 07:30:00 11.8 C 95 % 11.03 C
668 22-06-2019 07:35:00 12 C 94 % 11.07 C
669 22-06-2019 07:40:00 12.2 C 95 % 11.42 C
670 22-06-2019 07:45:00 12.3 C 94 % 11.36 C
671 22-06-2019 07:50:00 12.6 C 95 % 11.82 C
672 22-06-2019 07:55:00 12.8 C 95 % 12.02 C
673 22-06-2019 08:00:00 12.9 C 94 % 11.96 C
674 22-06-2019 08:05:00 13 C 93 % 11.9 C
675 22-06-2019 08:10:00 13.2 C 93 % 12.09 C
Sensor: Nr:Datum:Temp:Feuchte:Taupunkt:
Aussen-T/F 676 22-06-2019 08:15:00 13.4 C 92 % 12.13 C
677 22-06-2019 08:20:00 13.7 C 92 % 12.42 C
678 22-06-2019 08:25:00 13.8 C 91 % 12.36 C
679 22-06-2019 08:30:00 13.9 C 90 % 12.29 C
680 22-06-2019 08:35:00 14.2 C 89 % 12.41 C
681 22-06-2019 08:40:00 14.3 C 90 % 12.68 C
682 22-06-2019 08:45:00 14.4 C 88 % 12.44 C
683 22-06-2019 08:50:00 14.6 C 88 % 12.64 C
684 22-06-2019 08:55:00 14.7 C 87 % 12.56 C
685 22-06-2019 09:00:00 14.9 C 87 % 12.76 C
686 22-06-2019 09:05:00 15.1 C 86 % 12.78 C
687 22-06-2019 09:10:00 15.3 C 84 % 12.61 C
688 22-06-2019 09:15:00 15.6 C 85 % 13.09 C
689 22-06-2019 09:20:00 15.8 C 81 % 12.55 C
690 22-06-2019 09:25:00 16.2 C 79 % 12.56 C
691 22-06-2019 09:30:00 16.4 C 77 % 12.36 C
692 22-06-2019 09:35:00 16.6 C 77 % 12.55 C
693 22-06-2019 09:40:00 16.9 C 78 % 13.04 C
694 22-06-2019 09:45:00 17.2 C 76 % 12.94 C
695 22-06-2019 09:50:00 17.5 C 75 % 13.02 C
696 22-06-2019 09:55:00 17.8 C 73 % 12.9 C
697 22-06-2019 10:00:00 18.1 C 72 % 12.98 C
698 22-06-2019 10:05:00 18.4 C 69 % 12.61 C
699 22-06-2019 10:10:00 18.7 C 69 % 12.9 C
700 22-06-2019 10:15:00 18.9 C 68 % 12.87 C
Sensor: Nr:Datum:Temp:Feuchte:Taupunkt:
Aussen-T/F 701 22-06-2019 10:20:00 19.2 C 68 % 13.15 C
702 22-06-2019 10:25:00 19.4 C 67 % 13.12 C
703 22-06-2019 10:30:00 19.7 C 68 % 13.63 C
704 22-06-2019 10:35:00 20 C 67 % 13.69 C
705 22-06-2019 10:40:00 20.2 C 65 % 13.41 C
706 22-06-2019 10:45:00 20.3 C 65 % 13.51 C
707 22-06-2019 10:50:00 20.4 C 64 % 13.37 C
708 22-06-2019 10:55:00 20.4 C 64 % 13.37 C
709 22-06-2019 11:00:00 20.6 C 64 % 13.55 C
710 22-06-2019 11:05:00 20.8 C 63 % 13.5 C
711 22-06-2019 11:10:00 20.9 C 63 % 13.6 C
712 22-06-2019 11:15:00 20.9 C 63 % 13.6 C
713 22-06-2019 11:20:00 21.1 C 62 % 13.54 C
714 22-06-2019 11:25:00 21.2 C 62 % 13.63 C
715 22-06-2019 11:30:00 21.2 C 62 % 13.63 C
716 22-06-2019 11:35:00 21.3 C 61 % 13.48 C
717 22-06-2019 11:40:00 21.4 C 62 % 13.82 C
718 22-06-2019 11:45:00 21.6 C 61 % 13.76 C
719 22-06-2019 11:50:00 21.8 C 61 % 13.95 C
720 22-06-2019 11:55:00 21.8 C 62 % 14.2 C
721 22-06-2019 12:00:00 22 C 61 % 14.14 C
722 22-06-2019 12:05:00 22.1 C 61 % 14.23 C
723 22-06-2019 12:10:00 22.3 C 60 % 14.16 C
724 22-06-2019 12:15:00 22.4 C 60 % 14.26 C
725 22-06-2019 12:20:00 22.5 C 60 % 14.35 C
Sensor: Nr:Datum:Temp:Feuchte:Taupunkt:
Aussen-T/F 726 22-06-2019 12:25:00 22.6 C 60 % 14.44 C
727 22-06-2019 12:30:00 22.6 C 60 % 14.44 C
728 22-06-2019 12:35:00 22.8 C 59 % 14.37 C
729 22-06-2019 12:40:00 22.9 C 59 % 14.47 C
730 22-06-2019 12:45:00 23.1 C 59 % 14.65 C
731 22-06-2019 12:50:00 23.3 C 59 % 14.84 C
732 22-06-2019 12:55:00 23.4 C 57 % 14.4 C
733 22-06-2019 13:00:00 23.5 C 58 % 14.76 C
734 22-06-2019 13:05:00 23.7 C 57 % 14.68 C
735 22-06-2019 13:10:00 23.7 C 58 % 14.95 C
736 22-06-2019 13:15:00 23.9 C 56 % 14.59 C
737 22-06-2019 13:20:00 24.1 C 57 % 15.05 C
738 22-06-2019 13:25:00 24.3 C 55 % 14.68 C
739 22-06-2019 13:30:00 24.3 C 55 % 14.68 C
740 22-06-2019 13:35:00 24.3 C 54 % 14.4 C
741 22-06-2019 13:40:00 24.4 C 55 % 14.78 C
742 22-06-2019 13:45:00 24.6 C 54 % 14.68 C
743 22-06-2019 13:50:00 24.7 C 54 % 14.77 C
744 22-06-2019 13:55:00 24.6 C 55 % 14.96 C
745 22-06-2019 14:00:00 24.6 C 54 % 14.68 C
746 22-06-2019 14:05:00 24.7 C 56 % 15.33 C
747 22-06-2019 14:10:00 24.9 C 54 % 14.95 C
748 22-06-2019 14:15:00 25.1 C 54 % 15.14 C
749 22-06-2019 14:20:00 25.1 C 53 % 14.85 C
750 22-06-2019 14:25:00 25.1 C 54 % 15.14 C
Sensor: Nr:Datum:Temp:Feuchte:Taupunkt:
Aussen-T/F 751 22-06-2019 14:30:00 25.2 C 53 % 14.94 C
752 22-06-2019 14:35:00 25.1 C 54 % 15.14 C
753 22-06-2019 14:40:00 25.1 C 54 % 15.14 C
754 22-06-2019 14:45:00 25.1 C 53 % 14.85 C
755 22-06-2019 14:50:00 25.1 C 54 % 15.14 C
756 22-06-2019 14:55:00 25.2 C 54 % 15.23 C
757 22-06-2019 15:00:00 25.3 C 52 % 14.74 C
758 22-06-2019 15:05:00 25.3 C 52 % 14.74 C
759 22-06-2019 15:10:00 25.3 C 51 % 14.44 C
760 22-06-2019 15:15:00 25.3 C 52 % 14.74 C
761 22-06-2019 15:20:00 25.6 C 49 % 14.1 C
762 22-06-2019 15:25:00 25.8 C 49 % 14.28 C
763 22-06-2019 15:30:00 25.8 C 47 % 13.64 C
764 22-06-2019 15:35:00 25.7 C 50 % 14.5 C
765 22-06-2019 15:40:00 25.7 C 50 % 14.5 C
766 22-06-2019 15:45:00 25.7 C 50 % 14.5 C
767 22-06-2019 15:50:00 25.8 C 48 % 13.96 C
768 22-06-2019 15:55:00 25.8 C 49 % 14.28 C
769 22-06-2019 16:00:00 25.8 C 46 % 13.31 C
770 22-06-2019 16:05:00 25.9 C 47 % 13.73 C
771 22-06-2019 16:10:00 26.1 C 48 % 14.23 C
772 22-06-2019 16:15:00 26.3 C 50 % 15.05 C
773 22-06-2019 16:20:00 26.6 C 47 % 14.36 C
774 22-06-2019 16:25:00 26.7 C 45 % 13.78 C
775 22-06-2019 16:30:00 26.8 C 47 % 14.55 C
Sensor: Nr:Datum:Temp:Feuchte:Taupunkt:
Aussen-T/F 776 22-06-2019 16:35:00 26.8 C 46 % 14.21 C
777 22-06-2019 16:40:00 26.8 C 47 % 14.55 C
778 22-06-2019 16:45:00 26.8 C 47 % 14.55 C
779 22-06-2019 16:50:00 26.8 C 49 % 15.19 C
780 22-06-2019 16:55:00 26.7 C 47 % 14.45 C
781 22-06-2019 17:00:00 26.6 C 47 % 14.36 C
782 22-06-2019 17:05:00 26.4 C 48 % 14.51 C
783 22-06-2019 17:10:00 26.3 C 48 % 14.42 C
784 22-06-2019 17:15:00 26.1 C 48 % 14.23 C
785 22-06-2019 17:20:00 25.9 C 49 % 14.37 C
786 22-06-2019 17:25:00 25.8 C 50 % 14.59 C
787 22-06-2019 17:30:00 25.9 C 50 % 14.68 C
788 22-06-2019 17:35:00 26 C 53 % 15.68 C
789 22-06-2019 17:40:00 26.1 C 49 % 14.55 C
790 22-06-2019 17:45:00 26.3 C 49 % 14.74 C
791 22-06-2019 17:50:00 26.7 C 47 % 14.45 C
792 22-06-2019 17:55:00 27.1 C 46 % 14.49 C
793 22-06-2019 18:00:00 27.2 C 46 % 14.58 C
794 22-06-2019 18:05:00 27.4 C 45 % 14.42 C
795 22-06-2019 18:10:00 27.4 C 45 % 14.42 C
796 22-06-2019 18:15:00 27.3 C 45 % 14.33 C
797 22-06-2019 18:20:00 27.4 C 42 % 13.35 C
798 22-06-2019 18:25:00 27.6 C 42 % 13.53 C
799 22-06-2019 18:30:00 27.7 C 42 % 13.62 C
800 22-06-2019 18:35:00 27.7 C 43 % 13.99 C
Sensor: Nr:Datum:Temp:Feuchte:Taupunkt:
Aussen-T/F 801 22-06-2019 18:40:00 27.7 C 43 % 13.99 C
802 22-06-2019 18:45:00 27.4 C 43 % 13.72 C
803 22-06-2019 18:50:00 27.3 C 43 % 13.63 C
804 22-06-2019 18:55:00 27.3 C 43 % 13.63 C
805 22-06-2019 19:00:00 27.4 C 43 % 13.72 C
806 22-06-2019 19:05:00 27.6 C 43 % 13.9 C
807 22-06-2019 19:10:00 27.4 C 44 % 14.07 C
808 22-06-2019 19:15:00 27.4 C 44 % 14.07 C
809 22-06-2019 19:20:00 27.6 C 44 % 14.25 C
810 22-06-2019 19:25:00 27.6 C 43 % 13.9 C
811 22-06-2019 19:30:00 27.6 C 44 % 14.25 C
812 22-06-2019 19:35:00 27.6 C 44 % 14.25 C
813 22-06-2019 19:40:00 27.6 C 45 % 14.6 C
814 22-06-2019 19:45:00 27.6 C 43 % 13.9 C
815 22-06-2019 19:50:00 27.5 C 44 % 14.16 C
816 22-06-2019 19:55:00 27.5 C 44 % 14.16 C
817 22-06-2019 20:00:00 27.4 C 45 % 14.42 C
818 22-06-2019 20:05:00 27.3 C 45 % 14.33 C
819 22-06-2019 20:10:00 27.2 C 45 % 14.24 C
820 22-06-2019 20:15:00 27.2 C 46 % 14.58 C
821 22-06-2019 20:20:00 27.2 C 47 % 14.91 C
822 22-06-2019 20:25:00 27.1 C 47 % 14.82 C
823 22-06-2019 20:30:00 26.9 C 48 % 14.96 C
824 22-06-2019 20:35:00 26.9 C 48 % 14.96 C
825 22-06-2019 20:40:00 26.8 C 49 % 15.19 C
Sensor: Nr:Datum:Temp:Feuchte:Taupunkt:
Aussen-T/F 826 22-06-2019 20:45:00 26.7 C 52 % 16.03 C
827 22-06-2019 20:50:00 26.6 C 52 % 15.94 C
828 22-06-2019 20:55:00 26.1 C 54 % 16.07 C
829 22-06-2019 21:00:00 25.4 C 55 % 15.7 C
830 22-06-2019 21:05:00 24.9 C 57 % 15.8 C
831 22-06-2019 21:10:00 24.5 C 59 % 15.96 C
832 22-06-2019 21:15:00 24.2 C 60 % 15.95 C
833 22-06-2019 21:20:00 23.9 C 63 % 16.43 C
834 22-06-2019 21:25:00 23.7 C 62 % 15.99 C
835 22-06-2019 21:30:00 23.4 C 63 % 15.96 C
836 22-06-2019 21:35:00 23.1 C 63 % 15.67 C
837 22-06-2019 21:40:00 22.7 C 65 % 15.78 C
838 22-06-2019 21:45:00 22.4 C 66 % 15.74 C
839 22-06-2019 21:50:00 22.2 C 67 % 15.78 C
840 22-06-2019 21:55:00 21.9 C 68 % 15.73 C
841 22-06-2019 22:00:00 21.6 C 69 % 15.67 C
842 22-06-2019 22:05:00 21.4 C 70 % 15.7 C
843 22-06-2019 22:10:00 21.1 C 70 % 15.42 C
844 22-06-2019 22:15:00 20.8 C 71 % 15.35 C
845 22-06-2019 22:20:00 20.5 C 72 % 15.28 C
846 22-06-2019 22:25:00 20.2 C 73 % 15.21 C
847 22-06-2019 22:30:00 20 C 74 % 15.23 C
848 22-06-2019 22:35:00 19.8 C 74 % 15.03 C
849 22-06-2019 22:40:00 19.7 C 75 % 15.15 C
850 22-06-2019 22:45:00 19.6 C 76 % 15.26 C
Sensor: Nr:Datum:Temp:Feuchte:Taupunkt:
Aussen-T/F 851 22-06-2019 22:50:00 19.5 C 76 % 15.16 C
852 22-06-2019 22:55:00 19.4 C 77 % 15.27 C
853 22-06-2019 23:00:00 19.3 C 77 % 15.17 C
854 22-06-2019 23:05:00 19.2 C 77 % 15.07 C
855 22-06-2019 23:10:00 19.1 C 78 % 15.18 C
856 22-06-2019 23:15:00 18.9 C 78 % 14.98 C
857 22-06-2019 23:20:00 18.7 C 79 % 14.99 C
858 22-06-2019 23:25:00 18.6 C 80 % 15.08 C
859 22-06-2019 23:30:00 18.5 C 80 % 14.99 C
860 22-06-2019 23:35:00 18.4 C 80 % 14.89 C
861 22-06-2019 23:40:00 18.3 C 80 % 14.79 C
862 22-06-2019 23:45:00 18.3 C 81 % 14.98 C
863 22-06-2019 23:50:00 18.2 C 81 % 14.89 C
864 22-06-2019 23:55:00 18.1 C 81 % 14.79 C
865 23-06-2019 00:00:00 18.1 C 82 % 14.98 C
866 23-06-2019 00:05:00 17.9 C 82 % 14.78 C
867 23-06-2019 00:10:00 17.8 C 82 % 14.69 C
868 23-06-2019 00:15:00 17.7 C 82 % 14.59 C
869 23-06-2019 00:20:00 17.6 C 83 % 14.68 C
870 23-06-2019 00:25:00 17.4 C 83 % 14.48 C
871 23-06-2019 00:30:00 17.3 C 84 % 14.57 C
872 23-06-2019 00:35:00 17.2 C 84 % 14.47 C
873 23-06-2019 00:40:00 17.1 C 84 % 14.38 C
874 23-06-2019 00:45:00 17 C 85 % 14.46 C
875 23-06-2019 00:50:00 16.9 C 85 % 14.36 C
Sensor: Nr:Datum:Temp:Feuchte:Taupunkt:
Aussen-T/F 876 23-06-2019 00:55:00 16.8 C 86 % 14.45 C
877 23-06-2019 01:00:00 16.7 C 86 % 14.35 C
878 23-06-2019 01:05:00 16.7 C 86 % 14.35 C
879 23-06-2019 01:10:00 16.6 C 86 % 14.25 C
880 23-06-2019 01:15:00 16.5 C 86 % 14.15 C
881 23-06-2019 01:20:00 16.4 C 87 % 14.23 C
882 23-06-2019 01:25:00 16.4 C 87 % 14.23 C
883 23-06-2019 01:30:00 16.3 C 87 % 14.13 C
884 23-06-2019 01:35:00 16.2 C 87 % 14.03 C
885 23-06-2019 01:40:00 16.2 C 87 % 14.03 C
886 23-06-2019 01:45:00 16.1 C 88 % 14.11 C
887 23-06-2019 01:50:00 16 C 88 % 14.01 C
888 23-06-2019 01:55:00 15.9 C 88 % 13.92 C
889 23-06-2019 02:00:00 15.9 C 89 % 14.09 C
890 23-06-2019 02:05:00 15.8 C 89 % 13.99 C
891 23-06-2019 02:10:00 15.8 C 89 % 13.99 C
892 23-06-2019 02:15:00 15.8 C 89 % 13.99 C
893 23-06-2019 02:20:00 15.7 C 89 % 13.89 C
894 23-06-2019 02:25:00 15.7 C 89 % 13.89 C
895 23-06-2019 02:30:00 15.7 C 89 % 13.89 C
896 23-06-2019 02:35:00 15.6 C 89 % 13.79 C
897 23-06-2019 02:40:00 15.5 C 89 % 13.7 C
898 23-06-2019 02:45:00 15.4 C 90 % 13.77 C
899 23-06-2019 02:50:00 15.4 C 90 % 13.77 C
900 23-06-2019 02:55:00 15.4 C 90 % 13.77 C
Sensor: Nr:Datum:Temp:Feuchte:Taupunkt:
Aussen-T/F 901 23-06-2019 03:00:00 15.3 C 90 % 13.67 C
902 23-06-2019 03:05:00 15.2 C 90 % 13.57 C
903 23-06-2019 03:10:00 15.2 C 90 % 13.57 C
904 23-06-2019 03:15:00 15.1 C 91 % 13.64 C
905 23-06-2019 03:20:00 15.1 C 91 % 13.64 C
906 23-06-2019 03:25:00 15 C 91 % 13.54 C
907 23-06-2019 03:30:00 14.9 C 91 % 13.44 C
908 23-06-2019 03:35:00 14.8 C 91 % 13.35 C
909 23-06-2019 03:40:00 14.8 C 91 % 13.35 C
910 23-06-2019 03:45:00 14.8 C 92 % 13.51 C
911 23-06-2019 03:50:00 14.8 C 92 % 13.51 C
912 23-06-2019 03:55:00 14.8 C 92 % 13.51 C
913 23-06-2019 04:00:00 14.7 C 92 % 13.41 C
914 23-06-2019 04:05:00 14.7 C 92 % 13.41 C
915 23-06-2019 04:10:00 14.7 C 92 % 13.41 C
916 23-06-2019 04:15:00 14.7 C 92 % 13.41 C
917 23-06-2019 04:20:00 14.7 C 92 % 13.41 C
918 23-06-2019 04:25:00 14.6 C 92 % 13.32 C
919 23-06-2019 04:30:00 14.6 C 92 % 13.32 C
920 23-06-2019 04:35:00 14.4 C 92 % 13.12 C
921 23-06-2019 04:40:00 14.4 C 92 % 13.12 C
922 23-06-2019 04:45:00 14.3 C 93 % 13.18 C
923 23-06-2019 04:50:00 14.3 C 93 % 13.18 C
924 23-06-2019 04:55:00 14.3 C 93 % 13.18 C
925 23-06-2019 05:00:00 14.3 C 93 % 13.18 C
Sensor: Nr:Datum:Temp:Feuchte:Taupunkt:
Aussen-T/F 926 23-06-2019 05:05:00 14.2 C 93 % 13.08 C
927 23-06-2019 05:10:00 14.1 C 93 % 12.99 C
928 23-06-2019 05:15:00 14.1 C 93 % 12.99 C
929 23-06-2019 05:20:00 14.1 C 93 % 12.99 C
930 23-06-2019 05:25:00 14.1 C 93 % 12.99 C
931 23-06-2019 05:30:00 14 C 93 % 12.89 C
932 23-06-2019 05:35:00 14 C 94 % 13.05 C
933 23-06-2019 05:40:00 14 C 93 % 12.89 C
934 23-06-2019 05:45:00 14 C 94 % 13.05 C
935 23-06-2019 05:50:00 14 C 94 % 13.05 C
936 23-06-2019 05:55:00 14 C 94 % 13.05 C
937 23-06-2019 06:00:00 14.1 C 94 % 13.15 C
938 23-06-2019 06:05:00 14.1 C 94 % 13.15 C
939 23-06-2019 06:10:00 14.1 C 94 % 13.15 C
940 23-06-2019 06:15:00 14.1 C 94 % 13.15 C
941 23-06-2019 06:20:00 14.2 C 94 % 13.25 C
942 23-06-2019 06:25:00 14.2 C 94 % 13.25 C
943 23-06-2019 06:30:00 14.3 C 95 % 13.51 C
944 23-06-2019 06:35:00 14.2 C 94 % 13.25 C
945 23-06-2019 06:40:00 14.3 C 94 % 13.35 C
946 23-06-2019 06:45:00 14.3 C 94 % 13.35 C
947 23-06-2019 06:50:00 14.3 C 95 % 13.51 C
948 23-06-2019 06:55:00 14.3 C 94 % 13.35 C
949 23-06-2019 07:00:00 14.4 C 94 % 13.45 C
950 23-06-2019 07:05:00 14.4 C 95 % 13.61 C
Sensor: Nr:Datum:Temp:Feuchte:Taupunkt:
Aussen-T/F 951 23-06-2019 07:10:00 14.5 C 95 % 13.71 C
952 23-06-2019 07:15:00 14.6 C 95 % 13.81 C
953 23-06-2019 07:20:00 14.6 C 95 % 13.81 C
954 23-06-2019 07:25:00 14.7 C 95 % 13.91 C
955 23-06-2019 07:30:00 14.7 C 95 % 13.91 C
956 23-06-2019 07:35:00 14.8 C 95 % 14.01 C
957 23-06-2019 07:40:00 14.9 C 95 % 14.11 C
958 23-06-2019 07:45:00 15 C 95 % 14.21 C
959 23-06-2019 07:50:00 15.1 C 95 % 14.31 C
960 23-06-2019 07:55:00 15.2 C 95 % 14.4 C
961 23-06-2019 08:00:00 15.3 C 95 % 14.5 C
962 23-06-2019 08:05:00 15.4 C 95 % 14.6 C
963 23-06-2019 08:10:00 15.6 C 95 % 14.8 C
964 23-06-2019 08:15:00 15.8 C 95 % 15 C
965 23-06-2019 08:20:00 15.9 C 95 % 15.1 C
966 23-06-2019 08:25:00 16 C 95 % 15.2 C
967 23-06-2019 08:30:00 16.2 C 95 % 15.4 C
968 23-06-2019 08:35:00 16.3 C 94 % 15.33 C
969 23-06-2019 08:40:00 16.4 C 94 % 15.43 C
970 23-06-2019 08:45:00 16.6 C 94 % 15.63 C
971 23-06-2019 08:50:00 16.7 C 94 % 15.73 C
972 23-06-2019 08:55:00 16.9 C 94 % 15.93 C
973 23-06-2019 09:00:00 17.2 C 93 % 16.06 C
974 23-06-2019 09:05:00 17.4 C 93 % 16.26 C
975 23-06-2019 09:10:00 17.6 C 92 % 16.28 C
Sensor: Nr:Datum:Temp:Feuchte:Taupunkt:
Aussen-T/F 976 23-06-2019 09:15:00 17.8 C 91 % 16.31 C
977 23-06-2019 09:20:00 18.1 C 90 % 16.43 C
978 23-06-2019 09:25:00 18.3 C 87 % 16.1 C
979 23-06-2019 09:30:00 18.8 C 87 % 16.59 C
980 23-06-2019 09:35:00 19.1 C 86 % 16.7 C
981 23-06-2019 09:40:00 19.4 C 82 % 16.25 C
982 23-06-2019 09:45:00 19.8 C 83 % 16.83 C
983 23-06-2019 09:50:00 20 C 78 % 16.05 C
984 23-06-2019 09:55:00 20.4 C 76 % 16.03 C
985 23-06-2019 10:00:00 20.8 C 74 % 16 C
986 23-06-2019 10:05:00 21.1 C 74 % 16.29 C
987 23-06-2019 10:10:00 21.5 C 72 % 16.24 C
988 23-06-2019 10:15:00 21.9 C 70 % 16.18 C
989 23-06-2019 10:20:00 22.3 C 70 % 16.56 C
990 23-06-2019 10:25:00 22.7 C 68 % 16.49 C
991 23-06-2019 10:30:00 23 C 68 % 16.78 C
992 23-06-2019 10:35:00 23.2 C 67 % 16.73 C
993 23-06-2019 10:40:00 23.3 C 67 % 16.83 C
994 23-06-2019 10:45:00 23.4 C 66 % 16.69 C
995 23-06-2019 10:50:00 23.5 C 66 % 16.78 C
996 23-06-2019 10:55:00 23.6 C 66 % 16.88 C
997 23-06-2019 11:00:00 23.7 C 66 % 16.97 C
998 23-06-2019 11:05:00 23.7 C 66 % 16.97 C
999 23-06-2019 11:10:00 23.8 C 65 % 16.83 C
1000 23-06-2019 11:15:00 23.9 C 65 % 16.92 C
Sensor: Nr:Datum:Temp:Feuchte:Taupunkt:
Aussen-T/F 1001 23-06-2019 11:20:00 24 C 65 % 17.01 C
1002 23-06-2019 11:25:00 24.1 C 64 % 16.86 C
1003 23-06-2019 11:30:00 24.1 C 64 % 16.86 C
1004 23-06-2019 11:35:00 24.3 C 64 % 17.05 C
1005 23-06-2019 11:40:00 24.4 C 63 % 16.9 C
1006 23-06-2019 11:45:00 24.5 C 64 % 17.24 C
1007 23-06-2019 11:50:00 24.6 C 63 % 17.09 C
1008 23-06-2019 11:55:00 24.6 C 63 % 17.09 C
1009 23-06-2019 12:00:00 24.7 C 64 % 17.43 C
1010 23-06-2019 12:05:00 24.7 C 63 % 17.18 C
1011 23-06-2019 12:10:00 24.8 C 62 % 17.02 C
1012 23-06-2019 12:15:00 24.8 C 63 % 17.28 C
1013 23-06-2019 12:20:00 24.9 C 62 % 17.12 C
1014 23-06-2019 12:25:00 25.1 C 62 % 17.31 C
1015 23-06-2019 12:30:00 25.2 C 62 % 17.4 C
1016 23-06-2019 12:35:00 25.3 C 62 % 17.5 C
1017 23-06-2019 12:40:00 25.4 C 60 % 17.07 C
1018 23-06-2019 12:45:00 25.7 C 60 % 17.35 C
1019 23-06-2019 12:50:00 25.9 C 60 % 17.54 C
1020 23-06-2019 12:55:00 26.1 C 58 % 17.19 C
1021 23-06-2019 13:00:00 26.1 C 59 % 17.46 C
1022 23-06-2019 13:05:00 26.2 C 58 % 17.28 C
1023 23-06-2019 13:10:00 26.2 C 59 % 17.55 C
1024 23-06-2019 13:15:00 26.2 C 57 % 17.01 C
1025 23-06-2019 13:20:00 26.2 C 57 % 17.01 C
Sensor: Nr:Datum:Temp:Feuchte:Taupunkt:
Aussen-T/F 1026 23-06-2019 13:25:00 26.3 C 56 % 16.82 C
1027 23-06-2019 13:30:00 26.6 C 55 % 16.82 C
1028 23-06-2019 13:35:00 26.8 C 56 % 17.29 C
1029 23-06-2019 13:40:00 26.9 C 55 % 17.09 C
1030 23-06-2019 13:45:00 27.1 C 54 % 16.99 C
1031 23-06-2019 13:50:00 27.2 C 53 % 16.79 C
1032 23-06-2019 13:55:00 27.2 C 53 % 16.79 C
1033 23-06-2019 14:00:00 27.2 C 53 % 16.79 C
1034 23-06-2019 14:05:00 27.2 C 52 % 16.49 C
1035 23-06-2019 14:10:00 27.3 C 53 % 16.88 C
1036 23-06-2019 14:15:00 27.6 C 52 % 16.86 C
1037 23-06-2019 14:20:00 27.7 C 53 % 17.25 C
1038 23-06-2019 14:25:00 28.1 C 51 % 17.01 C
1039 23-06-2019 14:30:00 28.2 C 51 % 17.1 C
1040 23-06-2019 14:35:00 28.2 C 50 % 16.79 C
1041 23-06-2019 14:40:00 28.3 C 49 % 16.56 C
1042 23-06-2019 14:45:00 28.3 C 50 % 16.88 C
1043 23-06-2019 14:50:00 28.1 C 49 % 16.38 C
1044 23-06-2019 14:55:00 27.9 C 50 % 16.51 C
1045 23-06-2019 15:00:00 27.7 C 50 % 16.33 C
1046 23-06-2019 15:05:00 27.7 C 50 % 16.33 C
1047 23-06-2019 15:10:00 27.9 C 50 % 16.51 C
1048 23-06-2019 15:15:00 28.1 C 49 % 16.38 C
1049 23-06-2019 15:20:00 28.1 C 50 % 16.7 C
1050 23-06-2019 15:25:00 28.2 C 48 % 16.15 C
Sensor: Nr:Datum:Temp:Feuchte:Taupunkt:
Aussen-T/F 1051 23-06-2019 15:30:00 28.3 C 48 % 16.24 C
1052 23-06-2019 15:35:00 28.3 C 50 % 16.88 C
1053 23-06-2019 15:40:00 29 C 48 % 16.88 C
1054 23-06-2019 15:45:00 29.4 C 46 % 16.57 C
1055 23-06-2019 15:50:00 29.9 C 46 % 17.02 C
1056 23-06-2019 15:55:00 30.3 C 44 % 16.68 C
1057 23-06-2019 16:00:00 30.4 C 42 % 16.04 C
1058 23-06-2019 16:05:00 30.7 C 43 % 16.68 C
1059 23-06-2019 16:10:00 30.7 C 42 % 16.31 C
1060 23-06-2019 16:15:00 30.4 C 42 % 16.04 C
1061 23-06-2019 16:20:00 30.1 C 43 % 16.14 C
1062 23-06-2019 16:25:00 30.1 C 43 % 16.14 C
1063 23-06-2019 16:30:00 30 C 44 % 16.41 C
1064 23-06-2019 16:35:00 29.9 C 44 % 16.32 C
1065 23-06-2019 16:40:00 29.9 C 44 % 16.32 C
1066 23-06-2019 16:45:00 30.1 C 45 % 16.86 C
1067 23-06-2019 16:50:00 30.2 C 43 % 16.23 C
1068 23-06-2019 16:55:00 30.4 C 43 % 16.41 C
1069 23-06-2019 17:00:00 30.7 C 43 % 16.68 C
1070 23-06-2019 17:05:00 30.3 C 43 % 16.32 C
1071 23-06-2019 17:10:00 29.9 C 45 % 16.68 C
1072 23-06-2019 17:15:00 29.7 C 45 % 16.5 C
1073 23-06-2019 17:20:00 29.9 C 44 % 16.32 C
1074 23-06-2019 17:25:00 30.3 C 44 % 16.68 C
1075 23-06-2019 17:30:00 30.7 C 43 % 16.68 C
Sensor: Nr:Datum:Temp:Feuchte:Taupunkt:
Aussen-T/F 1076 23-06-2019 17:35:00 31.1 C 43 % 17.04 C
1077 23-06-2019 17:40:00 31.2 C 42 % 16.76 C
1078 23-06-2019 17:45:00 31.2 C 43 % 17.13 C
1079 23-06-2019 17:50:00 31.2 C 42 % 16.76 C
1080 23-06-2019 17:55:00 31 C 41 % 16.2 C
1081 23-06-2019 18:00:00 30.5 C 45 % 17.22 C
1082 23-06-2019 18:05:00 30.3 C 44 % 16.68 C
1083 23-06-2019 18:10:00 30.3 C 43 % 16.32 C
1084 23-06-2019 18:15:00 30.4 C 42 % 16.04 C
1085 23-06-2019 18:20:00 30.7 C 43 % 16.68 C
1086 23-06-2019 18:25:00 30.7 C 43 % 16.68 C
1087 23-06-2019 18:30:00 30.7 C 48 % 18.43 C
1088 23-06-2019 18:35:00 30.6 C 44 % 16.95 C
1089 23-06-2019 18:40:00 30.3 C 43 % 16.32 C
1090 23-06-2019 18:45:00 29.9 C 44 % 16.32 C
1091 23-06-2019 18:50:00 29.6 C 45 % 16.41 C
1092 23-06-2019 18:55:00 29.6 C 46 % 16.75 C
1093 23-06-2019 19:00:00 29.6 C 47 % 17.09 C
1094 23-06-2019 19:05:00 29.5 C 47 % 17 C
1095 23-06-2019 19:10:00 29.3 C 46 % 16.48 C
1096 23-06-2019 19:15:00 29.1 C 46 % 16.3 C
1097 23-06-2019 19:20:00 28.9 C 47 % 16.45 C
1098 23-06-2019 19:25:00 29 C 47 % 16.55 C
1099 23-06-2019 19:30:00 29.1 C 48 % 16.97 C
1100 23-06-2019 19:35:00 29.1 C 53 % 18.54 C
Sensor: Nr:Datum:Temp:Feuchte:Taupunkt:
Aussen-T/F 1101 23-06-2019 19:40:00 29.1 C 54 % 18.84 C
1102 23-06-2019 19:45:00 28.9 C 55 % 18.95 C
1103 23-06-2019 19:50:00 28.6 C 57 % 19.24 C
1104 23-06-2019 19:55:00 28.1 C 57 % 18.78 C
1105 23-06-2019 20:00:00 27.6 C 57 % 18.31 C
1106 23-06-2019 20:05:00 27.1 C 59 % 18.4 C
1107 23-06-2019 20:10:00 26.7 C 60 % 18.29 C
1108 23-06-2019 20:15:00 26.4 C 61 % 18.27 C
1109 23-06-2019 20:20:00 26.2 C 62 % 18.34 C
1110 23-06-2019 20:25:00 25.9 C 62 % 18.06 C
1111 23-06-2019 20:30:00 25.7 C 62 % 17.87 C
1112 23-06-2019 20:35:00 25.4 C 63 % 17.84 C
1113 23-06-2019 20:40:00 25.2 C 64 % 17.9 C
1114 23-06-2019 20:45:00 24.9 C 64 % 17.62 C
1115 23-06-2019 20:50:00 24.7 C 65 % 17.68 C
1116 23-06-2019 20:55:00 24.5 C 65 % 17.49 C
1117 23-06-2019 21:00:00 24.3 C 65 % 17.3 C
1118 23-06-2019 21:05:00 24.2 C 66 % 17.45 C
1119 23-06-2019 21:10:00 24 C 67 % 17.49 C
1120 23-06-2019 21:15:00 23.8 C 67 % 17.3 C
1121 23-06-2019 21:20:00 23.6 C 67 % 17.11 C
1122 23-06-2019 21:25:00 23.5 C 67 % 17.02 C
1123 23-06-2019 21:30:00 23.3 C 68 % 17.06 C
1124 23-06-2019 21:35:00 23.2 C 68 % 16.97 C
1125 23-06-2019 21:40:00 23 C 69 % 17.01 C
Sensor: Nr:Datum:Temp:Feuchte:Taupunkt:
Aussen-T/F 1126 23-06-2019 21:45:00 22.8 C 69 % 16.82 C
1127 23-06-2019 21:50:00 22.6 C 69 % 16.62 C
1128 23-06-2019 21:55:00 22.4 C 70 % 16.66 C
1129 23-06-2019 22:00:00 22.3 C 70 % 16.56 C
1130 23-06-2019 22:05:00 22.2 C 70 % 16.47 C
1131 23-06-2019 22:10:00 22.1 C 71 % 16.6 C
1132 23-06-2019 22:15:00 22 C 71 % 16.5 C
1133 23-06-2019 22:20:00 21.9 C 72 % 16.62 C
1134 23-06-2019 22:25:00 21.8 C 72 % 16.53 C
1135 23-06-2019 22:30:00 21.7 C 72 % 16.43 C
1136 23-06-2019 22:35:00 21.6 C 73 % 16.55 C
1137 23-06-2019 22:40:00 21.4 C 73 % 16.36 C
1138 23-06-2019 22:45:00 21.3 C 74 % 16.48 C
1139 23-06-2019 22:50:00 21.2 C 75 % 16.59 C
1140 23-06-2019 22:55:00 21 C 75 % 16.4 C
1141 23-06-2019 23:00:00 20.9 C 75 % 16.3 C
1142 23-06-2019 23:05:00 20.8 C 76 % 16.41 C
1143 23-06-2019 23:10:00 20.7 C 76 % 16.32 C
1144 23-06-2019 23:15:00 20.6 C 77 % 16.43 C
1145 23-06-2019 23:20:00 20.4 C 77 % 16.23 C
1146 23-06-2019 23:25:00 20.3 C 78 % 16.34 C
1147 23-06-2019 23:30:00 20.2 C 78 % 16.24 C
1148 23-06-2019 23:35:00 20.1 C 78 % 16.14 C
1149 23-06-2019 23:40:00 19.9 C 79 % 16.15 C
1150 23-06-2019 23:45:00 19.8 C 80 % 16.25 C
Sensor: Nr:Datum:Temp:Feuchte:Taupunkt:
Aussen-T/F 1151 23-06-2019 23:50:00 19.7 C 80 % 16.15 C
1152 23-06-2019 23:55:00 19.6 C 80 % 16.06 C
1153 24-06-2019 00:00:00 19.5 C 81 % 16.15 C
1154 24-06-2019 00:05:00 19.4 C 81 % 16.06 C
1155 24-06-2019 00:10:00 19.3 C 81 % 15.96 C
1156 24-06-2019 00:15:00 19.3 C 82 % 16.15 C
1157 24-06-2019 00:20:00 19.2 C 82 % 16.05 C
1158 24-06-2019 00:25:00 19.2 C 82 % 16.05 C
1159 24-06-2019 00:30:00 19.1 C 82 % 15.96 C
1160 24-06-2019 00:35:00 19 C 83 % 16.05 C
1161 24-06-2019 00:40:00 18.9 C 83 % 15.95 C
1162 24-06-2019 00:45:00 18.9 C 83 % 15.95 C
1163 24-06-2019 00:50:00 18.8 C 83 % 15.85 C
1164 24-06-2019 00:55:00 18.8 C 83 % 15.85 C
1165 24-06-2019 01:00:00 18.7 C 84 % 15.94 C
1166 24-06-2019 01:05:00 18.7 C 84 % 15.94 C
1167 24-06-2019 01:10:00 18.7 C 84 % 15.94 C
1168 24-06-2019 01:15:00 18.7 C 84 % 15.94 C
1169 24-06-2019 01:20:00 18.6 C 84 % 15.84 C
1170 24-06-2019 01:25:00 18.5 C 84 % 15.75 C
1171 24-06-2019 01:30:00 18.4 C 84 % 15.65 C
1172 24-06-2019 01:35:00 18.3 C 84 % 15.55 C
1173 24-06-2019 01:40:00 18.3 C 85 % 15.74 C
1174 24-06-2019 01:45:00 18.2 C 85 % 15.64 C
1175 24-06-2019 01:50:00 18.1 C 85 % 15.54 C
Sensor: Nr:Datum:Temp:Feuchte:Taupunkt:
Aussen-T/F 1176 24-06-2019 01:55:00 18 C 85 % 15.44 C
1177 24-06-2019 02:00:00 17.9 C 86 % 15.53 C
1178 24-06-2019 02:05:00 17.9 C 86 % 15.53 C
1179 24-06-2019 02:10:00 17.8 C 86 % 15.43 C
1180 24-06-2019 02:15:00 17.7 C 86 % 15.33 C
1181 24-06-2019 02:20:00 17.7 C 87 % 15.51 C
1182 24-06-2019 02:25:00 17.6 C 87 % 15.41 C
1183 24-06-2019 02:30:00 17.5 C 87 % 15.31 C
1184 24-06-2019 02:35:00 17.4 C 87 % 15.21 C
1185 24-06-2019 02:40:00 17.3 C 88 % 15.29 C
1186 24-06-2019 02:45:00 17.3 C 88 % 15.29 C
1187 24-06-2019 02:50:00 17.2 C 88 % 15.2 C
1188 24-06-2019 02:55:00 17.2 C 89 % 15.37 C
1189 24-06-2019 03:00:00 17.2 C 88 % 15.2 C
1190 24-06-2019 03:05:00 17.1 C 88 % 15.1 C
1191 24-06-2019 03:10:00 17.1 C 89 % 15.27 C
1192 24-06-2019 03:15:00 17.1 C 89 % 15.27 C
1193 24-06-2019 03:20:00 17 C 89 % 15.17 C
1194 24-06-2019 03:25:00 17 C 89 % 15.17 C
1195 24-06-2019 03:30:00 16.9 C 89 % 15.08 C
1196 24-06-2019 03:35:00 16.9 C 89 % 15.08 C
1197 24-06-2019 03:40:00 16.9 C 89 % 15.08 C
1198 24-06-2019 03:45:00 16.8 C 90 % 15.15 C
1199 24-06-2019 03:50:00 16.8 C 90 % 15.15 C
1200 24-06-2019 03:55:00 16.7 C 90 % 15.05 C
Sensor: Nr:Datum:Temp:Feuchte:Taupunkt:
Aussen-T/F 1201 24-06-2019 04:00:00 16.7 C 90 % 15.05 C
1202 24-06-2019 04:05:00 16.7 C 90 % 15.05 C
1203 24-06-2019 04:10:00 16.7 C 90 % 15.05 C
1204 24-06-2019 04:15:00 16.6 C 90 % 14.95 C
1205 24-06-2019 04:20:00 16.6 C 91 % 15.13 C
1206 24-06-2019 04:25:00 16.6 C 91 % 15.13 C
1207 24-06-2019 04:30:00 16.6 C 91 % 15.13 C
1208 24-06-2019 04:35:00 16.5 C 91 % 15.03 C
1209 24-06-2019 04:40:00 16.4 C 91 % 14.93 C
1210 24-06-2019 04:45:00 16.4 C 91 % 14.93 C
1211 24-06-2019 04:50:00 16.4 C 91 % 14.93 C
1212 24-06-2019 04:55:00 16.4 C 91 % 14.93 C
1213 24-06-2019 05:00:00 16.4 C 92 % 15.1 C
1214 24-06-2019 05:05:00 16.3 C 92 % 15 C
1215 24-06-2019 05:10:00 16.3 C 92 % 15 C
1216 24-06-2019 05:15:00 16.3 C 92 % 15 C
1217 24-06-2019 05:20:00 16.4 C 92 % 15.1 C
1218 24-06-2019 05:25:00 16.4 C 92 % 15.1 C
1219 24-06-2019 05:30:00 16.5 C 93 % 15.36 C
1220 24-06-2019 05:35:00 16.5 C 92 % 15.2 C
1221 24-06-2019 05:40:00 16.5 C 92 % 15.2 C
1222 24-06-2019 05:45:00 16.4 C 92 % 15.1 C
1223 24-06-2019 05:50:00 16.4 C 92 % 15.1 C
1224 24-06-2019 05:55:00 16.5 C 92 % 15.2 C
1225 24-06-2019 06:00:00 16.5 C 92 % 15.2 C
Sensor: Nr:Datum:Temp:Feuchte:Taupunkt:
Aussen-T/F 1226 24-06-2019 06:05:00 16.5 C 93 % 15.36 C
1227 24-06-2019 06:10:00 16.6 C 93 % 15.46 C
1228 24-06-2019 06:15:00 16.6 C 93 % 15.46 C
1229 24-06-2019 06:20:00 16.7 C 93 % 15.56 C
1230 24-06-2019 06:25:00 16.7 C 93 % 15.56 C
1231 24-06-2019 06:30:00 16.7 C 93 % 15.56 C
1232 24-06-2019 06:35:00 16.8 C 93 % 15.66 C
1233 24-06-2019 06:40:00 16.8 C 93 % 15.66 C
1234 24-06-2019 06:45:00 16.8 C 93 % 15.66 C
1235 24-06-2019 06:50:00 16.9 C 93 % 15.76 C
1236 24-06-2019 06:55:00 16.9 C 93 % 15.76 C
1237 24-06-2019 07:00:00 17.1 C 93 % 15.96 C
1238 24-06-2019 07:05:00 17.1 C 93 % 15.96 C
1239 24-06-2019 07:10:00 17.2 C 93 % 16.06 C
1240 24-06-2019 07:15:00 17.3 C 93 % 16.16 C
1241 24-06-2019 07:20:00 17.3 C 93 % 16.16 C
1242 24-06-2019 07:25:00 17.4 C 93 % 16.26 C
1243 24-06-2019 07:30:00 17.5 C 93 % 16.36 C
1244 24-06-2019 07:35:00 17.6 C 93 % 16.45 C
1245 24-06-2019 07:40:00 17.6 C 93 % 16.45 C
1246 24-06-2019 07:45:00 17.7 C 93 % 16.55 C
1247 24-06-2019 07:50:00 17.8 C 93 % 16.65 C
1248 24-06-2019 07:55:00 17.8 C 92 % 16.48 C
1249 24-06-2019 08:00:00 17.9 C 92 % 16.58 C
1250 24-06-2019 08:05:00 18 C 92 % 16.68 C
Sensor: Nr:Datum:Temp:Feuchte:Taupunkt:
Aussen-T/F 1251 24-06-2019 08:10:00 18.1 C 92 % 16.78 C
1252 24-06-2019 08:15:00 18.2 C 92 % 16.88 C
1253 24-06-2019 08:20:00 18.3 C 92 % 16.98 C
1254 24-06-2019 08:25:00 18.5 C 92 % 17.18 C
1255 24-06-2019 08:30:00 18.6 C 92 % 17.27 C
1256 24-06-2019 08:35:00 18.7 C 92 % 17.37 C
1257 24-06-2019 08:40:00 18.8 C 92 % 17.47 C
1258 24-06-2019 08:45:00 19 C 91 % 17.5 C
1259 24-06-2019 08:50:00 19.2 C 91 % 17.69 C
1260 24-06-2019 08:55:00 19.3 C 91 % 17.79 C
1261 24-06-2019 09:00:00 19.6 C 91 % 18.09 C
1262 24-06-2019 09:05:00 19.7 C 90 % 18.01 C
1263 24-06-2019 09:10:00 19.9 C 90 % 18.21 C
1264 24-06-2019 09:15:00 20.2 C 89 % 18.33 C
1265 24-06-2019 09:20:00 20.4 C 88 % 18.34 C
1266 24-06-2019 09:25:00 20.8 C 87 % 18.56 C
1267 24-06-2019 09:30:00 21.3 C 84 % 18.49 C
1268 24-06-2019 09:35:00 21.9 C 83 % 18.88 C
1269 24-06-2019 09:40:00 22.3 C 81 % 18.88 C
1270 24-06-2019 09:45:00 22.7 C 79 % 18.87 C
1271 24-06-2019 09:50:00 23 C 77 % 18.75 C
1272 24-06-2019 09:55:00 23.3 C 77 % 19.04 C
1273 24-06-2019 10:00:00 23.5 C 77 % 19.23 C
1274 24-06-2019 10:05:00 23.9 C 73 % 18.76 C
1275 24-06-2019 10:10:00 24.3 C 73 % 19.15 C
Sensor: Nr:Datum:Temp:Feuchte:Taupunkt:
Aussen-T/F 1276 24-06-2019 10:15:00 24.8 C 70 % 18.95 C
1277 24-06-2019 10:20:00 25.3 C 67 % 18.73 C
1278 24-06-2019 10:25:00 25.6 C 67 % 19.01 C
1279 24-06-2019 10:30:00 25.9 C 64 % 18.57 C
1280 24-06-2019 10:35:00 26.2 C 64 % 18.85 C
1281 24-06-2019 10:40:00 26.3 C 62 % 18.44 C
1282 24-06-2019 10:45:00 26.6 C 64 % 19.23 C
1283 24-06-2019 10:50:00 26.6 C 62 % 18.72 C
1284 24-06-2019 10:55:00 26.7 C 62 % 18.81 C
1285 24-06-2019 11:00:00 26.7 C 61 % 18.55 C
1286 24-06-2019 11:05:00 26.7 C 61 % 18.55 C
1287 24-06-2019 11:10:00 26.7 C 60 % 18.29 C
1288 24-06-2019 11:15:00 26.8 C 61 % 18.65 C
1289 24-06-2019 11:20:00 26.7 C 60 % 18.29 C
1290 24-06-2019 11:25:00 26.9 C 59 % 18.21 C
1291 24-06-2019 11:30:00 27 C 59 % 18.3 C
1292 24-06-2019 11:35:00 27.1 C 59 % 18.4 C
1293 24-06-2019 11:40:00 27.2 C 59 % 18.49 C
1294 24-06-2019 11:45:00 27.2 C 60 % 18.76 C
1295 24-06-2019 11:50:00 27.2 C 58 % 18.22 C
1296 24-06-2019 11:55:00 27.3 C 59 % 18.58 C
1297 24-06-2019 12:00:00 27.5 C 58 % 18.5 C
1298 24-06-2019 12:05:00 27.6 C 57 % 18.31 C
1299 24-06-2019 12:10:00 27.6 C 57 % 18.31 C
1300 24-06-2019 12:15:00 27.6 C 55 % 17.74 C
Sensor: Nr:Datum:Temp:Feuchte:Taupunkt:
Aussen-T/F 1301 24-06-2019 12:20:00 27.7 C 56 % 18.12 C
1302 24-06-2019 12:25:00 27.8 C 56 % 18.22 C
1303 24-06-2019 12:30:00 27.9 C 55 % 18.02 C
1304 24-06-2019 12:35:00 27.9 C 56 % 18.31 C
1305 24-06-2019 12:40:00 28 C 55 % 18.11 C
1306 24-06-2019 12:45:00 28.2 C 54 % 18.01 C
1307 24-06-2019 12:50:00 28.3 C 54 % 18.1 C
1308 24-06-2019 12:55:00 28.5 C 53 % 17.99 C
1309 24-06-2019 13:00:00 28.6 C 53 % 18.08 C
1310 24-06-2019 13:05:00 28.7 C 53 % 18.17 C
1311 24-06-2019 13:10:00 28.8 C 52 % 17.96 C
1312 24-06-2019 13:15:00 28.9 C 53 % 18.36 C
1313 24-06-2019 13:20:00 28.9 C 53 % 18.36 C
1314 24-06-2019 13:25:00 29.1 C 51 % 17.93 C
1315 24-06-2019 13:30:00 29.1 C 51 % 17.93 C
1316 24-06-2019 13:35:00 29.2 C 51 % 18.02 C
1317 24-06-2019 13:40:00 29.3 C 53 % 18.73 C
1318 24-06-2019 13:45:00 29.4 C 51 % 18.2 C
1319 24-06-2019 13:50:00 29.3 C 52 % 18.42 C
1320 24-06-2019 13:55:00 29.4 C 51 % 18.2 C
1321 24-06-2019 14:00:00 29.6 C 51 % 18.39 C
1322 24-06-2019 14:05:00 29.7 C 49 % 17.84 C
1323 24-06-2019 14:10:00 29.7 C 50 % 18.16 C
1324 24-06-2019 14:15:00 29.7 C 52 % 18.79 C
1325 24-06-2019 14:20:00 29.8 C 50 % 18.25 C
Sensor: Nr:Datum:Temp:Feuchte:Taupunkt:
Aussen-T/F 1326 24-06-2019 14:25:00 30 C 49 % 18.12 C
1327 24-06-2019 14:30:00 30.2 C 49 % 18.3 C
1328 24-06-2019 14:35:00 30.3 C 51 % 19.03 C
1329 24-06-2019 14:40:00 30.4 C 49 % 18.48 C
1330 24-06-2019 14:45:00 30.5 C 48 % 18.24 C
1331 24-06-2019 14:50:00 30.6 C 50 % 18.99 C
1332 24-06-2019 14:55:00 30.7 C 50 % 19.08 C
1333 24-06-2019 15:00:00 30.9 C 48 % 18.61 C
1334 24-06-2019 15:05:00 30.7 C 48 % 18.43 C
1335 24-06-2019 15:10:00 30.7 C 49 % 18.75 C
1336 24-06-2019 15:15:00 30.8 C 48 % 18.52 C
1337 24-06-2019 15:20:00 31 C 49 % 19.03 C
1338 24-06-2019 15:25:00 31.2 C 47 % 18.54 C
1339 24-06-2019 15:30:00 31.3 C 46 % 18.29 C
1340 24-06-2019 15:35:00 31.6 C 48 % 19.24 C
1341 24-06-2019 15:40:00 31.9 C 45 % 18.48 C
1342 24-06-2019 15:45:00 32.2 C 45 % 18.75 C
1343 24-06-2019 15:50:00 32.1 C 44 % 18.3 C
1344 24-06-2019 15:55:00 32.2 C 45 % 18.75 C
1345 24-06-2019 16:00:00 32.5 C 45 % 19.02 C
1346 24-06-2019 16:05:00 33.1 C 44 % 19.2 C
1347 24-06-2019 16:10:00 33.4 C 43 % 19.11 C
1348 24-06-2019 16:15:00 33.4 C 43 % 19.11 C
1349 24-06-2019 16:20:00 33.4 C 43 % 19.11 C
1350 24-06-2019 16:25:00 32.9 C 43 % 18.66 C
Sensor: Nr:Datum:Temp:Feuchte:Taupunkt:
Aussen-T/F 1351 24-06-2019 16:30:00 32.7 C 43 % 18.48 C
1352 24-06-2019 16:35:00 32.5 C 44 % 18.66 C
1353 24-06-2019 16:40:00 32.1 C 45 % 18.66 C
1354 24-06-2019 16:45:00 32 C 45 % 18.57 C
1355 24-06-2019 16:50:00 32.2 C 46 % 19.11 C
1356 24-06-2019 16:55:00 32.6 C 44 % 18.75 C
1357 24-06-2019 17:00:00 32.8 C 45 % 19.3 C
1358 24-06-2019 17:05:00 32.7 C 46 % 19.56 C
1359 24-06-2019 17:10:00 32.8 C 44 % 18.93 C
1360 24-06-2019 17:15:00 32.8 C 46 % 19.65 C
1361 24-06-2019 17:20:00 33 C 45 % 19.48 C
1362 24-06-2019 17:25:00 33.1 C 44 % 19.2 C
1363 24-06-2019 17:30:00 33.3 C 45 % 19.75 C
1364 24-06-2019 17:35:00 33.3 C 43 % 19.02 C
1365 24-06-2019 17:40:00 33.2 C 43 % 18.93 C
1366 24-06-2019 17:45:00 32.9 C 45 % 19.39 C
1367 24-06-2019 17:50:00 32.8 C 45 % 19.3 C
1368 24-06-2019 17:55:00 32.9 C 44 % 19.02 C
1369 24-06-2019 18:00:00 33.2 C 44 % 19.29 C
1370 24-06-2019 18:05:00 33.3 C 42 % 18.64 C
1371 24-06-2019 18:10:00 33.2 C 43 % 18.93 C
1372 24-06-2019 18:15:00 33.1 C 45 % 19.57 C
1373 24-06-2019 18:20:00 33 C 45 % 19.48 C
1374 24-06-2019 18:25:00 33 C 46 % 19.83 C
1375 24-06-2019 18:30:00 33.2 C 44 % 19.29 C
Sensor: Nr:Datum:Temp:Feuchte:Taupunkt:
Aussen-T/F 1376 24-06-2019 18:35:00 33.2 C 43 % 18.93 C
1377 24-06-2019 18:40:00 33 C 44 % 19.11 C
1378 24-06-2019 18:45:00 32.9 C 44 % 19.02 C
1379 24-06-2019 18:50:00 33.1 C 44 % 19.2 C
1380 24-06-2019 18:55:00 33 C 44 % 19.11 C
1381 24-06-2019 19:00:00 33.1 C 44 % 19.2 C
1382 24-06-2019 19:05:00 33.1 C 45 % 19.57 C
1383 24-06-2019 19:10:00 33.1 C 44 % 19.2 C
1384 24-06-2019 19:15:00 33.1 C 44 % 19.2 C
1385 24-06-2019 19:20:00 33.1 C 44 % 19.2 C
1386 24-06-2019 19:25:00 32.8 C 44 % 18.93 C
1387 24-06-2019 19:30:00 32.3 C 44 % 18.48 C
1388 24-06-2019 19:35:00 31.9 C 47 % 19.18 C
1389 24-06-2019 19:40:00 31.7 C 47 % 19 C
1390 24-06-2019 19:45:00 31.6 C 47 % 18.91 C
1391 24-06-2019 19:50:00 31.4 C 48 % 19.06 C
1392 24-06-2019 19:55:00 31.3 C 48 % 18.97 C
1393 24-06-2019 20:00:00 31.2 C 49 % 19.21 C
1394 24-06-2019 20:05:00 31.1 C 49 % 19.12 C
1395 24-06-2019 20:10:00 31.1 C 49 % 19.12 C
1396 24-06-2019 20:15:00 31 C 49 % 19.03 C
1397 24-06-2019 20:20:00 31 C 49 % 19.03 C
1398 24-06-2019 20:25:00 30.9 C 49 % 18.94 C
1399 24-06-2019 20:30:00 30.8 C 49 % 18.85 C
1400 24-06-2019 20:35:00 30.6 C 50 % 18.99 C
Sensor: Nr:Datum:Temp:Feuchte:Taupunkt:
Aussen-T/F 1401 24-06-2019 20:40:00 30.4 C 51 % 19.12 C
1402 24-06-2019 20:45:00 30.3 C 52 % 19.34 C
1403 24-06-2019 20:50:00 29.9 C 54 % 19.58 C
1404 24-06-2019 20:55:00 29.4 C 56 % 19.7 C
1405 24-06-2019 21:00:00 29.2 C 59 % 20.36 C
1406 24-06-2019 21:05:00 28.8 C 59 % 19.99 C
1407 24-06-2019 21:10:00 28.3 C 60 % 19.79 C
1408 24-06-2019 21:15:00 27.8 C 62 % 19.85 C
1409 24-06-2019 21:20:00 27.3 C 62 % 19.38 C
1410 24-06-2019 21:25:00 26.8 C 64 % 19.42 C
1411 24-06-2019 21:30:00 26.4 C 64 % 19.04 C
1412 24-06-2019 21:35:00 26 C 66 % 19.15 C
1413 24-06-2019 21:40:00 25.7 C 66 % 18.87 C
1414 24-06-2019 21:45:00 25.4 C 67 % 18.82 C
1415 24-06-2019 21:50:00 25.2 C 68 % 18.87 C
1416 24-06-2019 21:55:00 24.9 C 68 % 18.59 C
1417 24-06-2019 22:00:00 24.7 C 69 % 18.63 C
1418 24-06-2019 22:05:00 24.6 C 69 % 18.53 C
1419 24-06-2019 22:10:00 24.4 C 70 % 18.57 C
1420 24-06-2019 22:15:00 24.3 C 70 % 18.48 C
1421 24-06-2019 22:20:00 24.1 C 71 % 18.51 C
1422 24-06-2019 22:25:00 24 C 71 % 18.42 C
1423 24-06-2019 22:30:00 23.9 C 71 % 18.32 C
1424 24-06-2019 22:35:00 23.8 C 71 % 18.22 C
1425 24-06-2019 22:40:00 23.7 C 71 % 18.13 C
Sensor: Nr:Datum:Temp:Feuchte:Taupunkt:
Aussen-T/F 1426 24-06-2019 22:45:00 23.6 C 73 % 18.48 C
1427 24-06-2019 22:50:00 23.5 C 73 % 18.38 C
1428 24-06-2019 22:55:00 23.3 C 73 % 18.19 C
1429 24-06-2019 23:00:00 23.2 C 73 % 18.09 C
1430 24-06-2019 23:05:00 23.1 C 73 % 17.99 C
1431 24-06-2019 23:10:00 22.9 C 73 % 17.8 C
1432 24-06-2019 23:15:00 22.9 C 73 % 17.8 C
1433 24-06-2019 23:20:00 22.8 C 74 % 17.92 C
1434 24-06-2019 23:25:00 22.7 C 74 % 17.83 C
1435 24-06-2019 23:30:00 22.7 C 74 % 17.83 C
1436 24-06-2019 23:35:00 22.6 C 75 % 17.94 C
1437 24-06-2019 23:40:00 22.4 C 74 % 17.54 C
1438 24-06-2019 23:45:00 22.4 C 75 % 17.75 C
1439 24-06-2019 23:50:00 22.3 C 75 % 17.65 C
1440 24-06-2019 23:55:00 22.2 C 75 % 17.56 C
1441 25-06-2019 00:00:00 22.1 C 76 % 17.67 C
1442 25-06-2019 00:05:00 21.9 C 76 % 17.48 C
1443 25-06-2019 00:10:00 21.8 C 76 % 17.38 C
1444 25-06-2019 00:15:00 21.6 C 77 % 17.39 C
1445 25-06-2019 00:20:00 21.4 C 77 % 17.2 C
1446 25-06-2019 00:25:00 21.3 C 77 % 17.1 C
1447 25-06-2019 00:30:00 21.3 C 78 % 17.31 C
1448 25-06-2019 00:35:00 21.2 C 78 % 17.21 C
1449 25-06-2019 00:40:00 21.2 C 78 % 17.21 C
1450 25-06-2019 00:45:00 21.1 C 79 % 17.32 C
Sensor: Nr:Datum:Temp:Feuchte:Taupunkt:
Aussen-T/F 1451 25-06-2019 00:50:00 21 C 79 % 17.22 C
1452 25-06-2019 00:55:00 20.9 C 79 % 17.12 C
1453 25-06-2019 01:00:00 20.8 C 80 % 17.22 C
1454 25-06-2019 01:05:00 20.7 C 80 % 17.13 C
1455 25-06-2019 01:10:00 20.7 C 80 % 17.13 C
1456 25-06-2019 01:15:00 20.6 C 80 % 17.03 C
1457 25-06-2019 01:20:00 20.6 C 81 % 17.22 C
1458 25-06-2019 01:25:00 20.5 C 81 % 17.13 C
1459 25-06-2019 01:30:00 20.4 C 81 % 17.03 C
1460 25-06-2019 01:35:00 20.3 C 81 % 16.93 C
1461 25-06-2019 01:40:00 20.3 C 81 % 16.93 C
1462 25-06-2019 01:45:00 20.2 C 81 % 16.84 C
1463 25-06-2019 01:50:00 20.1 C 82 % 16.93 C
1464 25-06-2019 01:55:00 19.9 C 82 % 16.74 C
1465 25-06-2019 02:00:00 19.8 C 82 % 16.64 C
1466 25-06-2019 02:05:00 19.8 C 83 % 16.83 C
1467 25-06-2019 02:10:00 19.7 C 83 % 16.73 C
1468 25-06-2019 02:15:00 19.6 C 83 % 16.63 C
1469 25-06-2019 02:20:00 19.4 C 84 % 16.63 C
1470 25-06-2019 02:25:00 19.3 C 84 % 16.53 C
1471 25-06-2019 02:30:00 19.3 C 84 % 16.53 C
1472 25-06-2019 02:35:00 19.2 C 84 % 16.43 C
1473 25-06-2019 02:40:00 19.2 C 84 % 16.43 C
1474 25-06-2019 02:45:00 19.1 C 84 % 16.33 C
1475 25-06-2019 02:50:00 19 C 84 % 16.24 C
Sensor: Nr:Datum:Temp:Feuchte:Taupunkt:
Aussen-T/F 1476 25-06-2019 02:55:00 18.9 C 84 % 16.14 C
1477 25-06-2019 03:00:00 18.8 C 85 % 16.23 C
1478 25-06-2019 03:05:00 18.7 C 85 % 16.13 C
1479 25-06-2019 03:10:00 18.7 C 85 % 16.13 C
1480 25-06-2019 03:15:00 18.6 C 85 % 16.03 C
1481 25-06-2019 03:20:00 18.6 C 85 % 16.03 C
1482 25-06-2019 03:25:00 18.6 C 86 % 16.21 C
1483 25-06-2019 03:30:00 18.4 C 85 % 15.83 C
1484 25-06-2019 03:35:00 18.4 C 86 % 16.02 C
1485 25-06-2019 03:40:00 18.3 C 86 % 15.92 C
1486 25-06-2019 03:45:00 18.2 C 86 % 15.82 C
1487 25-06-2019 03:50:00 18.2 C 86 % 15.82 C
1488 25-06-2019 03:55:00 18.1 C 87 % 15.9 C
1489 25-06-2019 04:00:00 18 C 87 % 15.8 C
1490 25-06-2019 04:05:00 17.9 C 87 % 15.71 C
1491 25-06-2019 04:10:00 17.9 C 88 % 15.88 C
1492 25-06-2019 04:15:00 17.9 C 88 % 15.88 C
1493 25-06-2019 04:20:00 17.9 C 88 % 15.88 C
1494 25-06-2019 04:25:00 17.9 C 88 % 15.88 C
1495 25-06-2019 04:30:00 17.8 C 88 % 15.79 C
1496 25-06-2019 04:35:00 17.8 C 88 % 15.79 C
1497 25-06-2019 04:40:00 17.8 C 88 % 15.79 C
1498 25-06-2019 04:45:00 17.7 C 89 % 15.86 C
1499 25-06-2019 04:50:00 17.7 C 89 % 15.86 C
1500 25-06-2019 04:55:00 17.6 C 89 % 15.77 C
Sensor: Nr:Datum:Temp:Feuchte:Taupunkt:
Aussen-T/F 1501 25-06-2019 05:00:00 17.7 C 89 % 15.86 C
1502 25-06-2019 05:05:00 17.7 C 89 % 15.86 C
1503 25-06-2019 05:10:00 17.7 C 89 % 15.86 C
1504 25-06-2019 05:15:00 17.6 C 89 % 15.77 C
1505 25-06-2019 05:20:00 17.6 C 89 % 15.77 C
1506 25-06-2019 05:25:00 17.5 C 89 % 15.67 C
1507 25-06-2019 05:30:00 17.4 C 89 % 15.57 C
1508 25-06-2019 05:35:00 17.4 C 89 % 15.57 C
1509 25-06-2019 05:40:00 17.4 C 90 % 15.74 C
1510 25-06-2019 05:45:00 17.4 C 90 % 15.74 C
1511 25-06-2019 05:50:00 17.4 C 90 % 15.74 C
1512 25-06-2019 05:55:00 17.4 C 91 % 15.92 C
1513 25-06-2019 06:00:00 17.5 C 91 % 16.01 C
1514 25-06-2019 06:05:00 17.6 C 91 % 16.11 C
1515 25-06-2019 06:10:00 17.6 C 91 % 16.11 C
1516 25-06-2019 06:15:00 17.6 C 91 % 16.11 C
1517 25-06-2019 06:20:00 17.7 C 91 % 16.21 C
1518 25-06-2019 06:25:00 17.8 C 91 % 16.31 C
1519 25-06-2019 06:30:00 17.8 C 91 % 16.31 C
1520 25-06-2019 06:35:00 17.9 C 91 % 16.41 C
1521 25-06-2019 06:40:00 17.9 C 91 % 16.41 C
1522 25-06-2019 06:45:00 17.9 C 91 % 16.41 C
1523 25-06-2019 06:50:00 17.9 C 90 % 16.24 C
1524 25-06-2019 06:55:00 18 C 90 % 16.34 C
1525 25-06-2019 07:00:00 18 C 90 % 16.34 C
Sensor: Nr:Datum:Temp:Feuchte:Taupunkt:
Aussen-T/F 1526 25-06-2019 07:05:00 18.1 C 90 % 16.43 C
1527 25-06-2019 07:10:00 18.1 C 91 % 16.61 C
1528 25-06-2019 07:15:00 18.2 C 91 % 16.71 C
1529 25-06-2019 07:20:00 18.3 C 91 % 16.81 C
1530 25-06-2019 07:25:00 18.3 C 91 % 16.81 C
1531 25-06-2019 07:30:00 18.4 C 91 % 16.9 C
1532 25-06-2019 07:35:00 18.5 C 91 % 17 C
1533 25-06-2019 07:40:00 18.7 C 91 % 17.2 C
1534 25-06-2019 07:45:00 18.8 C 91 % 17.3 C
1535 25-06-2019 07:50:00 18.9 C 90 % 17.22 C
1536 25-06-2019 07:55:00 19 C 90 % 17.32 C
1537 25-06-2019 08:00:00 19.2 C 90 % 17.52 C
1538 25-06-2019 08:05:00 19.3 C 90 % 17.62 C
1539 25-06-2019 08:10:00 19.4 C 90 % 17.72 C
1540 25-06-2019 08:15:00 19.6 C 89 % 17.74 C
1541 25-06-2019 08:20:00 19.8 C 89 % 17.93 C
1542 25-06-2019 08:25:00 20 C 89 % 18.13 C
1543 25-06-2019 08:30:00 20.2 C 88 % 18.15 C
1544 25-06-2019 08:35:00 20.4 C 88 % 18.34 C
1545 25-06-2019 08:40:00 20.6 C 88 % 18.54 C
1546 25-06-2019 08:45:00 20.7 C 87 % 18.46 C
1547 25-06-2019 08:50:00 20.9 C 87 % 18.65 C
1548 25-06-2019 08:55:00 21.1 C 87 % 18.85 C
1549 25-06-2019 09:00:00 21.2 C 87 % 18.95 C
1550 25-06-2019 09:05:00 21.4 C 87 % 19.15 C
Sensor: Nr:Datum:Temp:Feuchte:Taupunkt:
Aussen-T/F 1551 25-06-2019 09:10:00 21.6 C 85 % 18.97 C
1552 25-06-2019 09:15:00 21.7 C 85 % 19.07 C
1553 25-06-2019 09:20:00 21.9 C 85 % 19.26 C
1554 25-06-2019 09:25:00 22.1 C 82 % 18.88 C
1555 25-06-2019 09:30:00 22.4 C 84 % 19.56 C
1556 25-06-2019 09:35:00 22.7 C 83 % 19.66 C
1557 25-06-2019 09:40:00 23.2 C 80 % 19.56 C
1558 25-06-2019 09:45:00 23.7 C 76 % 19.22 C
1559 25-06-2019 09:50:00 24.2 C 73 % 19.05 C
1560 25-06-2019 09:55:00 24.7 C 74 % 19.75 C
1561 25-06-2019 10:00:00 25.1 C 71 % 19.47 C
1562 25-06-2019 10:05:00 25.4 C 69 % 19.3 C
1563 25-06-2019 10:10:00 25.7 C 68 % 19.35 C
1564 25-06-2019 10:15:00 25.9 C 68 % 19.54 C
1565 25-06-2019 10:20:00 26.2 C 69 % 20.06 C
1566 25-06-2019 10:25:00 26.4 C 66 % 19.53 C
1567 25-06-2019 10:30:00 26.7 C 64 % 19.32 C
1568 25-06-2019 10:35:00 26.9 C 62 % 19 C
1569 25-06-2019 10:40:00 27.1 C 64 % 19.7 C
1570 25-06-2019 10:45:00 27.3 C 62 % 19.38 C
1571 25-06-2019 10:50:00 27.5 C 64 % 20.08 C
1572 25-06-2019 10:55:00 27.4 C 62 % 19.47 C
1573 25-06-2019 11:00:00 27.3 C 62 % 19.38 C
1574 25-06-2019 11:05:00 27.3 C 63 % 19.63 C
1575 25-06-2019 11:10:00 27.4 C 61 % 19.21 C
Sensor: Nr:Datum:Temp:Feuchte:Taupunkt:
Aussen-T/F 1576 25-06-2019 11:15:00 27.8 C 60 % 19.32 C
1577 25-06-2019 11:20:00 28 C 59 % 19.24 C
1578 25-06-2019 11:25:00 28.1 C 59 % 19.33 C
1579 25-06-2019 11:30:00 28.2 C 58 % 19.15 C
1580 25-06-2019 11:35:00 28.3 C 58 % 19.24 C
1581 25-06-2019 11:40:00 28.6 C 58 % 19.52 C
1582 25-06-2019 11:45:00 28.5 C 58 % 19.43 C
1583 25-06-2019 11:50:00 28.5 C 58 % 19.43 C
1584 25-06-2019 11:55:00 28.7 C 57 % 19.34 C
1585 25-06-2019 12:00:00 28.8 C 57 % 19.43 C
1586 25-06-2019 12:05:00 29.1 C 57 % 19.71 C
1587 25-06-2019 12:10:00 29.1 C 57 % 19.71 C
1588 25-06-2019 12:15:00 29.1 C 57 % 19.71 C
1589 25-06-2019 12:20:00 29.2 C 56 % 19.52 C
1590 25-06-2019 12:25:00 29.3 C 56 % 19.61 C
1591 25-06-2019 12:30:00 29.6 C 55 % 19.6 C
1592 25-06-2019 12:35:00 29.7 C 55 % 19.69 C
1593 25-06-2019 12:40:00 29.9 C 55 % 19.88 C
1594 25-06-2019 12:45:00 30.1 C 54 % 19.76 C
1595 25-06-2019 12:50:00 30.2 C 55 % 20.15 C
1596 25-06-2019 12:55:00 30.1 C 56 % 20.35 C
1597 25-06-2019 13:00:00 30.2 C 55 % 20.15 C
1598 25-06-2019 13:05:00 30.3 C 54 % 19.95 C
1599 25-06-2019 13:10:00 30.6 C 53 % 19.92 C
1600 25-06-2019 13:15:00 30.8 C 53 % 20.11 C
Sensor: Nr:Datum:Temp:Feuchte:Taupunkt:
Aussen-T/F 1601 25-06-2019 13:20:00 31 C 52 % 19.98 C
1602 25-06-2019 13:25:00 31.1 C 52 % 20.08 C
1603 25-06-2019 13:30:00 31.2 C 53 % 20.48 C
1604 25-06-2019 13:35:00 31.3 C 51 % 19.95 C
1605 25-06-2019 13:40:00 31.4 C 52 % 20.35 C
1606 25-06-2019 13:45:00 31.7 C 49 % 19.67 C
1607 25-06-2019 13:50:00 31.8 C 50 % 20.08 C
1608 25-06-2019 13:55:00 31.8 C 50 % 20.08 C
1609 25-06-2019 14:00:00 31.9 C 49 % 19.85 C
1610 25-06-2019 14:05:00 32.2 C 49 % 20.12 C
1611 25-06-2019 14:10:00 32.3 C 47 % 19.54 C
1612 25-06-2019 14:15:00 32.4 C 47 % 19.63 C
1613 25-06-2019 14:20:00 32.5 C 49 % 20.4 C
1614 25-06-2019 14:25:00 32.6 C 47 % 19.81 C
1615 25-06-2019 14:30:00 32.8 C 46 % 19.65 C
1616 25-06-2019 14:35:00 32.9 C 47 % 20.09 C
1617 25-06-2019 14:40:00 33.1 C 45 % 19.57 C
1618 25-06-2019 14:45:00 33.3 C 45 % 19.75 C
1619 25-06-2019 14:50:00 33.4 C 47 % 20.54 C
1620 25-06-2019 14:55:00 33.7 C 45 % 20.11 C
1621 25-06-2019 15:00:00 33.9 C 44 % 19.92 C
1622 25-06-2019 15:05:00 34 C 46 % 20.73 C
1623 25-06-2019 15:10:00 34.2 C 42 % 19.44 C
1624 25-06-2019 15:15:00 34.4 C 42 % 19.62 C
1625 25-06-2019 15:20:00 34.8 C 44 % 20.73 C
Sensor: Nr:Datum:Temp:Feuchte:Taupunkt:
Aussen-T/F 1626 25-06-2019 15:25:00 34.8 C 41 % 19.59 C
1627 25-06-2019 15:30:00 34.9 C 43 % 20.45 C
1628 25-06-2019 15:35:00 35.2 C 41 % 19.95 C
1629 25-06-2019 15:40:00 35.4 C 42 % 20.52 C
1630 25-06-2019 15:45:00 35.7 C 40 % 19.99 C
1631 25-06-2019 15:50:00 35.9 C 38 % 19.35 C
1632 25-06-2019 15:55:00 35.8 C 38 % 19.26 C
1633 25-06-2019 16:00:00 35.9 C 39 % 19.76 C
1634 25-06-2019 16:05:00 36.4 C 38 % 19.79 C
1635 25-06-2019 16:10:00 36.2 C 40 % 20.44 C
1636 25-06-2019 16:15:00 36.1 C 39 % 19.94 C
1637 25-06-2019 16:20:00 36.3 C 40 % 20.53 C
1638 25-06-2019 16:25:00 36.6 C 37 % 19.53 C
1639 25-06-2019 16:30:00 36.8 C 36 % 19.27 C
1640 25-06-2019 16:35:00 36.7 C 38 % 20.05 C
1641 25-06-2019 16:40:00 36.4 C 38 % 19.79 C
1642 25-06-2019 16:45:00 36.4 C 40 % 20.62 C
1643 25-06-2019 16:50:00 36.7 C 37 % 19.62 C
1644 25-06-2019 16:55:00 37 C 35 % 18.99 C
1645 25-06-2019 17:00:00 37.4 C 38 % 20.67 C
1646 25-06-2019 17:05:00 37.7 C 33 % 18.66 C
1647 25-06-2019 17:10:00 37.7 C 32 % 18.17 C
1648 25-06-2019 17:15:00 37.7 C 32 % 18.17 C
1649 25-06-2019 17:20:00 37.7 C 31 % 17.66 C
1650 25-06-2019 17:25:00 37.6 C 31 % 17.58 C
Sensor: Nr:Datum:Temp:Feuchte:Taupunkt:
Aussen-T/F 1651 25-06-2019 17:30:00 37.6 C 31 % 17.58 C
1652 25-06-2019 17:35:00 37.6 C 33 % 18.57 C
1653 25-06-2019 17:40:00 37.7 C 32 % 18.17 C
1654 25-06-2019 17:45:00 37.9 C 33 % 18.83 C
1655 25-06-2019 17:50:00 37.9 C 35 % 19.78 C
1656 25-06-2019 17:55:00 37.8 C 34 % 19.22 C
1657 25-06-2019 18:00:00 37.6 C 32 % 18.08 C
1658 25-06-2019 18:05:00 37.3 C 33 % 18.31 C
1659 25-06-2019 18:10:00 37.2 C 34 % 18.7 C
1660 25-06-2019 18:15:00 37.1 C 33 % 18.14 C
1661 25-06-2019 18:20:00 37.2 C 34 % 18.7 C
1662 25-06-2019 18:25:00 37.3 C 33 % 18.31 C
1663 25-06-2019 18:30:00 37.3 C 36 % 19.71 C
1664 25-06-2019 18:35:00 36.8 C 36 % 19.27 C
1665 25-06-2019 18:40:00 36.4 C 40 % 20.62 C
1666 25-06-2019 18:45:00 36 C 42 % 21.05 C
1667 25-06-2019 18:50:00 35.5 C 43 % 20.99 C
1668 25-06-2019 18:55:00 34.9 C 45 % 21.19 C
1669 25-06-2019 19:00:00 34.3 C 47 % 21.36 C
1670 25-06-2019 19:05:00 34 C 50 % 22.1 C
1671 25-06-2019 19:10:00 33.9 C 48 % 21.34 C
1672 25-06-2019 19:15:00 33.9 C 50 % 22.01 C
1673 25-06-2019 19:20:00 34 C 51 % 22.42 C
1674 25-06-2019 19:25:00 34.2 C 48 % 21.61 C
1675 25-06-2019 19:30:00 34.3 C 49 % 22.04 C
Sensor: Nr:Datum:Temp:Feuchte:Taupunkt:
Aussen-T/F 1676 25-06-2019 19:35:00 34.4 C 47 % 21.45 C
1677 25-06-2019 19:40:00 34.5 C 49 % 22.22 C
1678 25-06-2019 19:45:00 34.5 C 47 % 21.54 C
1679 25-06-2019 19:50:00 34.4 C 48 % 21.79 C
1680 25-06-2019 19:55:00 34.3 C 48 % 21.7 C
1681 25-06-2019 20:00:00 34 C 50 % 22.1 C
1682 25-06-2019 20:05:00 33.7 C 49 % 21.49 C
1683 25-06-2019 20:10:00 33.3 C 50 % 21.46 C
1684 25-06-2019 20:15:00 32.9 C 50 % 21.09 C
1685 25-06-2019 20:20:00 32.4 C 50 % 20.63 C
1686 25-06-2019 20:25:00 31.9 C 52 % 20.81 C
1687 25-06-2019 20:30:00 31.4 C 52 % 20.35 C
1688 25-06-2019 20:35:00 31 C 53 % 20.29 C
1689 25-06-2019 20:40:00 30.6 C 54 % 20.23 C
1690 25-06-2019 20:45:00 30.3 C 54 % 19.95 C
1691 25-06-2019 20:50:00 30.1 C 56 % 20.35 C
1692 25-06-2019 20:55:00 29.8 C 56 % 20.07 C
1693 25-06-2019 21:00:00 29.6 C 57 % 20.17 C
1694 25-06-2019 21:05:00 29.3 C 57 % 19.89 C
1695 25-06-2019 21:10:00 29 C 57 % 19.62 C
1696 25-06-2019 21:15:00 28.7 C 58 % 19.62 C
1697 25-06-2019 21:20:00 28.4 C 58 % 19.34 C
1698 25-06-2019 21:25:00 28.1 C 59 % 19.33 C
1699 25-06-2019 21:30:00 27.8 C 59 % 19.05 C
1700 25-06-2019 21:35:00 27.6 C 59 % 18.86 C
Sensor: Nr:Datum:Temp:Feuchte:Taupunkt:
Aussen-T/F 1701 25-06-2019 21:40:00 27.3 C 60 % 18.85 C
1702 25-06-2019 21:45:00 27.1 C 61 % 18.93 C
1703 25-06-2019 21:50:00 26.8 C 61 % 18.65 C
1704 25-06-2019 21:55:00 26.6 C 61 % 18.46 C
1705 25-06-2019 22:00:00 26.4 C 61 % 18.27 C
1706 25-06-2019 22:05:00 26.2 C 62 % 18.34 C
1707 25-06-2019 22:10:00 26.1 C 63 % 18.5 C
1708 25-06-2019 22:15:00 25.9 C 63 % 18.31 C
1709 25-06-2019 22:20:00 25.8 C 64 % 18.47 C
1710 25-06-2019 22:25:00 25.7 C 64 % 18.38 C
1711 25-06-2019 22:30:00 25.6 C 64 % 18.28 C
1712 25-06-2019 22:35:00 25.4 C 65 % 18.34 C
1713 25-06-2019 22:40:00 25.3 C 65 % 18.25 C
1714 25-06-2019 22:45:00 25.2 C 65 % 18.15 C
1715 25-06-2019 22:50:00 24.9 C 66 % 18.11 C
1716 25-06-2019 22:55:00 24.8 C 66 % 18.01 C
1717 25-06-2019 23:00:00 24.6 C 66 % 17.83 C
1718 25-06-2019 23:05:00 24.4 C 67 % 17.87 C
1719 25-06-2019 23:10:00 24.2 C 67 % 17.68 C
1720 25-06-2019 23:15:00 24.1 C 67 % 17.59 C
1721 25-06-2019 23:20:00 24.1 C 66 % 17.35 C
1722 25-06-2019 23:25:00 24.1 C 66 % 17.35 C
1723 25-06-2019 23:30:00 24 C 66 % 17.26 C
1724 25-06-2019 23:35:00 24 C 65 % 17.01 C
1725 25-06-2019 23:40:00 24.1 C 65 % 17.11 C
Sensor: Nr:Datum:Temp:Feuchte:Taupunkt:
Aussen-T/F 1726 25-06-2019 23:45:00 24.1 C 65 % 17.11 C
1727 25-06-2019 23:50:00 24.1 C 65 % 17.11 C
1728 25-06-2019 23:55:00 24.1 C 66 % 17.35 C
1729 26-06-2019 00:00:00 23.9 C 67 % 17.4 C
1730 26-06-2019 00:05:00 23.8 C 66 % 17.07 C
1731 26-06-2019 00:10:00 23.7 C 68 % 17.44 C
1732 26-06-2019 00:15:00 23.6 C 69 % 17.58 C
1733 26-06-2019 00:20:00 23.5 C 70 % 17.71 C
1734 26-06-2019 00:25:00 23.4 C 70 % 17.62 C
1735 26-06-2019 00:30:00 23.3 C 69 % 17.29 C
1736 26-06-2019 00:35:00 23.3 C 70 % 17.52 C
1737 26-06-2019 00:40:00 23.2 C 70 % 17.42 C
1738 26-06-2019 00:45:00 23.1 C 71 % 17.55 C
1739 26-06-2019 00:50:00 23.1 C 72 % 17.78 C
1740 26-06-2019 00:55:00 23.1 C 72 % 17.78 C
1741 26-06-2019 01:00:00 22.9 C 72 % 17.58 C
1742 26-06-2019 01:05:00 22.9 C 73 % 17.8 C
1743 26-06-2019 01:10:00 22.9 C 73 % 17.8 C
1744 26-06-2019 01:15:00 22.8 C 72 % 17.49 C
1745 26-06-2019 01:20:00 22.7 C 72 % 17.39 C
1746 26-06-2019 01:25:00 22.5 C 73 % 17.42 C
1747 26-06-2019 01:30:00 22.3 C 74 % 17.44 C
1748 26-06-2019 01:35:00 22.1 C 75 % 17.46 C
1749 26-06-2019 01:40:00 22 C 76 % 17.57 C
1750 26-06-2019 01:45:00 21.9 C 76 % 17.48 C
Sensor: Nr:Datum:Temp:Feuchte:Taupunkt:
Aussen-T/F 1751 26-06-2019 01:50:00 21.8 C 77 % 17.59 C
1752 26-06-2019 01:55:00 21.8 C 77 % 17.59 C
1753 26-06-2019 02:00:00 21.7 C 77 % 17.49 C
1754 26-06-2019 02:05:00 21.6 C 77 % 17.39 C
1755 26-06-2019 02:10:00 21.5 C 78 % 17.5 C
1756 26-06-2019 02:15:00 21.3 C 78 % 17.31 C
1757 26-06-2019 02:20:00 21.3 C 79 % 17.51 C
1758 26-06-2019 02:25:00 21.2 C 79 % 17.41 C
1759 26-06-2019 02:30:00 21.2 C 79 % 17.41 C
1760 26-06-2019 02:35:00 21.1 C 79 % 17.32 C
1761 26-06-2019 02:40:00 21 C 80 % 17.42 C
1762 26-06-2019 02:45:00 20.9 C 80 % 17.32 C
1763 26-06-2019 02:50:00 20.9 C 81 % 17.52 C
1764 26-06-2019 02:55:00 20.8 C 81 % 17.42 C
1765 26-06-2019 03:00:00 20.8 C 81 % 17.42 C
1766 26-06-2019 03:05:00 20.7 C 81 % 17.32 C
1767 26-06-2019 03:10:00 20.7 C 81 % 17.32 C
1768 26-06-2019 03:15:00 20.7 C 82 % 17.52 C
1769 26-06-2019 03:20:00 20.7 C 82 % 17.52 C
1770 26-06-2019 03:25:00 20.7 C 82 % 17.52 C
1771 26-06-2019 03:30:00 20.7 C 82 % 17.52 C
1772 26-06-2019 03:35:00 20.6 C 82 % 17.42 C
1773 26-06-2019 03:40:00 20.4 C 82 % 17.22 C
1774 26-06-2019 03:45:00 20.3 C 82 % 17.13 C
1775 26-06-2019 03:50:00 20.3 C 83 % 17.32 C
Sensor: Nr:Datum:Temp:Feuchte:Taupunkt:
Aussen-T/F 1776 26-06-2019 03:55:00 20.3 C 83 % 17.32 C
1777 26-06-2019 04:00:00 20.3 C 83 % 17.32 C
1778 26-06-2019 04:05:00 20.2 C 83 % 17.22 C
1779 26-06-2019 04:10:00 20.1 C 83 % 17.12 C
1780 26-06-2019 04:15:00 19.9 C 83 % 16.93 C
1781 26-06-2019 04:20:00 19.9 C 84 % 17.12 C
1782 26-06-2019 04:25:00 19.8 C 85 % 17.21 C
1783 26-06-2019 04:30:00 19.8 C 85 % 17.21 C
1784 26-06-2019 04:35:00 19.7 C 85 % 17.11 C
1785 26-06-2019 04:40:00 19.6 C 85 % 17.01 C
1786 26-06-2019 04:45:00 19.6 C 85 % 17.01 C
1787 26-06-2019 04:50:00 19.5 C 86 % 17.1 C
1788 26-06-2019 04:55:00 19.5 C 86 % 17.1 C
1789 26-06-2019 05:00:00 19.4 C 86 % 17 C
1790 26-06-2019 05:05:00 19.4 C 86 % 17 C
1791 26-06-2019 05:10:00 19.4 C 87 % 17.18 C
1792 26-06-2019 05:15:00 19.5 C 86 % 17.1 C
1793 26-06-2019 05:20:00 19.6 C 86 % 17.19 C
1794 26-06-2019 05:25:00 19.6 C 86 % 17.19 C
1795 26-06-2019 05:30:00 19.5 C 86 % 17.1 C
1796 26-06-2019 05:35:00 19.5 C 87 % 17.28 C
1797 26-06-2019 05:40:00 19.5 C 87 % 17.28 C
1798 26-06-2019 05:45:00 19.5 C 87 % 17.28 C
1799 26-06-2019 05:50:00 19.4 C 87 % 17.18 C
1800 26-06-2019 05:55:00 19.4 C 87 % 17.18 C
Sensor: Nr:Datum:Temp:Feuchte:Taupunkt:
Aussen-T/F 1801 26-06-2019 06:00:00 19.5 C 87 % 17.28 C
1802 26-06-2019 06:05:00 19.4 C 87 % 17.18 C
1803 26-06-2019 06:10:00 19.4 C 88 % 17.36 C
1804 26-06-2019 06:15:00 19.4 C 88 % 17.36 C
1805 26-06-2019 06:20:00 19.5 C 88 % 17.46 C
1806 26-06-2019 06:25:00 19.5 C 88 % 17.46 C
1807 26-06-2019 06:30:00 19.6 C 88 % 17.56 C
1808 26-06-2019 06:35:00 19.6 C 88 % 17.56 C
1809 26-06-2019 06:40:00 19.7 C 88 % 17.66 C
1810 26-06-2019 06:45:00 19.7 C 88 % 17.66 C
1811 26-06-2019 06:50:00 19.8 C 88 % 17.75 C
1812 26-06-2019 06:55:00 19.8 C 88 % 17.75 C
1813 26-06-2019 07:00:00 19.8 C 88 % 17.75 C
1814 26-06-2019 07:05:00 19.9 C 88 % 17.85 C
1815 26-06-2019 07:10:00 20 C 88 % 17.95 C
1816 26-06-2019 07:15:00 20.1 C 88 % 18.05 C
1817 26-06-2019 07:20:00 20.2 C 88 % 18.15 C
1818 26-06-2019 07:25:00 20.2 C 88 % 18.15 C
1819 26-06-2019 07:30:00 20.3 C 88 % 18.25 C
1820 26-06-2019 07:35:00 20.4 C 88 % 18.34 C
1821 26-06-2019 07:40:00 20.5 C 88 % 18.44 C
1822 26-06-2019 07:45:00 20.6 C 89 % 18.72 C
1823 26-06-2019 07:50:00 20.7 C 88 % 18.64 C
1824 26-06-2019 07:55:00 20.8 C 89 % 18.92 C
1825 26-06-2019 08:00:00 20.9 C 89 % 19.02 C
Sensor: Nr:Datum:Temp:Feuchte:Taupunkt:
Aussen-T/F 1826 26-06-2019 08:05:00 21.1 C 88 % 19.03 C
1827 26-06-2019 08:10:00 21.2 C 87 % 18.95 C
1828 26-06-2019 08:15:00 21.4 C 88 % 19.33 C
1829 26-06-2019 08:20:00 21.6 C 88 % 19.53 C
1830 26-06-2019 08:25:00 21.7 C 88 % 19.62 C
1831 26-06-2019 08:30:00 21.9 C 88 % 19.82 C
1832 26-06-2019 08:35:00 22.1 C 88 % 20.02 C
1833 26-06-2019 08:40:00 22.3 C 88 % 20.21 C
1834 26-06-2019 08:45:00 22.6 C 87 % 20.32 C
1835 26-06-2019 08:50:00 22.8 C 88 % 20.71 C
1836 26-06-2019 08:55:00 23.1 C 87 % 20.82 C
1837 26-06-2019 09:00:00 23.2 C 88 % 21.1 C
1838 26-06-2019 09:05:00 23.4 C 88 % 21.3 C
1839 26-06-2019 09:10:00 23.6 C 86 % 21.12 C
1840 26-06-2019 09:15:00 23.9 C 86 % 21.41 C
1841 26-06-2019 09:20:00 24.2 C 85 % 21.52 C
1842 26-06-2019 09:25:00 24.4 C 84 % 21.52 C
1843 26-06-2019 09:30:00 24.8 C 83 % 21.71 C
1844 26-06-2019 09:35:00 25.1 C 81 % 21.61 C
1845 26-06-2019 09:40:00 25.4 C 80 % 21.7 C
1846 26-06-2019 09:45:00 25.7 C 79 % 21.78 C
1847 26-06-2019 09:50:00 25.9 C 78 % 21.77 C
1848 26-06-2019 09:55:00 26.1 C 78 % 21.96 C
1849 26-06-2019 10:00:00 26.2 C 77 % 21.84 C
1850 26-06-2019 10:05:00 26.3 C 76 % 21.73 C
Sensor: Nr:Datum:Temp:Feuchte:Taupunkt:
Aussen-T/F 1851 26-06-2019 10:10:00 26.5 C 76 % 21.92 C
1852 26-06-2019 10:15:00 26.7 C 75 % 21.9 C
1853 26-06-2019 10:20:00 26.8 C 76 % 22.21 C
1854 26-06-2019 10:25:00 27.1 C 74 % 22.06 C
1855 26-06-2019 10:30:00 27.3 C 75 % 22.47 C
1856 26-06-2019 10:35:00 27.6 C 74 % 22.54 C
1857 26-06-2019 10:40:00 27.9 C 72 % 22.38 C
1858 26-06-2019 10:45:00 28.1 C 72 % 22.57 C
1859 26-06-2019 10:50:00 28.2 C 71 % 22.44 C
1860 26-06-2019 10:55:00 28.3 C 71 % 22.53 C
1861 26-06-2019 11:00:00 28.4 C 70 % 22.39 C
1862 26-06-2019 11:05:00 28.5 C 70 % 22.49 C
1863 26-06-2019 11:10:00 28.6 C 69 % 22.35 C
1864 26-06-2019 11:15:00 28.7 C 69 % 22.44 C
1865 26-06-2019 11:20:00 28.8 C 68 % 22.3 C
1866 26-06-2019 11:25:00 28.9 C 69 % 22.63 C
1867 26-06-2019 11:30:00 28.9 C 68 % 22.39 C
1868 26-06-2019 11:35:00 29.1 C 67 % 22.34 C
1869 26-06-2019 11:40:00 29.2 C 67 % 22.44 C
1870 26-06-2019 11:45:00 29.3 C 67 % 22.53 C
1871 26-06-2019 11:50:00 29.4 C 67 % 22.63 C
1872 26-06-2019 11:55:00 29.6 C 67 % 22.82 C
1873 26-06-2019 12:00:00 29.7 C 66 % 22.66 C
1874 26-06-2019 12:05:00 29.7 C 65 % 22.41 C
1875 26-06-2019 12:10:00 29.8 C 66 % 22.76 C
Sensor: Nr:Datum:Temp:Feuchte:Taupunkt:
Aussen-T/F 1876 26-06-2019 12:15:00 30 C 65 % 22.69 C
1877 26-06-2019 12:20:00 30.1 C 64 % 22.53 C
1878 26-06-2019 12:25:00 30.2 C 64 % 22.63 C
1879 26-06-2019 12:30:00 30.3 C 62 % 22.2 C
1880 26-06-2019 12:35:00 30.4 C 63 % 22.56 C
1881 26-06-2019 12:40:00 30.4 C 61 % 22.03 C
1882 26-06-2019 12:45:00 30.6 C 61 % 22.21 C
1883 26-06-2019 12:50:00 30.8 C 59 % 21.85 C
1884 26-06-2019 12:55:00 30.9 C 58 % 21.67 C
1885 26-06-2019 13:00:00 31.1 C 57 % 21.57 C
1886 26-06-2019 13:05:00 31.2 C 57 % 21.66 C
1887 26-06-2019 13:10:00 31.3 C 56 % 21.47 C
1888 26-06-2019 13:15:00 31.3 C 55 % 21.17 C
1889 26-06-2019 13:20:00 31.4 C 54 % 20.97 C
1890 26-06-2019 13:25:00 31.6 C 52 % 20.54 C
1891 26-06-2019 13:30:00 31.7 C 48 % 19.34 C
1892 26-06-2019 13:35:00 31.8 C 52 % 20.72 C
1893 26-06-2019 13:40:00 31.9 C 53 % 21.12 C
1894 26-06-2019 13:45:00 31.9 C 51 % 20.5 C
1895 26-06-2019 13:50:00 32.2 C 51 % 20.77 C
1896 26-06-2019 13:55:00 32.2 C 51 % 20.77 C
1897 26-06-2019 14:00:00 32.3 C 51 % 20.86 C
1898 26-06-2019 14:05:00 32.3 C 51 % 20.86 C
1899 26-06-2019 14:10:00 32.3 C 51 % 20.86 C
1900 26-06-2019 14:15:00 32.3 C 52 % 21.18 C
Sensor: Nr:Datum:Temp:Feuchte:Taupunkt:
Aussen-T/F 1901 26-06-2019 14:20:00 32.4 C 51 % 20.96 C
1902 26-06-2019 14:25:00 32.6 C 51 % 21.14 C
1903 26-06-2019 14:30:00 32.7 C 49 % 20.58 C
1904 26-06-2019 14:35:00 32.7 C 50 % 20.91 C
1905 26-06-2019 14:40:00 32.9 C 50 % 21.09 C
1906 26-06-2019 14:45:00 32.9 C 49 % 20.76 C
1907 26-06-2019 14:50:00 33.1 C 50 % 21.27 C
1908 26-06-2019 14:55:00 33.2 C 51 % 21.69 C
1909 26-06-2019 15:00:00 33.4 C 52 % 22.19 C
1910 26-06-2019 15:05:00 33.5 C 50 % 21.64 C
1911 26-06-2019 15:10:00 33.4 C 49 % 21.22 C
1912 26-06-2019 15:15:00 33.4 C 50 % 21.55 C
1913 26-06-2019 15:20:00 33.6 C 49 % 21.4 C
1914 26-06-2019 15:25:00 33.7 C 51 % 22.15 C
1915 26-06-2019 15:30:00 33.9 C 51 % 22.33 C
1916 26-06-2019 15:35:00 34.1 C 51 % 22.51 C
1917 26-06-2019 15:40:00 34.3 C 49 % 22.04 C
1918 26-06-2019 15:45:00 34.3 C 48 % 21.7 C
1919 26-06-2019 15:50:00 34.5 C 48 % 21.88 C
1920 26-06-2019 15:55:00 34.7 C 47 % 21.72 C
1921 26-06-2019 16:00:00 34.7 C 49 % 22.4 C
1922 26-06-2019 16:05:00 34.8 C 47 % 21.81 C
1923 26-06-2019 16:10:00 34.8 C 45 % 21.1 C
1924 26-06-2019 16:15:00 34.8 C 47 % 21.81 C
1925 26-06-2019 16:20:00 34.9 C 46 % 21.55 C
Sensor: Nr:Datum:Temp:Feuchte:Taupunkt:
Aussen-T/F 1926 26-06-2019 16:25:00 34.9 C 44 % 20.82 C
1927 26-06-2019 16:30:00 34.8 C 45 % 21.1 C
1928 26-06-2019 16:35:00 34.7 C 45 % 21.01 C
1929 26-06-2019 16:40:00 34.6 C 46 % 21.28 C
1930 26-06-2019 16:45:00 34.7 C 46 % 21.37 C
1931 26-06-2019 16:50:00 34.7 C 45 % 21.01 C
1932 26-06-2019 16:55:00 34.8 C 45 % 21.1 C
1933 26-06-2019 17:00:00 34.9 C 44 % 20.82 C
1934 26-06-2019 17:05:00 34.9 C 45 % 21.19 C
1935 26-06-2019 17:10:00 35 C 45 % 21.28 C
1936 26-06-2019 17:15:00 34.8 C 45 % 21.1 C
1937 26-06-2019 17:20:00 34.8 C 44 % 20.73 C
1938 26-06-2019 17:25:00 34.7 C 44 % 20.64 C
1939 26-06-2019 17:30:00 34.7 C 44 % 20.64 C
1940 26-06-2019 17:35:00 34.7 C 44 % 20.64 C
1941 26-06-2019 17:40:00 34.8 C 43 % 20.36 C
1942 26-06-2019 17:45:00 34.6 C 44 % 20.55 C
1943 26-06-2019 17:50:00 34.6 C 44 % 20.55 C
1944 26-06-2019 17:55:00 34.7 C 42 % 19.89 C
1945 26-06-2019 18:00:00 34.6 C 42 % 19.8 C
1946 26-06-2019 18:05:00 34.6 C 42 % 19.8 C
1947 26-06-2019 18:10:00 34.7 C 41 % 19.5 C
1948 26-06-2019 18:15:00 34.7 C 41 % 19.5 C
1949 26-06-2019 18:20:00 34.6 C 42 % 19.8 C
1950 26-06-2019 18:25:00 34.4 C 41 % 19.24 C
Sensor: Nr:Datum:Temp:Feuchte:Taupunkt:
Aussen-T/F 1951 26-06-2019 18:30:00 34.3 C 42 % 19.53 C
1952 26-06-2019 18:35:00 34.2 C 41 % 19.06 C
1953 26-06-2019 18:40:00 34.1 C 42 % 19.35 C
1954 26-06-2019 18:45:00 34.2 C 42 % 19.44 C
1955 26-06-2019 18:50:00 34 C 43 % 19.64 C
1956 26-06-2019 18:55:00 34 C 43 % 19.64 C
1957 26-06-2019 19:00:00 33.9 C 44 % 19.92 C
1958 26-06-2019 19:05:00 34.1 C 43 % 19.73 C
1959 26-06-2019 19:10:00 34 C 43 % 19.64 C
1960 26-06-2019 19:15:00 33.9 C 43 % 19.55 C
1961 26-06-2019 19:20:00 33.9 C 43 % 19.55 C
1962 26-06-2019 19:25:00 33.6 C 43 % 19.28 C
1963 26-06-2019 19:30:00 33.4 C 44 % 19.47 C
1964 26-06-2019 19:35:00 33.2 C 44 % 19.29 C
1965 26-06-2019 19:40:00 32.9 C 44 % 19.02 C
1966 26-06-2019 19:45:00 32.7 C 44 % 18.84 C
1967 26-06-2019 19:50:00 32.5 C 44 % 18.66 C
1968 26-06-2019 19:55:00 32.3 C 44 % 18.48 C
1969 26-06-2019 20:00:00 32.2 C 45 % 18.75 C
1970 26-06-2019 20:05:00 32.1 C 46 % 19.02 C
1971 26-06-2019 20:10:00 31.9 C 46 % 18.83 C
1972 26-06-2019 20:15:00 31.8 C 47 % 19.09 C
1973 26-06-2019 20:20:00 31.6 C 49 % 19.58 C
1974 26-06-2019 20:25:00 30.9 C 52 % 19.89 C
1975 26-06-2019 20:30:00 30.3 C 52 % 19.34 C
Sensor: Nr:Datum:Temp:Feuchte:Taupunkt:
Aussen-T/F 1976 26-06-2019 20:35:00 30.1 C 52 % 19.16 C
1977 26-06-2019 20:40:00 30.1 C 54 % 19.76 C
1978 26-06-2019 20:45:00 30.1 C 53 % 19.46 C
1979 26-06-2019 20:50:00 30.1 C 54 % 19.76 C
1980 26-06-2019 20:55:00 30.1 C 53 % 19.46 C
1981 26-06-2019 21:00:00 29.9 C 53 % 19.28 C
1982 26-06-2019 21:05:00 29.8 C 53 % 19.19 C
1983 26-06-2019 21:10:00 29.7 C 54 % 19.39 C
1984 26-06-2019 21:15:00 29.4 C 54 % 19.12 C
1985 26-06-2019 21:20:00 29.2 C 56 % 19.52 C
1986 26-06-2019 21:25:00 28.9 C 57 % 19.52 C
1987 26-06-2019 21:30:00 28.7 C 56 % 19.05 C
1988 26-06-2019 21:35:00 28.4 C 57 % 19.06 C
1989 26-06-2019 21:40:00 28.3 C 58 % 19.24 C
1990 26-06-2019 21:45:00 28 C 60 % 19.51 C
1991 26-06-2019 21:50:00 27.7 C 59 % 18.96 C
1992 26-06-2019 21:55:00 27.6 C 61 % 19.4 C
1993 26-06-2019 22:00:00 27.4 C 61 % 19.21 C
1994 26-06-2019 22:05:00 27.2 C 62 % 19.28 C
1995 26-06-2019 22:10:00 26.9 C 63 % 19.26 C
1996 26-06-2019 22:15:00 26.7 C 64 % 19.32 C
1997 26-06-2019 22:20:00 26.5 C 65 % 19.38 C
1998 26-06-2019 22:25:00 26.3 C 65 % 19.19 C
1999 26-06-2019 22:30:00 26.2 C 66 % 19.34 C
2000 26-06-2019 22:35:00 26.1 C 67 % 19.49 C
Sensor: Nr:Datum:Temp:Feuchte:Taupunkt:
Aussen-T/F 2001 26-06-2019 22:40:00 25.9 C 67 % 19.3 C
2002 26-06-2019 22:45:00 25.8 C 67 % 19.2 C
2003 26-06-2019 22:50:00 25.9 C 68 % 19.54 C
2004 26-06-2019 22:55:00 25.9 C 68 % 19.54 C
2005 26-06-2019 23:00:00 25.8 C 68 % 19.44 C
2006 26-06-2019 23:05:00 25.7 C 69 % 19.58 C
2007 26-06-2019 23:10:00 25.8 C 69 % 19.68 C
2008 26-06-2019 23:15:00 26 C 69 % 19.87 C
2009 26-06-2019 23:20:00 26.2 C 68 % 19.82 C
2010 26-06-2019 23:25:00 26.3 C 69 % 20.16 C
2011 26-06-2019 23:30:00 26.2 C 69 % 20.06 C
2012 26-06-2019 23:35:00 26.1 C 70 % 20.2 C
2013 26-06-2019 23:40:00 26 C 70 % 20.1 C
2014 26-06-2019 23:45:00 26.1 C 70 % 20.2 C
2015 26-06-2019 23:50:00 26.1 C 70 % 20.2 C
2016 26-06-2019 23:55:00 26.1 C 71 % 20.43 C
2017 27-06-2019 00:00:00 25.8 C 71 % 20.14 C
2018 27-06-2019 00:05:00 25.8 C 71 % 20.14 C
2019 27-06-2019 00:10:00 25.7 C 72 % 20.27 C
2020 27-06-2019 00:15:00 25.5 C 72 % 20.08 C
2021 27-06-2019 00:20:00 25.4 C 72 % 19.98 C
2022 27-06-2019 00:25:00 25.3 C 73 % 20.11 C
2023 27-06-2019 00:30:00 25.2 C 73 % 20.01 C
2024 27-06-2019 00:35:00 25.1 C 74 % 20.14 C
2025 27-06-2019 00:40:00 24.9 C 74 % 19.94 C
Sensor: Nr:Datum:Temp:Feuchte:Taupunkt:
Aussen-T/F 2026 27-06-2019 00:45:00 24.8 C 74 % 19.85 C
2027 27-06-2019 00:50:00 24.7 C 75 % 19.97 C
2028 27-06-2019 00:55:00 24.7 C 75 % 19.97 C
2029 27-06-2019 01:00:00 24.7 C 75 % 19.97 C
2030 27-06-2019 01:05:00 24.6 C 75 % 19.87 C
2031 27-06-2019 01:10:00 24.5 C 76 % 19.99 C
2032 27-06-2019 01:15:00 24.3 C 76 % 19.8 C
2033 27-06-2019 01:20:00 24.1 C 77 % 19.81 C
2034 27-06-2019 01:25:00 23.9 C 77 % 19.62 C
2035 27-06-2019 01:30:00 23.9 C 77 % 19.62 C
2036 27-06-2019 01:35:00 23.9 C 77 % 19.62 C
2037 27-06-2019 01:40:00 23.9 C 77 % 19.62 C
2038 27-06-2019 01:45:00 23.9 C 77 % 19.62 C
2039 27-06-2019 01:50:00 23.9 C 77 % 19.62 C
2040 27-06-2019 01:55:00 23.8 C 77 % 19.52 C
2041 27-06-2019 02:00:00 23.7 C 77 % 19.43 C
2042 27-06-2019 02:05:00 23.6 C 78 % 19.54 C
2043 27-06-2019 02:10:00 23.6 C 78 % 19.54 C
2044 27-06-2019 02:15:00 23.4 C 79 % 19.55 C
2045 27-06-2019 02:20:00 23.3 C 79 % 19.45 C
2046 27-06-2019 02:25:00 23.2 C 79 % 19.35 C
2047 27-06-2019 02:30:00 23.1 C 79 % 19.26 C
2048 27-06-2019 02:35:00 23 C 79 % 19.16 C
2049 27-06-2019 02:40:00 23.1 C 79 % 19.26 C
2050 27-06-2019 02:45:00 23.1 C 79 % 19.26 C
Sensor: Nr:Datum:Temp:Feuchte:Taupunkt:
Aussen-T/F 2051 27-06-2019 02:50:00 23 C 78 % 18.96 C
2052 27-06-2019 02:55:00 23 C 78 % 18.96 C
2053 27-06-2019 03:00:00 22.9 C 78 % 18.86 C
2054 27-06-2019 03:05:00 22.9 C 78 % 18.86 C
2055 27-06-2019 03:10:00 22.8 C 78 % 18.76 C
2056 27-06-2019 03:15:00 22.6 C 78 % 18.57 C
2057 27-06-2019 03:20:00 22.5 C 79 % 18.67 C
2058 27-06-2019 03:25:00 22.3 C 78 % 18.28 C
2059 27-06-2019 03:30:00 22.3 C 79 % 18.48 C
2060 27-06-2019 03:35:00 22.2 C 78 % 18.18 C
2061 27-06-2019 03:40:00 22.2 C 78 % 18.18 C
2062 27-06-2019 03:45:00 22.2 C 78 % 18.18 C
2063 27-06-2019 03:50:00 22.1 C 77 % 17.88 C
2064 27-06-2019 03:55:00 22 C 77 % 17.78 C
2065 27-06-2019 04:00:00 21.9 C 77 % 17.68 C
2066 27-06-2019 04:05:00 21.9 C 77 % 17.68 C
2067 27-06-2019 04:10:00 21.9 C 77 % 17.68 C
2068 27-06-2019 04:15:00 21.8 C 76 % 17.38 C
2069 27-06-2019 04:20:00 21.8 C 77 % 17.59 C
2070 27-06-2019 04:25:00 21.7 C 77 % 17.49 C
2071 27-06-2019 04:30:00 21.7 C 77 % 17.49 C
2072 27-06-2019 04:35:00 21.6 C 77 % 17.39 C
2073 27-06-2019 04:40:00 21.6 C 77 % 17.39 C
2074 27-06-2019 04:45:00 21.4 C 77 % 17.2 C
2075 27-06-2019 04:50:00 21.4 C 77 % 17.2 C
Sensor: Nr:Datum:Temp:Feuchte:Taupunkt:
Aussen-T/F 2076 27-06-2019 04:55:00 21.3 C 78 % 17.31 C
2077 27-06-2019 05:00:00 21.2 C 78 % 17.21 C
2078 27-06-2019 05:05:00 20.9 C 79 % 17.12 C
2079 27-06-2019 05:10:00 20.7 C 80 % 17.13 C
2080 27-06-2019 05:15:00 20.6 C 80 % 17.03 C
2081 27-06-2019 05:20:00 20.3 C 81 % 16.93 C
2082 27-06-2019 05:25:00 20.2 C 80 % 16.64 C
2083 27-06-2019 05:30:00 20.3 C 80 % 16.74 C
2084 27-06-2019 05:35:00 20.4 C 79 % 16.64 C
2085 27-06-2019 05:40:00 20.5 C 79 % 16.73 C
2086 27-06-2019 05:45:00 20.5 C 79 % 16.73 C
2087 27-06-2019 05:50:00 20.5 C 79 % 16.73 C
2088 27-06-2019 05:55:00 20.4 C 79 % 16.64 C
2089 27-06-2019 06:00:00 20.3 C 79 % 16.54 C
2090 27-06-2019 06:05:00 20.3 C 79 % 16.54 C
2091 27-06-2019 06:10:00 20.2 C 79 % 16.44 C
2092 27-06-2019 06:15:00 20.2 C 80 % 16.64 C
2093 27-06-2019 06:20:00 20.2 C 80 % 16.64 C
2094 27-06-2019 06:25:00 20.1 C 81 % 16.74 C
2095 27-06-2019 06:30:00 20 C 81 % 16.64 C
2096 27-06-2019 06:35:00 19.9 C 81 % 16.54 C
2097 27-06-2019 06:40:00 19.8 C 82 % 16.64 C
2098 27-06-2019 06:45:00 19.8 C 82 % 16.64 C
2099 27-06-2019 06:50:00 19.7 C 82 % 16.54 C
2100 27-06-2019 06:55:00 19.7 C 83 % 16.73 C
Sensor: Nr:Datum:Temp:Feuchte:Taupunkt:
Aussen-T/F 2101 27-06-2019 07:00:00 19.7 C 81 % 16.35 C
2102 27-06-2019 07:05:00 19.7 C 81 % 16.35 C
2103 27-06-2019 07:10:00 19.8 C 80 % 16.25 C
2104 27-06-2019 07:15:00 19.9 C 80 % 16.35 C
2105 27-06-2019 07:20:00 19.9 C 80 % 16.35 C
2106 27-06-2019 07:25:00 20 C 80 % 16.44 C
2107 27-06-2019 07:30:00 20.1 C 80 % 16.54 C
2108 27-06-2019 07:35:00 20.2 C 79 % 16.44 C
2109 27-06-2019 07:40:00 20.2 C 79 % 16.44 C
2110 27-06-2019 07:45:00 20.3 C 79 % 16.54 C
2111 27-06-2019 07:50:00 20.3 C 79 % 16.54 C
2112 27-06-2019 07:55:00 20.3 C 79 % 16.54 C
2113 27-06-2019 08:00:00 20.4 C 78 % 16.44 C
2114 27-06-2019 08:05:00 20.4 C 78 % 16.44 C
2115 27-06-2019 08:10:00 20.4 C 78 % 16.44 C
2116 27-06-2019 08:15:00 20.6 C 78 % 16.63 C
2117 27-06-2019 08:20:00 20.6 C 78 % 16.63 C
2118 27-06-2019 08:25:00 20.6 C 77 % 16.43 C
2119 27-06-2019 08:30:00 20.6 C 77 % 16.43 C
2120 27-06-2019 08:35:00 20.6 C 77 % 16.43 C
2121 27-06-2019 08:40:00 20.6 C 78 % 16.63 C
2122 27-06-2019 08:45:00 20.7 C 78 % 16.73 C
2123 27-06-2019 08:50:00 20.8 C 77 % 16.62 C
2124 27-06-2019 08:55:00 20.9 C 76 % 16.51 C
2125 27-06-2019 09:00:00 21 C 77 % 16.81 C
Sensor: Nr:Datum:Temp:Feuchte:Taupunkt:
Aussen-T/F 2126 27-06-2019 09:05:00 21.2 C 76 % 16.8 C
2127 27-06-2019 09:10:00 21.3 C 75 % 16.69 C
2128 27-06-2019 09:15:00 21.3 C 74 % 16.48 C
2129 27-06-2019 09:20:00 21.4 C 73 % 16.36 C
2130 27-06-2019 09:25:00 21.4 C 74 % 16.57 C
2131 27-06-2019 09:30:00 21.4 C 74 % 16.57 C
2132 27-06-2019 09:35:00 21.5 C 74 % 16.67 C
2133 27-06-2019 09:40:00 21.6 C 74 % 16.77 C
2134 27-06-2019 09:45:00 21.7 C 73 % 16.65 C
2135 27-06-2019 09:50:00 21.8 C 72 % 16.53 C
2136 27-06-2019 09:55:00 21.9 C 72 % 16.62 C
2137 27-06-2019 10:00:00 22 C 72 % 16.72 C
2138 27-06-2019 10:05:00 22.1 C 71 % 16.6 C
2139 27-06-2019 10:10:00 22.3 C 70 % 16.56 C
2140 27-06-2019 10:15:00 22.4 C 69 % 16.43 C
2141 27-06-2019 10:20:00 22.7 C 69 % 16.72 C
2142 27-06-2019 10:25:00 22.8 C 68 % 16.59 C
2143 27-06-2019 10:30:00 23.1 C 67 % 16.64 C
2144 27-06-2019 10:35:00 23.2 C 67 % 16.73 C
2145 27-06-2019 10:40:00 23.2 C 67 % 16.73 C
2146 27-06-2019 10:45:00 23.4 C 66 % 16.69 C
2147 27-06-2019 10:50:00 23.4 C 65 % 16.45 C
2148 27-06-2019 10:55:00 23.4 C 65 % 16.45 C
2149 27-06-2019 11:00:00 23.6 C 64 % 16.39 C
2150 27-06-2019 11:05:00 23.6 C 64 % 16.39 C
Sensor: Nr:Datum:Temp:Feuchte:Taupunkt:
Aussen-T/F 2151 27-06-2019 11:10:00 23.7 C 63 % 16.24 C
2152 27-06-2019 11:15:00 23.7 C 64 % 16.49 C
2153 27-06-2019 11:20:00 23.8 C 63 % 16.33 C
2154 27-06-2019 11:25:00 24.1 C 62 % 16.37 C
2155 27-06-2019 11:30:00 24.2 C 62 % 16.46 C
2156 27-06-2019 11:35:00 24.3 C 60 % 16.04 C
2157 27-06-2019 11:40:00 24.3 C 62 % 16.55 C
2158 27-06-2019 11:45:00 24.3 C 60 % 16.04 C
2159 27-06-2019 11:50:00 24.4 C 61 % 16.39 C
2160 27-06-2019 11:55:00 24.4 C 60 % 16.13 C
2161 27-06-2019 12:00:00 24.5 C 60 % 16.23 C
2162 27-06-2019 12:05:00 24.7 C 61 % 16.67 C
2163 27-06-2019 12:10:00 24.7 C 60 % 16.41 C
2164 27-06-2019 12:15:00 24.7 C 59 % 16.15 C
2165 27-06-2019 12:20:00 24.8 C 60 % 16.51 C
2166 27-06-2019 12:25:00 24.8 C 59 % 16.24 C
2167 27-06-2019 12:30:00 24.8 C 59 % 16.24 C
2168 27-06-2019 12:35:00 24.8 C 58 % 15.98 C
2169 27-06-2019 12:40:00 24.9 C 58 % 16.07 C
2170 27-06-2019 12:45:00 25 C 58 % 16.16 C
2171 27-06-2019 12:50:00 25.2 C 57 % 16.08 C
2172 27-06-2019 12:55:00 25.2 C 58 % 16.35 C
2173 27-06-2019 13:00:00 25.2 C 57 % 16.08 C
2174 27-06-2019 13:05:00 25.5 C 55 % 15.8 C
2175 27-06-2019 13:10:00 25.6 C 55 % 15.89 C
Sensor: Nr:Datum:Temp:Feuchte:Taupunkt:
Aussen-T/F 2176 27-06-2019 13:15:00 25.6 C 54 % 15.6 C
2177 27-06-2019 13:20:00 25.8 C 54 % 15.79 C
2178 27-06-2019 13:25:00 25.9 C 53 % 15.59 C
2179 27-06-2019 13:30:00 25.9 C 52 % 15.29 C
2180 27-06-2019 13:35:00 26.1 C 52 % 15.48 C
2181 27-06-2019 13:40:00 26.1 C 53 % 15.77 C
2182 27-06-2019 13:45:00 26.2 C 52 % 15.57 C
2183 27-06-2019 13:50:00 26.2 C 51 % 15.27 C
2184 27-06-2019 13:55:00 26.4 C 51 % 15.45 C
2185 27-06-2019 14:00:00 26.5 C 51 % 15.54 C
2186 27-06-2019 14:05:00 26.6 C 50 % 15.32 C
2187 27-06-2019 14:10:00 26.5 C 49 % 14.92 C
2188 27-06-2019 14:15:00 26.6 C 51 % 15.63 C
2189 27-06-2019 14:20:00 26.7 C 49 % 15.1 C
2190 27-06-2019 14:25:00 26.8 C 48 % 14.87 C
2191 27-06-2019 14:30:00 26.9 C 48 % 14.96 C
2192 27-06-2019 14:35:00 27.1 C 49 % 15.47 C
2193 27-06-2019 14:40:00 27.3 C 48 % 15.33 C
2194 27-06-2019 14:45:00 27.6 C 46 % 14.94 C
2195 27-06-2019 14:50:00 27.6 C 46 % 14.94 C
2196 27-06-2019 14:55:00 27.6 C 45 % 14.6 C
2197 27-06-2019 15:00:00 27.7 C 45 % 14.69 C
2198 27-06-2019 15:05:00 27.8 C 44 % 14.43 C
2199 27-06-2019 15:10:00 27.9 C 44 % 14.52 C
2200 27-06-2019 15:15:00 28.1 C 45 % 15.05 C
Sensor: Nr:Datum:Temp:Feuchte:Taupunkt:
Aussen-T/F 2201 27-06-2019 15:20:00 28.3 C 43 % 14.53 C
2202 27-06-2019 15:25:00 28.6 C 42 % 14.43 C
2203 27-06-2019 15:30:00 28.7 C 41 % 14.15 C
2204 27-06-2019 15:35:00 28.9 C 38 % 13.16 C
2205 27-06-2019 15:40:00 29 C 38 % 13.25 C
2206 27-06-2019 15:45:00 29.2 C 38 % 13.42 C
2207 27-06-2019 15:50:00 29.4 C 38 % 13.6 C
2208 27-06-2019 15:55:00 29.6 C 37 % 13.37 C
2209 27-06-2019 16:00:00 29.8 C 36 % 13.12 C
2210 27-06-2019 16:05:00 29.9 C 35 % 12.78 C
2211 27-06-2019 16:10:00 29.8 C 36 % 13.12 C
2212 27-06-2019 16:15:00 29.9 C 33 % 11.89 C
2213 27-06-2019 16:20:00 30 C 35 % 12.87 C
2214 27-06-2019 16:25:00 30.3 C 33 % 12.23 C
2215 27-06-2019 16:30:00 30.4 C 32 % 11.85 C
2216 27-06-2019 16:35:00 30.6 C 32 % 12.03 C
2217 27-06-2019 16:40:00 30.6 C 30 % 11.05 C
2218 27-06-2019 16:45:00 30.5 C 29 % 10.46 C
2219 27-06-2019 16:50:00 30.2 C 29 % 10.2 C
2220 27-06-2019 16:55:00 30.2 C 29 % 10.2 C
2221 27-06-2019 17:00:00 30.3 C 29 % 10.29 C
2222 27-06-2019 17:05:00 30.6 C 28 % 10.02 C
2223 27-06-2019 17:10:00 30.5 C 28 % 9.93 C
2224 27-06-2019 17:15:00 30.4 C 28 % 9.85 C
2225 27-06-2019 17:20:00 30.7 C 28 % 10.1 C
Sensor: Nr:Datum:Temp:Feuchte:Taupunkt:
Aussen-T/F 2226 27-06-2019 17:25:00 30.7 C 28 % 10.1 C
2227 27-06-2019 17:30:00 30.6 C 29 % 10.54 C
2228 27-06-2019 17:35:00 30.5 C 27 % 9.39 C
2229 27-06-2019 17:40:00 30.4 C 28 % 9.85 C
2230 27-06-2019 17:45:00 30.5 C 27 % 9.39 C
2231 27-06-2019 17:50:00 30.6 C 28 % 10.02 C
2232 27-06-2019 17:55:00 30.7 C 28 % 10.1 C
2233 27-06-2019 18:00:00 30.4 C 27 % 9.31 C
2234 27-06-2019 18:05:00 30.3 C 26 % 8.66 C
2235 27-06-2019 18:10:00 30.5 C 27 % 9.39 C
2236 27-06-2019 18:15:00 30.3 C 26 % 8.66 C
2237 27-06-2019 18:20:00 30.3 C 26 % 8.66 C
2238 27-06-2019 18:25:00 30.2 C 26 % 8.58 C
2239 27-06-2019 18:30:00 30.3 C 27 % 9.22 C
2240 27-06-2019 18:35:00 30.2 C 27 % 9.14 C
2241 27-06-2019 18:40:00 30 C 26 % 8.41 C
2242 27-06-2019 18:45:00 30 C 26 % 8.41 C
2243 27-06-2019 18:50:00 30.1 C 26 % 8.5 C
2244 27-06-2019 18:55:00 30.1 C 26 % 8.5 C
2245 27-06-2019 19:00:00 30.2 C 26 % 8.58 C
2246 27-06-2019 19:05:00 30.3 C 27 % 9.22 C
2247 27-06-2019 19:10:00 30.4 C 25 % 8.17 C
2248 27-06-2019 19:15:00 30.3 C 24 % 7.49 C
2249 27-06-2019 19:20:00 30.1 C 24 % 7.32 C
2250 27-06-2019 19:25:00 29.8 C 25 % 7.67 C
Sensor: Nr:Datum:Temp:Feuchte:Taupunkt:
Aussen-T/F 2251 27-06-2019 19:30:00 29.6 C 25 % 7.5 C
2252 27-06-2019 19:35:00 29.2 C 25 % 7.16 C
2253 27-06-2019 19:40:00 29 C 26 % 7.57 C
2254 27-06-2019 19:45:00 28.8 C 26 % 7.4 C
2255 27-06-2019 19:50:00 28.7 C 28 % 8.4 C
2256 27-06-2019 19:55:00 28.7 C 28 % 8.4 C
2257 27-06-2019 20:00:00 28.5 C 28 % 8.23 C
2258 27-06-2019 20:05:00 28.3 C 29 % 8.57 C
2259 27-06-2019 20:10:00 28.2 C 31 % 9.48 C
2260 27-06-2019 20:15:00 28.1 C 32 % 9.86 C
2261 27-06-2019 20:20:00 27.9 C 32 % 9.69 C
2262 27-06-2019 20:25:00 27.6 C 32 % 9.43 C
2263 27-06-2019 20:30:00 27.2 C 35 % 10.42 C
2264 27-06-2019 20:35:00 27 C 33 % 9.36 C
2265 27-06-2019 20:40:00 26.8 C 34 % 9.63 C
2266 27-06-2019 20:45:00 26.7 C 35 % 9.98 C
2267 27-06-2019 20:50:00 26.6 C 33 % 9.01 C
2268 27-06-2019 20:55:00 26.3 C 36 % 10.05 C
2269 27-06-2019 21:00:00 26.1 C 35 % 9.45 C
2270 27-06-2019 21:05:00 25.8 C 36 % 9.61 C
2271 27-06-2019 21:10:00 25.6 C 37 % 9.84 C
2272 27-06-2019 21:15:00 25.3 C 37 % 9.57 C
2273 27-06-2019 21:20:00 25.2 C 38 % 9.88 C
2274 27-06-2019 21:25:00 24.9 C 42 % 11.11 C
2275 27-06-2019 21:30:00 24.6 C 42 % 10.84 C
Sensor: Nr:Datum:Temp:Feuchte:Taupunkt:
Aussen-T/F 2276 27-06-2019 21:35:00 24.1 C 44 % 11.09 C
2277 27-06-2019 21:40:00 23.7 C 45 % 11.07 C
2278 27-06-2019 21:45:00 23.2 C 47 % 11.27 C
2279 27-06-2019 21:50:00 22.8 C 47 % 10.91 C
2280 27-06-2019 21:55:00 22.5 C 50 % 11.56 C
2281 27-06-2019 22:00:00 22.2 C 52 % 11.88 C
2282 27-06-2019 22:05:00 22 C 51 % 11.4 C
2283 27-06-2019 22:10:00 21.9 C 53 % 11.89 C
2284 27-06-2019 22:15:00 21.7 C 53 % 11.71 C
2285 27-06-2019 22:20:00 21.4 C 54 % 11.71 C
2286 27-06-2019 22:25:00 21.3 C 55 % 11.9 C
2287 27-06-2019 22:30:00 21.2 C 55 % 11.81 C
2288 27-06-2019 22:35:00 21.1 C 57 % 12.25 C
2289 27-06-2019 22:40:00 20.9 C 56 % 11.8 C
2290 27-06-2019 22:45:00 20.7 C 57 % 11.88 C
2291 27-06-2019 22:50:00 20.6 C 58 % 12.05 C
2292 27-06-2019 22:55:00 20.4 C 59 % 12.12 C
2293 27-06-2019 23:00:00 20.3 C 58 % 11.77 C
2294 27-06-2019 23:05:00 20.4 C 58 % 11.86 C
2295 27-06-2019 23:10:00 20.4 C 59 % 12.12 C
2296 27-06-2019 23:15:00 20.3 C 59 % 12.03 C
2297 27-06-2019 23:20:00 20.2 C 60 % 12.19 C
2298 27-06-2019 23:25:00 20 C 61 % 12.26 C
2299 27-06-2019 23:30:00 19.8 C 61 % 12.07 C
2300 27-06-2019 23:35:00 19.8 C 62 % 12.31 C
Sensor: Nr:Datum:Temp:Feuchte:Taupunkt:
Aussen-T/F 2301 27-06-2019 23:40:00 19.6 C 62 % 12.13 C
2302 27-06-2019 23:45:00 19.5 C 63 % 12.27 C
2303 27-06-2019 23:50:00 19.3 C 63 % 12.09 C
2304 27-06-2019 23:55:00 19.2 C 64 % 12.23 C
2305 28-06-2019 00:00:00 19.1 C 64 % 12.14 C
2306 28-06-2019 00:05:00 19 C 64 % 12.04 C
2307 28-06-2019 00:10:00 18.9 C 64 % 11.95 C
2308 28-06-2019 00:15:00 18.8 C 66 % 12.32 C
2309 28-06-2019 00:20:00 18.7 C 66 % 12.22 C
2310 28-06-2019 00:25:00 18.6 C 66 % 12.13 C
2311 28-06-2019 00:30:00 18.5 C 66 % 12.03 C
2312 28-06-2019 00:35:00 18.4 C 66 % 11.94 C
2313 28-06-2019 00:40:00 18.3 C 67 % 12.07 C
2314 28-06-2019 00:45:00 18.2 C 67 % 11.98 C
2315 28-06-2019 00:50:00 18 C 68 % 12.01 C
2316 28-06-2019 00:55:00 17.9 C 69 % 12.14 C
2317 28-06-2019 01:00:00 17.8 C 69 % 12.04 C
2318 28-06-2019 01:05:00 17.7 C 69 % 11.95 C
2319 28-06-2019 01:10:00 17.6 C 70 % 12.07 C
2320 28-06-2019 01:15:00 17.4 C 70 % 11.88 C
2321 28-06-2019 01:20:00 17.3 C 71 % 12 C
2322 28-06-2019 01:25:00 17.2 C 72 % 12.11 C
2323 28-06-2019 01:30:00 17.1 C 72 % 12.02 C
2324 28-06-2019 01:35:00 17 C 73 % 12.13 C
2325 28-06-2019 01:40:00 16.9 C 73 % 12.03 C
Sensor: Nr:Datum:Temp:Feuchte:Taupunkt:
Aussen-T/F 2326 28-06-2019 01:45:00 16.8 C 73 % 11.94 C
2327 28-06-2019 01:50:00 16.7 C 74 % 12.05 C
2328 28-06-2019 01:55:00 16.7 C 74 % 12.05 C
2329 28-06-2019 02:00:00 16.6 C 74 % 11.95 C
2330 28-06-2019 02:05:00 16.6 C 75 % 12.15 C
2331 28-06-2019 02:10:00 16.5 C 75 % 12.06 C
2332 28-06-2019 02:15:00 16.4 C 75 % 11.96 C
2333 28-06-2019 02:20:00 16.4 C 76 % 12.16 C
2334 28-06-2019 02:25:00 16.3 C 77 % 12.26 C
2335 28-06-2019 02:30:00 16.2 C 77 % 12.17 C
2336 28-06-2019 02:35:00 16.2 C 77 % 12.17 C
2337 28-06-2019 02:40:00 16.1 C 78 % 12.27 C
2338 28-06-2019 02:45:00 16.1 C 78 % 12.27 C
2339 28-06-2019 02:50:00 15.9 C 78 % 12.07 C
2340 28-06-2019 02:55:00 15.9 C 78 % 12.07 C
2341 28-06-2019 03:00:00 15.8 C 79 % 12.17 C
2342 28-06-2019 03:05:00 15.8 C 79 % 12.17 C
2343 28-06-2019 03:10:00 15.7 C 79 % 12.07 C
2344 28-06-2019 03:15:00 15.7 C 79 % 12.07 C
2345 28-06-2019 03:20:00 15.6 C 80 % 12.16 C
2346 28-06-2019 03:25:00 15.6 C 80 % 12.16 C
2347 28-06-2019 03:30:00 15.4 C 80 % 11.97 C
2348 28-06-2019 03:35:00 15.4 C 81 % 12.16 C
2349 28-06-2019 03:40:00 15.3 C 81 % 12.06 C
2350 28-06-2019 03:45:00 15.3 C 81 % 12.06 C
Sensor: Nr:Datum:Temp:Feuchte:Taupunkt:
Aussen-T/F 2351 28-06-2019 03:50:00 15.2 C 82 % 12.15 C
2352 28-06-2019 03:55:00 15 C 82 % 11.95 C
2353 28-06-2019 04:00:00 14.9 C 82 % 11.86 C
2354 28-06-2019 04:05:00 14.8 C 83 % 11.94 C
2355 28-06-2019 04:10:00 14.7 C 83 % 11.85 C
2356 28-06-2019 04:15:00 14.6 C 83 % 11.75 C
2357 28-06-2019 04:20:00 14.5 C 84 % 11.83 C
2358 28-06-2019 04:25:00 14.4 C 84 % 11.73 C
2359 28-06-2019 04:30:00 14.3 C 84 % 11.64 C
2360 28-06-2019 04:35:00 14.2 C 85 % 11.72 C
2361 28-06-2019 04:40:00 14.1 C 85 % 11.62 C
2362 28-06-2019 04:45:00 14 C 86 % 11.7 C
2363 28-06-2019 04:50:00 13.9 C 86 % 11.6 C
2364 28-06-2019 04:55:00 13.8 C 86 % 11.5 C
2365 28-06-2019 05:00:00 13.8 C 87 % 11.68 C
2366 28-06-2019 05:05:00 13.7 C 86 % 11.4 C
2367 28-06-2019 05:10:00 13.7 C 87 % 11.58 C
2368 28-06-2019 05:15:00 13.7 C 87 % 11.58 C
2369 28-06-2019 05:20:00 13.6 C 87 % 11.48 C
2370 28-06-2019 05:25:00 13.5 C 87 % 11.38 C
2371 28-06-2019 05:30:00 13.5 C 87 % 11.38 C
2372 28-06-2019 05:35:00 13.4 C 88 % 11.45 C
2373 28-06-2019 05:40:00 13.4 C 88 % 11.45 C
2374 28-06-2019 05:45:00 13.3 C 88 % 11.36 C
2375 28-06-2019 05:50:00 13.3 C 88 % 11.36 C
Sensor: Nr:Datum:Temp:Feuchte:Taupunkt:
Aussen-T/F 2376 28-06-2019 05:55:00 13.3 C 89 % 11.53 C
2377 28-06-2019 06:00:00 13.3 C 89 % 11.53 C
2378 28-06-2019 06:05:00 13.3 C 89 % 11.53 C
2379 28-06-2019 06:10:00 13.3 C 89 % 11.53 C
2380 28-06-2019 06:15:00 13.3 C 89 % 11.53 C
2381 28-06-2019 06:20:00 13.3 C 90 % 11.7 C
2382 28-06-2019 06:25:00 13.3 C 90 % 11.7 C
2383 28-06-2019 06:30:00 13.3 C 90 % 11.7 C
2384 28-06-2019 06:35:00 13.4 C 90 % 11.79 C
2385 28-06-2019 06:40:00 13.4 C 90 % 11.79 C
2386 28-06-2019 06:45:00 13.4 C 90 % 11.79 C
2387 28-06-2019 06:50:00 13.5 C 90 % 11.89 C
2388 28-06-2019 06:55:00 13.5 C 91 % 12.06 C
2389 28-06-2019 07:00:00 13.6 C 91 % 12.16 C
2390 28-06-2019 07:05:00 13.6 C 91 % 12.16 C
2391 28-06-2019 07:10:00 13.7 C 91 % 12.26 C
2392 28-06-2019 07:15:00 13.7 C 91 % 12.26 C
2393 28-06-2019 07:20:00 13.8 C 91 % 12.36 C
2394 28-06-2019 07:25:00 13.8 C 90 % 12.19 C
2395 28-06-2019 07:30:00 13.8 C 90 % 12.19 C
2396 28-06-2019 07:35:00 13.9 C 91 % 12.46 C
2397 28-06-2019 07:40:00 14 C 91 % 12.56 C
2398 28-06-2019 07:45:00 14.1 C 91 % 12.65 C
2399 28-06-2019 07:50:00 14.2 C 91 % 12.75 C
2400 28-06-2019 07:55:00 14.2 C 91 % 12.75 C
Sensor: Nr:Datum:Temp:Feuchte:Taupunkt:
Aussen-T/F 2401 28-06-2019 08:00:00 14.3 C 91 % 12.85 C
2402 28-06-2019 08:05:00 14.4 C 90 % 12.78 C
2403 28-06-2019 08:10:00 14.6 C 90 % 12.98 C
2404 28-06-2019 08:15:00 14.7 C 89 % 12.91 C
2405 28-06-2019 08:20:00 14.9 C 88 % 12.93 C
2406 28-06-2019 08:25:00 15.2 C 86 % 12.88 C
2407 28-06-2019 08:30:00 15.5 C 85 % 12.99 C
2408 28-06-2019 08:35:00 15.9 C 82 % 12.83 C
2409 28-06-2019 08:40:00 16.2 C 81 % 12.94 C
2410 28-06-2019 08:45:00 16.3 C 82 % 13.22 C
2411 28-06-2019 08:50:00 16.3 C 81 % 13.04 C
2412 28-06-2019 08:55:00 16.4 C 81 % 13.13 C
2413 28-06-2019 09:00:00 16.6 C 80 % 13.14 C
2414 28-06-2019 09:05:00 16.9 C 78 % 13.04 C
2415 28-06-2019 09:10:00 17.2 C 77 % 13.14 C
2416 28-06-2019 09:15:00 17.4 C 76 % 13.13 C
2417 28-06-2019 09:20:00 17.6 C 75 % 13.12 C
2418 28-06-2019 09:25:00 17.7 C 74 % 13.01 C
2419 28-06-2019 09:30:00 17.8 C 75 % 13.31 C
2420 28-06-2019 09:35:00 17.9 C 74 % 13.2 C
2421 28-06-2019 09:40:00 18.1 C 73 % 13.19 C
2422 28-06-2019 09:45:00 18.2 C 74 % 13.49 C
2423 28-06-2019 09:50:00 18.4 C 72 % 13.26 C
2424 28-06-2019 09:55:00 18.6 C 71 % 13.24 C
2425 28-06-2019 10:00:00 18.8 C 71 % 13.43 C
Sensor: Nr:Datum:Temp:Feuchte:Taupunkt:
Aussen-T/F 2426 28-06-2019 10:05:00 18.8 C 70 % 13.22 C
2427 28-06-2019 10:10:00 18.9 C 70 % 13.31 C
2428 28-06-2019 10:15:00 19.1 C 70 % 13.5 C
2429 28-06-2019 10:20:00 19.4 C 70 % 13.79 C
2430 28-06-2019 10:25:00 19.7 C 67 % 13.4 C
2431 28-06-2019 10:30:00 20.1 C 68 % 14.01 C
2432 28-06-2019 10:35:00 20.4 C 65 % 13.6 C
2433 28-06-2019 10:40:00 20.6 C 65 % 13.79 C
2434 28-06-2019 10:45:00 20.6 C 65 % 13.79 C
2435 28-06-2019 10:50:00 20.6 C 65 % 13.79 C
2436 28-06-2019 10:55:00 20.8 C 63 % 13.5 C
2437 28-06-2019 11:00:00 20.9 C 63 % 13.6 C
2438 28-06-2019 11:05:00 20.9 C 62 % 13.35 C
2439 28-06-2019 11:10:00 21.1 C 62 % 13.54 C
2440 28-06-2019 11:15:00 21.2 C 60 % 13.13 C
2441 28-06-2019 11:20:00 21.3 C 60 % 13.22 C
2442 28-06-2019 11:25:00 21.5 C 59 % 13.15 C
2443 28-06-2019 11:30:00 21.7 C 59 % 13.34 C
2444 28-06-2019 11:35:00 21.8 C 60 % 13.69 C
2445 28-06-2019 11:40:00 21.8 C 60 % 13.69 C
2446 28-06-2019 11:45:00 21.8 C 60 % 13.69 C
2447 28-06-2019 11:50:00 21.8 C 59 % 13.44 C
2448 28-06-2019 11:55:00 21.9 C 60 % 13.79 C
2449 28-06-2019 12:00:00 22.2 C 59 % 13.81 C
2450 28-06-2019 12:05:00 22.3 C 58 % 13.64 C
Sensor: Nr:Datum:Temp:Feuchte:Taupunkt:
Aussen-T/F 2451 28-06-2019 12:10:00 22.5 C 58 % 13.83 C
2452 28-06-2019 12:15:00 22.6 C 58 % 13.92 C
2453 28-06-2019 12:20:00 22.6 C 57 % 13.65 C
2454 28-06-2019 12:25:00 22.7 C 56 % 13.47 C
2455 28-06-2019 12:30:00 22.8 C 55 % 13.29 C
2456 28-06-2019 12:35:00 23.1 C 54 % 13.29 C
2457 28-06-2019 12:40:00 23.2 C 55 % 13.66 C
2458 28-06-2019 12:45:00 23.2 C 54 % 13.38 C
2459 28-06-2019 12:50:00 23.3 C 53 % 13.19 C
2460 28-06-2019 12:55:00 23.6 C 51 % 12.88 C
2461 28-06-2019 13:00:00 23.7 C 51 % 12.97 C
2462 28-06-2019 13:05:00 23.8 C 51 % 13.06 C
2463 28-06-2019 13:10:00 24.1 C 49 % 12.72 C
2464 28-06-2019 13:15:00 24.2 C 49 % 12.81 C
2465 28-06-2019 13:20:00 24.3 C 49 % 12.91 C
2466 28-06-2019 13:25:00 24.6 C 48 % 12.87 C
2467 28-06-2019 13:30:00 24.9 C 46 % 12.49 C
2468 28-06-2019 13:35:00 25 C 45 % 12.25 C
2469 28-06-2019 13:40:00 25.1 C 45 % 12.34 C
2470 28-06-2019 13:45:00 25.2 C 46 % 12.76 C
2471 28-06-2019 13:50:00 25.4 C 44 % 12.27 C
2472 28-06-2019 13:55:00 25.7 C 44 % 12.54 C
2473 28-06-2019 14:00:00 25.8 C 43 % 12.28 C
2474 28-06-2019 14:05:00 25.7 C 43 % 12.19 C
2475 28-06-2019 14:10:00 25.7 C 45 % 12.88 C
Sensor: Nr:Datum:Temp:Feuchte:Taupunkt:
Aussen-T/F 2476 28-06-2019 14:15:00 25.9 C 44 % 12.72 C
2477 28-06-2019 14:20:00 26.1 C 42 % 12.19 C
2478 28-06-2019 14:25:00 26.2 C 44 % 12.99 C
2479 28-06-2019 14:30:00 26.4 C 41 % 12.09 C
2480 28-06-2019 14:35:00 26.6 C 43 % 13 C
2481 28-06-2019 14:40:00 26.7 C 42 % 12.73 C
2482 28-06-2019 14:45:00 26.9 C 40 % 12.16 C
2483 28-06-2019 14:50:00 26.9 C 40 % 12.16 C
2484 28-06-2019 14:55:00 26.9 C 41 % 12.54 C
2485 28-06-2019 15:00:00 27.1 C 41 % 12.72 C
2486 28-06-2019 15:05:00 27.3 C 44 % 13.98 C
2487 28-06-2019 15:10:00 27.7 C 41 % 13.25 C
2488 28-06-2019 15:15:00 27.8 C 37 % 11.78 C
2489 28-06-2019 15:20:00 27.9 C 38 % 12.27 C
2490 28-06-2019 15:25:00 28 C 39 % 12.76 C
2491 28-06-2019 15:30:00 28.2 C 39 % 12.93 C
2492 28-06-2019 15:35:00 28.4 C 37 % 12.31 C
2493 28-06-2019 15:40:00 28.7 C 38 % 12.98 C
2494 28-06-2019 15:45:00 28.9 C 37 % 12.75 C
2495 28-06-2019 15:50:00 29.2 C 37 % 13.02 C
2496 28-06-2019 15:55:00 29.5 C 35 % 12.43 C
2497 28-06-2019 16:00:00 29.7 C 35 % 12.61 C
2498 28-06-2019 16:05:00 29.9 C 34 % 12.34 C
2499 28-06-2019 16:10:00 30.1 C 34 % 12.51 C
2500 28-06-2019 16:15:00 30.1 C 33 % 12.06 C
Sensor: Nr:Datum:Temp:Feuchte:Taupunkt:
Aussen-T/F 2501 28-06-2019 16:20:00 30.2 C 33 % 12.15 C
2502 28-06-2019 16:25:00 30.3 C 34 % 12.69 C
2503 28-06-2019 16:30:00 30.4 C 34 % 12.78 C
2504 28-06-2019 16:35:00 30.4 C 34 % 12.78 C
2505 28-06-2019 16:40:00 30.4 C 32 % 11.85 C
2506 28-06-2019 16:45:00 30.3 C 34 % 12.69 C
2507 28-06-2019 16:50:00 30.4 C 34 % 12.78 C
2508 28-06-2019 16:55:00 30.8 C 32 % 12.2 C
2509 28-06-2019 17:00:00 30.8 C 31 % 11.72 C
2510 28-06-2019 17:05:00 30.6 C 33 % 12.5 C
2511 28-06-2019 17:10:00 30.8 C 31 % 11.72 C
2512 28-06-2019 17:15:00 31.1 C 32 % 12.46 C
2513 28-06-2019 17:20:00 31.2 C 29 % 11.06 C
2514 28-06-2019 17:25:00 31.1 C 30 % 11.48 C
2515 28-06-2019 17:30:00 31.2 C 28 % 10.53 C
2516 28-06-2019 17:35:00 31.2 C 29 % 11.06 C
2517 28-06-2019 17:40:00 31.1 C 27 % 9.9 C
2518 28-06-2019 17:45:00 31.3 C 29 % 11.14 C
2519 28-06-2019 17:50:00 31.5 C 29 % 11.31 C
2520 28-06-2019 17:55:00 31.7 C 29 % 11.48 C
2521 28-06-2019 18:00:00 31.7 C 27 % 10.41 C
2522 28-06-2019 18:05:00 31.6 C 28 % 10.87 C
2523 28-06-2019 18:10:00 31.6 C 27 % 10.33 C
2524 28-06-2019 18:15:00 31.7 C 27 % 10.41 C
2525 28-06-2019 18:20:00 31.7 C 27 % 10.41 C
Sensor: Nr:Datum:Temp:Feuchte:Taupunkt:
Aussen-T/F 2526 28-06-2019 18:25:00 31.7 C 28 % 10.96 C
2527 28-06-2019 18:30:00 31.6 C 28 % 10.87 C
2528 28-06-2019 18:35:00 31.6 C 29 % 11.4 C
2529 28-06-2019 18:40:00 31.7 C 28 % 10.96 C
2530 28-06-2019 18:45:00 31.7 C 29 % 11.48 C
2531 28-06-2019 18:50:00 31.7 C 29 % 11.48 C
2532 28-06-2019 18:55:00 31.7 C 29 % 11.48 C
2533 28-06-2019 19:00:00 31.5 C 28 % 10.79 C
2534 28-06-2019 19:05:00 31.3 C 29 % 11.14 C
2535 28-06-2019 19:10:00 31.4 C 29 % 11.23 C
2536 28-06-2019 19:15:00 31.6 C 30 % 11.91 C
2537 28-06-2019 19:20:00 31.6 C 30 % 11.91 C
2538 28-06-2019 19:25:00 31.6 C 30 % 11.91 C
2539 28-06-2019 19:30:00 31.4 C 30 % 11.74 C
2540 28-06-2019 19:35:00 31.2 C 30 % 11.57 C
2541 28-06-2019 19:40:00 31 C 30 % 11.4 C
2542 28-06-2019 19:45:00 30.9 C 31 % 11.81 C
2543 28-06-2019 19:50:00 30.6 C 32 % 12.03 C
2544 28-06-2019 19:55:00 30.3 C 32 % 11.77 C
2545 28-06-2019 20:00:00 30.1 C 33 % 12.06 C
2546 28-06-2019 20:05:00 29.8 C 33 % 11.8 C
2547 28-06-2019 20:10:00 29.7 C 34 % 12.17 C
2548 28-06-2019 20:15:00 29.6 C 34 % 12.08 C
2549 28-06-2019 20:20:00 29.6 C 37 % 13.37 C
2550 28-06-2019 20:25:00 29.6 C 40 % 14.57 C
Sensor: Nr:Datum:Temp:Feuchte:Taupunkt:
Aussen-T/F 2551 28-06-2019 20:30:00 29.5 C 36 % 12.86 C
2552 28-06-2019 20:35:00 29.4 C 38 % 13.6 C
2553 28-06-2019 20:40:00 29.3 C 38 % 13.51 C
2554 28-06-2019 20:45:00 29.3 C 41 % 14.68 C
2555 28-06-2019 20:50:00 29.1 C 36 % 12.51 C
2556 28-06-2019 20:55:00 28.9 C 42 % 14.7 C
2557 28-06-2019 21:00:00 28.6 C 43 % 14.8 C
2558 28-06-2019 21:05:00 28.1 C 45 % 15.05 C
2559 28-06-2019 21:10:00 27.6 C 44 % 14.25 C
2560 28-06-2019 21:15:00 26.9 C 45 % 13.96 C
2561 28-06-2019 21:20:00 26.3 C 47 % 14.09 C
2562 28-06-2019 21:25:00 25.7 C 49 % 14.19 C
2563 28-06-2019 21:30:00 25.1 C 49 % 13.64 C
2564 28-06-2019 21:35:00 24.6 C 50 % 13.49 C
2565 28-06-2019 21:40:00 24.2 C 51 % 13.43 C
2566 28-06-2019 21:45:00 23.8 C 51 % 13.06 C
2567 28-06-2019 21:50:00 23.4 C 52 % 12.99 C
2568 28-06-2019 21:55:00 23.1 C 52 % 12.71 C
2569 28-06-2019 22:00:00 22.8 C 52 % 12.43 C
2570 28-06-2019 22:05:00 22.6 C 51 % 11.96 C
2571 28-06-2019 22:10:00 22.4 C 51 % 11.77 C
2572 28-06-2019 22:15:00 22.2 C 52 % 11.88 C
2573 28-06-2019 22:20:00 21.9 C 52 % 11.61 C
2574 28-06-2019 22:25:00 21.8 C 54 % 12.08 C
2575 28-06-2019 22:30:00 21.5 C 55 % 12.08 C
Sensor: Nr:Datum:Temp:Feuchte:Taupunkt:
Aussen-T/F 2576 28-06-2019 22:35:00 21.3 C 55 % 11.9 C
2577 28-06-2019 22:40:00 21 C 57 % 12.16 C
2578 28-06-2019 22:45:00 20.7 C 58 % 12.15 C
2579 28-06-2019 22:50:00 20.5 C 59 % 12.22 C
2580 28-06-2019 22:55:00 20.3 C 60 % 12.29 C
2581 28-06-2019 23:00:00 20.2 C 61 % 12.44 C
2582 28-06-2019 23:05:00 19.9 C 61 % 12.16 C
2583 28-06-2019 23:10:00 19.7 C 62 % 12.22 C
2584 28-06-2019 23:15:00 19.6 C 62 % 12.13 C
2585 28-06-2019 23:20:00 19.4 C 63 % 12.18 C
2586 28-06-2019 23:25:00 19.3 C 64 % 12.32 C
2587 28-06-2019 23:30:00 19.1 C 64 % 12.14 C
2588 28-06-2019 23:35:00 19 C 65 % 12.28 C
2589 28-06-2019 23:40:00 18.9 C 65 % 12.18 C
2590 28-06-2019 23:45:00 18.8 C 65 % 12.09 C
2591 28-06-2019 23:50:00 18.7 C 66 % 12.22 C
2592 28-06-2019 23:55:00 18.7 C 66 % 12.22 C
2593 29-06-2019 00:00:00 18.7 C 66 % 12.22 C
2594 29-06-2019 00:05:00 18.6 C 65 % 11.9 C
2595 29-06-2019 00:10:00 18.6 C 65 % 11.9 C
2596 29-06-2019 00:15:00 18.6 C 65 % 11.9 C
2597 29-06-2019 00:20:00 18.5 C 66 % 12.03 C
2598 29-06-2019 00:25:00 18.4 C 66 % 11.94 C
2599 29-06-2019 00:30:00 18.4 C 66 % 11.94 C
2600 29-06-2019 00:35:00 18.3 C 66 % 11.84 C
Sensor: Nr:Datum:Temp:Feuchte:Taupunkt:
Aussen-T/F 2601 29-06-2019 00:40:00 18.3 C 66 % 11.84 C
2602 29-06-2019 00:45:00 18.2 C 66 % 11.75 C
2603 29-06-2019 00:50:00 18.2 C 67 % 11.98 C
2604 29-06-2019 00:55:00 18.1 C 67 % 11.88 C
2605 29-06-2019 01:00:00 18.1 C 67 % 11.88 C
2606 29-06-2019 01:05:00 18 C 67 % 11.79 C
2607 29-06-2019 01:10:00 17.9 C 68 % 11.91 C
2608 29-06-2019 01:15:00 17.9 C 68 % 11.91 C
2609 29-06-2019 01:20:00 17.9 C 68 % 11.91 C
2610 29-06-2019 01:25:00 17.8 C 69 % 12.04 C
2611 29-06-2019 01:30:00 17.8 C 69 % 12.04 C
2612 29-06-2019 01:35:00 17.8 C 68 % 11.82 C
2613 29-06-2019 01:40:00 17.8 C 68 % 11.82 C
2614 29-06-2019 01:45:00 17.7 C 68 % 11.72 C
2615 29-06-2019 01:50:00 17.7 C 68 % 11.72 C
2616 29-06-2019 01:55:00 17.6 C 69 % 11.85 C
2617 29-06-2019 02:00:00 17.6 C 69 % 11.85 C
2618 29-06-2019 02:05:00 17.4 C 69 % 11.66 C
2619 29-06-2019 02:10:00 17.3 C 69 % 11.56 C
2620 29-06-2019 02:15:00 17.3 C 70 % 11.78 C
2621 29-06-2019 02:20:00 17.2 C 71 % 11.9 C
2622 29-06-2019 02:25:00 17.1 C 71 % 11.8 C
2623 29-06-2019 02:30:00 17 C 71 % 11.71 C
2624 29-06-2019 02:35:00 16.9 C 71 % 11.61 C
2625 29-06-2019 02:40:00 16.9 C 72 % 11.82 C
Sensor: Nr:Datum:Temp:Feuchte:Taupunkt:
Aussen-T/F 2626 29-06-2019 02:45:00 16.8 C 72 % 11.73 C
2627 29-06-2019 02:50:00 16.8 C 73 % 11.94 C
2628 29-06-2019 02:55:00 16.8 C 73 % 11.94 C
2629 29-06-2019 03:00:00 16.7 C 73 % 11.84 C
2630 29-06-2019 03:05:00 16.7 C 73 % 11.84 C
2631 29-06-2019 03:10:00 16.6 C 74 % 11.95 C
2632 29-06-2019 03:15:00 16.6 C 74 % 11.95 C
2633 29-06-2019 03:20:00 16.5 C 74 % 11.85 C
2634 29-06-2019 03:25:00 16.4 C 74 % 11.76 C
2635 29-06-2019 03:30:00 16.4 C 74 % 11.76 C
2636 29-06-2019 03:35:00 16.3 C 75 % 11.86 C
2637 29-06-2019 03:40:00 16.3 C 75 % 11.86 C
2638 29-06-2019 03:45:00 16.2 C 75 % 11.77 C
2639 29-06-2019 03:50:00 16.1 C 75 % 11.67 C
2640 29-06-2019 03:55:00 15.9 C 76 % 11.68 C
2641 29-06-2019 04:00:00 15.8 C 76 % 11.58 C
2642 29-06-2019 04:05:00 15.7 C 77 % 11.68 C
2643 29-06-2019 04:10:00 15.6 C 77 % 11.59 C
2644 29-06-2019 04:15:00 15.4 C 78 % 11.59 C
2645 29-06-2019 04:20:00 15.3 C 78 % 11.49 C
2646 29-06-2019 04:25:00 15.2 C 78 % 11.39 C
2647 29-06-2019 04:30:00 15.1 C 79 % 11.49 C
2648 29-06-2019 04:35:00 15 C 79 % 11.39 C
2649 29-06-2019 04:40:00 14.9 C 80 % 11.48 C
2650 29-06-2019 04:45:00 14.8 C 80 % 11.39 C
Sensor: Nr:Datum:Temp:Feuchte:Taupunkt:
Aussen-T/F 2651 29-06-2019 04:50:00 14.7 C 80 % 11.29 C
2652 29-06-2019 04:55:00 14.6 C 81 % 11.38 C
2653 29-06-2019 05:00:00 14.5 C 81 % 11.28 C
2654 29-06-2019 05:05:00 14.4 C 81 % 11.18 C
2655 29-06-2019 05:10:00 14.3 C 82 % 11.27 C
2656 29-06-2019 05:15:00 14.3 C 82 % 11.27 C
2657 29-06-2019 05:20:00 14.2 C 82 % 11.17 C
2658 29-06-2019 05:25:00 14.1 C 83 % 11.26 C
2659 29-06-2019 05:30:00 14 C 83 % 11.16 C
2660 29-06-2019 05:35:00 13.9 C 83 % 11.06 C
2661 29-06-2019 05:40:00 13.9 C 84 % 11.24 C
2662 29-06-2019 05:45:00 13.9 C 84 % 11.24 C
2663 29-06-2019 05:50:00 13.8 C 84 % 11.15 C
2664 29-06-2019 05:55:00 13.8 C 84 % 11.15 C
2665 29-06-2019 06:00:00 13.8 C 84 % 11.15 C
2666 29-06-2019 06:05:00 13.7 C 84 % 11.05 C
2667 29-06-2019 06:10:00 13.7 C 84 % 11.05 C
2668 29-06-2019 06:15:00 13.7 C 85 % 11.23 C
2669 29-06-2019 06:20:00 13.7 C 86 % 11.4 C
2670 29-06-2019 06:25:00 13.7 C 86 % 11.4 C
2671 29-06-2019 06:30:00 13.7 C 86 % 11.4 C
2672 29-06-2019 06:35:00 13.7 C 86 % 11.4 C
2673 29-06-2019 06:40:00 13.7 C 86 % 11.4 C
2674 29-06-2019 06:45:00 13.7 C 86 % 11.4 C
2675 29-06-2019 06:50:00 13.7 C 86 % 11.4 C
Sensor: Nr:Datum:Temp:Feuchte:Taupunkt:
Aussen-T/F 2676 29-06-2019 06:55:00 13.7 C 87 % 11.58 C
2677 29-06-2019 07:00:00 13.8 C 87 % 11.68 C
2678 29-06-2019 07:05:00 13.8 C 87 % 11.68 C
2679 29-06-2019 07:10:00 13.8 C 87 % 11.68 C
2680 29-06-2019 07:15:00 13.9 C 87 % 11.77 C
2681 29-06-2019 07:20:00 13.9 C 88 % 11.95 C
2682 29-06-2019 07:25:00 14.1 C 88 % 12.14 C
2683 29-06-2019 07:30:00 14.1 C 88 % 12.14 C
2684 29-06-2019 07:35:00 14.2 C 88 % 12.24 C
2685 29-06-2019 07:40:00 14.3 C 88 % 12.34 C
2686 29-06-2019 07:45:00 14.3 C 88 % 12.34 C
2687 29-06-2019 07:50:00 14.3 C 88 % 12.34 C
2688 29-06-2019 07:55:00 14.4 C 88 % 12.44 C
2689 29-06-2019 08:00:00 14.5 C 88 % 12.54 C
2690 29-06-2019 08:05:00 14.6 C 87 % 12.46 C
2691 29-06-2019 08:10:00 14.7 C 88 % 12.73 C
2692 29-06-2019 08:15:00 14.8 C 88 % 12.83 C
2693 29-06-2019 08:20:00 14.9 C 88 % 12.93 C
2694 29-06-2019 08:25:00 15.1 C 87 % 12.95 C
2695 29-06-2019 08:30:00 15.3 C 87 % 13.15 C
2696 29-06-2019 08:35:00 15.5 C 87 % 13.35 C
2697 29-06-2019 08:40:00 15.7 C 87 % 13.54 C
2698 29-06-2019 08:45:00 15.8 C 86 % 13.46 C
2699 29-06-2019 08:50:00 16 C 85 % 13.48 C
2700 29-06-2019 08:55:00 16.3 C 85 % 13.77 C
Sensor: Nr:Datum:Temp:Feuchte:Taupunkt:
Aussen-T/F 2701 29-06-2019 09:00:00 16.5 C 84 % 13.79 C
2702 29-06-2019 09:05:00 16.7 C 83 % 13.8 C
2703 29-06-2019 09:10:00 17.2 C 80 % 13.72 C
2704 29-06-2019 09:15:00 17.7 C 77 % 13.62 C
2705 29-06-2019 09:20:00 18.7 C 73 % 13.76 C
2706 29-06-2019 09:25:00 19.3 C 72 % 14.13 C
2707 29-06-2019 09:30:00 19.6 C 69 % 13.76 C
2708 29-06-2019 09:35:00 20.1 C 68 % 14.01 C
2709 29-06-2019 09:40:00 20.7 C 65 % 13.89 C
2710 29-06-2019 09:45:00 21 C 64 % 13.93 C
2711 29-06-2019 09:50:00 21.3 C 63 % 13.97 C
2712 29-06-2019 09:55:00 21.6 C 60 % 13.51 C
2713 29-06-2019 10:00:00 21.9 C 60 % 13.79 C
2714 29-06-2019 10:05:00 22.2 C 59 % 13.81 C
2715 29-06-2019 10:10:00 22.4 C 58 % 13.73 C
2716 29-06-2019 10:15:00 22.8 C 58 % 14.11 C
2717 29-06-2019 10:20:00 23.1 C 55 % 13.57 C
2718 29-06-2019 10:25:00 23.4 C 54 % 13.57 C
2719 29-06-2019 10:30:00 23.7 C 54 % 13.84 C
2720 29-06-2019 10:35:00 23.9 C 54 % 14.03 C
2721 29-06-2019 10:40:00 24.2 C 52 % 13.73 C
2722 29-06-2019 10:45:00 24.6 C 55 % 14.96 C
2723 29-06-2019 10:50:00 24.8 C 52 % 14.28 C
2724 29-06-2019 10:55:00 24.9 C 50 % 13.77 C
2725 29-06-2019 11:00:00 24.9 C 50 % 13.77 C
Sensor: Nr:Datum:Temp:Feuchte:Taupunkt:
Aussen-T/F 2726 29-06-2019 11:05:00 25.1 C 49 % 13.64 C
2727 29-06-2019 11:10:00 25.3 C 50 % 14.13 C
2728 29-06-2019 11:15:00 25.4 C 48 % 13.6 C
2729 29-06-2019 11:20:00 25.7 C 49 % 14.19 C
2730 29-06-2019 11:25:00 25.8 C 48 % 13.96 C
2731 29-06-2019 11:30:00 25.9 C 47 % 13.73 C
2732 29-06-2019 11:35:00 26 C 47 % 13.82 C
2733 29-06-2019 11:40:00 26.2 C 47 % 14 C
2734 29-06-2019 11:45:00 26.3 C 47 % 14.09 C
2735 29-06-2019 11:50:00 26.3 C 47 % 14.09 C
2736 29-06-2019 11:55:00 26.4 C 47 % 14.18 C
2737 29-06-2019 12:00:00 26.5 C 47 % 14.27 C
2738 29-06-2019 12:05:00 26.6 C 46 % 14.03 C
2739 29-06-2019 12:10:00 26.8 C 46 % 14.21 C
2740 29-06-2019 12:15:00 26.9 C 46 % 14.3 C
2741 29-06-2019 12:20:00 27.1 C 46 % 14.49 C
2742 29-06-2019 12:25:00 27.4 C 45 % 14.42 C
2743 29-06-2019 12:30:00 27.6 C 44 % 14.25 C
2744 29-06-2019 12:35:00 27.7 C 44 % 14.34 C
2745 29-06-2019 12:40:00 27.9 C 44 % 14.52 C
2746 29-06-2019 12:45:00 28.1 C 42 % 13.98 C
2747 29-06-2019 12:50:00 28.2 C 43 % 14.44 C
2748 29-06-2019 12:55:00 28.2 C 42 % 14.07 C
2749 29-06-2019 13:00:00 28.3 C 41 % 13.79 C
2750 29-06-2019 13:05:00 28.4 C 41 % 13.88 C
Sensor: Nr:Datum:Temp:Feuchte:Taupunkt:
Aussen-T/F 2751 29-06-2019 13:10:00 28.6 C 40 % 13.68 C
2752 29-06-2019 13:15:00 28.7 C 37 % 12.57 C
2753 29-06-2019 13:20:00 28.8 C 38 % 13.07 C
2754 29-06-2019 13:25:00 29.2 C 34 % 11.73 C
2755 29-06-2019 13:30:00 29.3 C 33 % 11.37 C
2756 29-06-2019 13:35:00 29.5 C 33 % 11.54 C
2757 29-06-2019 13:40:00 29.6 C 33 % 11.63 C
2758 29-06-2019 13:45:00 29.6 C 32 % 11.16 C
2759 29-06-2019 13:50:00 29.6 C 32 % 11.16 C
2760 29-06-2019 13:55:00 29.8 C 31 % 10.86 C
2761 29-06-2019 14:00:00 30.1 C 30 % 10.62 C
2762 29-06-2019 14:05:00 30.1 C 32 % 11.59 C
2763 29-06-2019 14:10:00 30.1 C 31 % 11.12 C
2764 29-06-2019 14:15:00 30.3 C 32 % 11.77 C
2765 29-06-2019 14:20:00 30.3 C 31 % 11.29 C
2766 29-06-2019 14:25:00 30.4 C 30 % 10.88 C
2767 29-06-2019 14:30:00 30.4 C 32 % 11.85 C
2768 29-06-2019 14:35:00 30.6 C 32 % 12.03 C
2769 29-06-2019 14:40:00 30.8 C 30 % 11.22 C
2770 29-06-2019 14:45:00 31.1 C 29 % 10.97 C
2771 29-06-2019 14:50:00 31.3 C 29 % 11.14 C
2772 29-06-2019 14:55:00 31.5 C 28 % 10.79 C
2773 29-06-2019 15:00:00 31.6 C 28 % 10.87 C
2774 29-06-2019 15:05:00 31.7 C 27 % 10.41 C
2775 29-06-2019 15:10:00 31.7 C 27 % 10.41 C
Sensor: Nr:Datum:Temp:Feuchte:Taupunkt:
Aussen-T/F 2776 29-06-2019 15:15:00 31.9 C 27 % 10.58 C
2777 29-06-2019 15:20:00 32.2 C 27 % 10.83 C
2778 29-06-2019 15:25:00 32.3 C 27 % 10.92 C
2779 29-06-2019 15:30:00 32.5 C 27 % 11.09 C
2780 29-06-2019 15:35:00 33 C 28 % 12.06 C
2781 29-06-2019 15:40:00 33.4 C 26 % 11.28 C
2782 29-06-2019 15:45:00 33.7 C 26 % 11.53 C
2783 29-06-2019 15:50:00 33.8 C 24 % 10.41 C
2784 29-06-2019 15:55:00 33.8 C 24 % 10.41 C
2785 29-06-2019 16:00:00 33.9 C 23 % 9.86 C
2786 29-06-2019 16:05:00 34.1 C 24 % 10.66 C
2787 29-06-2019 16:10:00 33.8 C 25 % 11.03 C
2788 29-06-2019 16:15:00 34 C 23 % 9.94 C
2789 29-06-2019 16:20:00 34.1 C 23 % 10.03 C
2790 29-06-2019 16:25:00 34.3 C 24 % 10.83 C
2791 29-06-2019 16:30:00 34.4 C 23 % 10.28 C
2792 29-06-2019 16:35:00 34.5 C 24 % 11 C
2793 29-06-2019 16:40:00 34.4 C 23 % 10.28 C
2794 29-06-2019 16:45:00 34.4 C 24 % 10.91 C
2795 29-06-2019 16:50:00 34.6 C 22 % 9.78 C
2796 29-06-2019 16:55:00 34.4 C 24 % 10.91 C
2797 29-06-2019 17:00:00 34.7 C 23 % 10.53 C
2798 29-06-2019 17:05:00 34.5 C 21 % 9.01 C
2799 29-06-2019 17:10:00 34.7 C 23 % 10.53 C
2800 29-06-2019 17:15:00 34.9 C 23 % 10.69 C
Sensor: Nr:Datum:Temp:Feuchte:Taupunkt:
Aussen-T/F 2801 29-06-2019 17:20:00 35.2 C 22 % 10.27 C
2802 29-06-2019 17:25:00 35.4 C 23 % 11.11 C
2803 29-06-2019 17:30:00 35.7 C 23 % 11.36 C
2804 29-06-2019 17:35:00 35.8 C 22 % 10.77 C
2805 29-06-2019 17:40:00 35.8 C 21 % 10.07 C
2806 29-06-2019 17:45:00 35.7 C 22 % 10.69 C
2807 29-06-2019 17:50:00 35.7 C 21 % 9.99 C
2808 29-06-2019 17:55:00 35.8 C 23 % 11.44 C
2809 29-06-2019 18:00:00 35.8 C 23 % 11.44 C
2810 29-06-2019 18:05:00 36 C 21 % 10.24 C
2811 29-06-2019 18:10:00 36.3 C 22 % 11.18 C
2812 29-06-2019 18:15:00 36 C 21 % 10.24 C
2813 29-06-2019 18:20:00 35.6 C 22 % 10.6 C
2814 29-06-2019 18:25:00 35.4 C 23 % 11.11 C
2815 29-06-2019 18:30:00 35.3 C 22 % 10.36 C
2816 29-06-2019 18:35:00 35.2 C 22 % 10.27 C
2817 29-06-2019 18:40:00 35.3 C 24 % 11.67 C
2818 29-06-2019 18:45:00 35.4 C 22 % 10.44 C
2819 29-06-2019 18:50:00 35.6 C 24 % 11.92 C
2820 29-06-2019 18:55:00 35.8 C 25 % 12.7 C
2821 29-06-2019 19:00:00 36 C 22 % 10.93 C
2822 29-06-2019 19:05:00 36.1 C 22 % 11.02 C
2823 29-06-2019 19:10:00 36 C 22 % 10.93 C
2824 29-06-2019 19:15:00 35.9 C 22 % 10.85 C
2825 29-06-2019 19:20:00 35.8 C 22 % 10.77 C
Sensor: Nr:Datum:Temp:Feuchte:Taupunkt:
Aussen-T/F 2826 29-06-2019 19:25:00 35.4 C 23 % 11.11 C
2827 29-06-2019 19:30:00 35 C 24 % 11.42 C
2828 29-06-2019 19:35:00 34.8 C 24 % 11.25 C
2829 29-06-2019 19:40:00 34.8 C 25 % 11.87 C
2830 29-06-2019 19:45:00 34.7 C 25 % 11.78 C
2831 29-06-2019 19:50:00 34.5 C 25 % 11.61 C
2832 29-06-2019 19:55:00 34.2 C 25 % 11.36 C
2833 29-06-2019 20:00:00 33.8 C 30 % 13.8 C
2834 29-06-2019 20:05:00 33.7 C 30 % 13.71 C
2835 29-06-2019 20:10:00 33.7 C 31 % 14.22 C
2836 29-06-2019 20:15:00 33.6 C 32 % 14.62 C
2837 29-06-2019 20:20:00 33.4 C 32 % 14.45 C
2838 29-06-2019 20:25:00 33.1 C 39 % 17.28 C
2839 29-06-2019 20:30:00 32.6 C 35 % 15.15 C
2840 29-06-2019 20:35:00 31.9 C 35 % 14.53 C
2841 29-06-2019 20:40:00 31.4 C 36 % 14.53 C
2842 29-06-2019 20:45:00 31 C 35 % 13.75 C
2843 29-06-2019 20:50:00 30.6 C 36 % 13.83 C
2844 29-06-2019 20:55:00 30.3 C 38 % 14.4 C
2845 29-06-2019 21:00:00 29.9 C 38 % 14.04 C
2846 29-06-2019 21:05:00 29.5 C 38 % 13.69 C
2847 29-06-2019 21:10:00 29.1 C 38 % 13.34 C
2848 29-06-2019 21:15:00 28.7 C 39 % 13.38 C
2849 29-06-2019 21:20:00 28.2 C 40 % 13.32 C
2850 29-06-2019 21:25:00 27.7 C 40 % 12.88 C
Sensor: Nr:Datum:Temp:Feuchte:Taupunkt:
Aussen-T/F 2851 29-06-2019 21:30:00 27.3 C 41 % 12.9 C
2852 29-06-2019 21:35:00 26.8 C 41 % 12.45 C
2853 29-06-2019 21:40:00 26.4 C 41 % 12.09 C
2854 29-06-2019 21:45:00 26.2 C 41 % 11.91 C
2855 29-06-2019 21:50:00 25.9 C 42 % 12.01 C
2856 29-06-2019 21:55:00 25.6 C 42 % 11.74 C
2857 29-06-2019 22:00:00 25.3 C 43 % 11.83 C
2858 29-06-2019 22:05:00 25.1 C 42 % 11.29 C
2859 29-06-2019 22:10:00 24.8 C 43 % 11.38 C
2860 29-06-2019 22:15:00 24.7 C 44 % 11.63 C
2861 29-06-2019 22:20:00 24.4 C 43 % 11.02 C
2862 29-06-2019 22:25:00 24.3 C 44 % 11.27 C
2863 29-06-2019 22:30:00 24.1 C 44 % 11.09 C
2864 29-06-2019 22:35:00 24 C 46 % 11.67 C
2865 29-06-2019 22:40:00 23.8 C 47 % 11.82 C
2866 29-06-2019 22:45:00 23.7 C 48 % 12.04 C
2867 29-06-2019 22:50:00 23.4 C 50 % 12.39 C
2868 29-06-2019 22:55:00 23.1 C 51 % 12.42 C
2869 29-06-2019 23:00:00 22.7 C 52 % 12.34 C
2870 29-06-2019 23:05:00 22.4 C 54 % 12.64 C
2871 29-06-2019 23:10:00 22.1 C 54 % 12.36 C
2872 29-06-2019 23:15:00 21.8 C 55 % 12.36 C
2873 29-06-2019 23:20:00 21.6 C 57 % 12.72 C
2874 29-06-2019 23:25:00 21.3 C 57 % 12.44 C
2875 29-06-2019 23:30:00 21.1 C 59 % 12.78 C
Sensor: Nr:Datum:Temp:Feuchte:Taupunkt:
Aussen-T/F 2876 29-06-2019 23:35:00 20.7 C 59 % 12.41 C
2877 29-06-2019 23:40:00 20.5 C 60 % 12.47 C
2878 29-06-2019 23:45:00 20.3 C 61 % 12.54 C
2879 29-06-2019 23:50:00 20.2 C 60 % 12.19 C
2880 29-06-2019 23:55:00 20.1 C 61 % 12.35 C
2881 30-06-2019 00:00:00 20 C 62 % 12.5 C
2882 30-06-2019 00:05:00 19.8 C 63 % 12.56 C
2883 30-06-2019 00:10:00 19.6 C 63 % 12.37 C
2884 30-06-2019 00:15:00 19.3 C 64 % 12.32 C
2885 30-06-2019 00:20:00 19.2 C 65 % 12.47 C
2886 30-06-2019 00:25:00 18.9 C 66 % 12.41 C
2887 30-06-2019 00:30:00 18.8 C 67 % 12.55 C
2888 30-06-2019 00:35:00 18.6 C 67 % 12.36 C
2889 30-06-2019 00:40:00 18.4 C 68 % 12.39 C
2890 30-06-2019 00:45:00 18.3 C 68 % 12.3 C
2891 30-06-2019 00:50:00 18.2 C 68 % 12.2 C
2892 30-06-2019 00:55:00 18.1 C 69 % 12.33 C
2893 30-06-2019 01:00:00 18 C 69 % 12.23 C
2894 30-06-2019 01:05:00 18 C 70 % 12.45 C
2895 30-06-2019 01:10:00 17.9 C 71 % 12.57 C
2896 30-06-2019 01:15:00 17.8 C 72 % 12.69 C
2897 30-06-2019 01:20:00 17.7 C 72 % 12.59 C
2898 30-06-2019 01:25:00 17.6 C 73 % 12.71 C
2899 30-06-2019 01:30:00 17.4 C 73 % 12.51 C
2900 30-06-2019 01:35:00 17.3 C 73 % 12.42 C
Sensor: Nr:Datum:Temp:Feuchte:Taupunkt:
Aussen-T/F 2901 30-06-2019 01:40:00 17.2 C 73 % 12.32 C
2902 30-06-2019 01:45:00 17.2 C 73 % 12.32 C
2903 30-06-2019 01:50:00 17.1 C 73 % 12.23 C
2904 30-06-2019 01:55:00 17.1 C 74 % 12.43 C
2905 30-06-2019 02:00:00 17 C 74 % 12.34 C
2906 30-06-2019 02:05:00 16.9 C 74 % 12.24 C
2907 30-06-2019 02:10:00 16.9 C 74 % 12.24 C
2908 30-06-2019 02:15:00 16.9 C 75 % 12.44 C
2909 30-06-2019 02:20:00 16.9 C 75 % 12.44 C
2910 30-06-2019 02:25:00 16.8 C 75 % 12.35 C
2911 30-06-2019 02:30:00 16.7 C 76 % 12.45 C
2912 30-06-2019 02:35:00 16.7 C 76 % 12.45 C
2913 30-06-2019 02:40:00 16.6 C 77 % 12.55 C
2914 30-06-2019 02:45:00 16.6 C 77 % 12.55 C
2915 30-06-2019 02:50:00 16.5 C 77 % 12.46 C
2916 30-06-2019 02:55:00 16.5 C 77 % 12.46 C
2917 30-06-2019 03:00:00 16.4 C 78 % 12.56 C
2918 30-06-2019 03:05:00 16.3 C 78 % 12.46 C
2919 30-06-2019 03:10:00 16.3 C 78 % 12.46 C
2920 30-06-2019 03:15:00 16.2 C 78 % 12.36 C
2921 30-06-2019 03:20:00 16.2 C 78 % 12.36 C
2922 30-06-2019 03:25:00 16.2 C 79 % 12.56 C
2923 30-06-2019 03:30:00 16.1 C 79 % 12.46 C
2924 30-06-2019 03:35:00 16.1 C 79 % 12.46 C
2925 30-06-2019 03:40:00 16 C 79 % 12.36 C
Sensor: Nr:Datum:Temp:Feuchte:Taupunkt:
Aussen-T/F 2926 30-06-2019 03:45:00 15.9 C 79 % 12.27 C
2927 30-06-2019 03:50:00 15.8 C 80 % 12.36 C
2928 30-06-2019 03:55:00 15.8 C 80 % 12.36 C
2929 30-06-2019 04:00:00 15.8 C 80 % 12.36 C
2930 30-06-2019 04:05:00 15.8 C 80 % 12.36 C
2931 30-06-2019 04:10:00 15.7 C 80 % 12.26 C
2932 30-06-2019 04:15:00 15.7 C 81 % 12.45 C
2933 30-06-2019 04:20:00 15.7 C 82 % 12.64 C
2934 30-06-2019 04:25:00 15.7 C 82 % 12.64 C
2935 30-06-2019 04:30:00 15.6 C 81 % 12.35 C
2936 30-06-2019 04:35:00 15.5 C 82 % 12.44 C
2937 30-06-2019 04:40:00 15.4 C 82 % 12.35 C
2938 30-06-2019 04:45:00 15.4 C 82 % 12.35 C
2939 30-06-2019 04:50:00 15.4 C 82 % 12.35 C
2940 30-06-2019 04:55:00 15.3 C 82 % 12.25 C
2941 30-06-2019 05:00:00 15.3 C 82 % 12.25 C
2942 30-06-2019 05:05:00 15.2 C 82 % 12.15 C
2943 30-06-2019 05:10:00 15.2 C 83 % 12.33 C
2944 30-06-2019 05:15:00 15.1 C 83 % 12.24 C
2945 30-06-2019 05:20:00 15.1 C 83 % 12.24 C
2946 30-06-2019 05:25:00 15.1 C 84 % 12.42 C
2947 30-06-2019 05:30:00 15.1 C 84 % 12.42 C
2948 30-06-2019 05:35:00 15 C 84 % 12.32 C
2949 30-06-2019 05:40:00 15 C 84 % 12.32 C
2950 30-06-2019 05:45:00 14.9 C 84 % 12.22 C
Sensor: Nr:Datum:Temp:Feuchte:Taupunkt:
Aussen-T/F 2951 30-06-2019 05:50:00 14.8 C 85 % 12.3 C
2952 30-06-2019 05:55:00 14.8 C 85 % 12.3 C
2953 30-06-2019 06:00:00 14.8 C 86 % 12.48 C
2954 30-06-2019 06:05:00 14.8 C 86 % 12.48 C
2955 30-06-2019 06:10:00 14.8 C 86 % 12.48 C
2956 30-06-2019 06:15:00 14.8 C 86 % 12.48 C
2957 30-06-2019 06:20:00 14.8 C 86 % 12.48 C
2958 30-06-2019 06:25:00 14.8 C 86 % 12.48 C
2959 30-06-2019 06:30:00 14.8 C 87 % 12.66 C
2960 30-06-2019 06:35:00 14.9 C 87 % 12.76 C
2961 30-06-2019 06:40:00 14.9 C 87 % 12.76 C
2962 30-06-2019 06:45:00 14.9 C 87 % 12.76 C
2963 30-06-2019 06:50:00 14.9 C 87 % 12.76 C
2964 30-06-2019 06:55:00 15 C 87 % 12.86 C
2965 30-06-2019 07:00:00 15 C 87 % 12.86 C
2966 30-06-2019 07:05:00 15.1 C 87 % 12.95 C
2967 30-06-2019 07:10:00 15.1 C 88 % 13.13 C
2968 30-06-2019 07:15:00 15.2 C 88 % 13.23 C
2969 30-06-2019 07:20:00 15.3 C 88 % 13.33 C
2970 30-06-2019 07:25:00 15.4 C 88 % 13.42 C
2971 30-06-2019 07:30:00 15.5 C 88 % 13.52 C
2972 30-06-2019 07:35:00 15.6 C 88 % 13.62 C
2973 30-06-2019 07:40:00 15.7 C 88 % 13.72 C
2974 30-06-2019 07:45:00 15.7 C 88 % 13.72 C
2975 30-06-2019 07:50:00 15.8 C 88 % 13.82 C
Sensor: Nr:Datum:Temp:Feuchte:Taupunkt:
Aussen-T/F 2976 30-06-2019 07:55:00 15.9 C 88 % 13.92 C
2977 30-06-2019 08:00:00 16.1 C 88 % 14.11 C
2978 30-06-2019 08:05:00 16.3 C 88 % 14.31 C
2979 30-06-2019 08:10:00 16.4 C 87 % 14.23 C
2980 30-06-2019 08:15:00 16.6 C 87 % 14.43 C
2981 30-06-2019 08:20:00 16.7 C 87 % 14.53 C
2982 30-06-2019 08:25:00 16.8 C 86 % 14.45 C
2983 30-06-2019 08:30:00 17.1 C 87 % 14.92 C
2984 30-06-2019 08:35:00 17.2 C 86 % 14.84 C
2985 30-06-2019 08:40:00 17.4 C 86 % 15.03 C
2986 30-06-2019 08:45:00 17.7 C 85 % 15.15 C
2987 30-06-2019 08:50:00 17.9 C 85 % 15.34 C
2988 30-06-2019 08:55:00 18.1 C 85 % 15.54 C
2989 30-06-2019 09:00:00 18.3 C 85 % 15.74 C
2990 30-06-2019 09:05:00 18.4 C 85 % 15.83 C
2991 30-06-2019 09:10:00 18.7 C 84 % 15.94 C
2992 30-06-2019 09:15:00 18.9 C 84 % 16.14 C
2993 30-06-2019 09:20:00 19.1 C 84 % 16.33 C
2994 30-06-2019 09:25:00 19.3 C 83 % 16.34 C
2995 30-06-2019 09:30:00 19.6 C 82 % 16.44 C
2996 30-06-2019 09:35:00 19.9 C 80 % 16.35 C
2997 30-06-2019 09:40:00 20.3 C 79 % 16.54 C
2998 30-06-2019 09:45:00 20.7 C 78 % 16.73 C
2999 30-06-2019 09:50:00 21.2 C 78 % 17.21 C
3000 30-06-2019 09:55:00 21.5 C 77 % 17.3 C
Sensor: Nr:Datum:Temp:Feuchte:Taupunkt:
Aussen-T/F 3001 30-06-2019 10:00:00 21.9 C 75 % 17.27 C
3002 30-06-2019 10:05:00 22.3 C 74 % 17.44 C
3003 30-06-2019 10:10:00 22.7 C 73 % 17.61 C
3004 30-06-2019 10:15:00 23.1 C 75 % 18.43 C
3005 30-06-2019 10:20:00 23.5 C 73 % 18.38 C
3006 30-06-2019 10:25:00 24.3 C 68 % 18.01 C
3007 30-06-2019 10:30:00 25.3 C 65 % 18.25 C
3008 30-06-2019 10:35:00 26.2 C 62 % 18.34 C
3009 30-06-2019 10:40:00 27.4 C 58 % 18.4 C
3010 30-06-2019 10:45:00 28.1 C 54 % 17.92 C
3011 30-06-2019 10:50:00 28.7 C 51 % 17.56 C
3012 30-06-2019 10:55:00 29.2 C 49 % 17.39 C
3013 30-06-2019 11:00:00 29.5 C 49 % 17.66 C
3014 30-06-2019 11:05:00 29.7 C 48 % 17.51 C
3015 30-06-2019 11:10:00 29.8 C 49 % 17.93 C
3016 30-06-2019 11:15:00 30.1 C 46 % 17.2 C
3017 30-06-2019 11:20:00 30.3 C 46 % 17.39 C
3018 30-06-2019 11:25:00 30.6 C 45 % 17.31 C
3019 30-06-2019 11:30:00 30.8 C 44 % 17.13 C
3020 30-06-2019 11:35:00 31 C 44 % 17.31 C
3021 30-06-2019 11:40:00 31.1 C 43 % 17.04 C
3022 30-06-2019 11:45:00 31.2 C 44 % 17.49 C
3023 30-06-2019 11:50:00 31.4 C 43 % 17.31 C
3024 30-06-2019 11:55:00 31.6 C 42 % 17.12 C
3025 30-06-2019 12:00:00 31.7 C 43 % 17.58 C
Sensor: Nr:Datum:Temp:Feuchte:Taupunkt:
Aussen-T/F 3026 30-06-2019 12:05:00 31.8 C 42 % 17.3 C
3027 30-06-2019 12:10:00 31.9 C 42 % 17.39 C
3028 30-06-2019 12:15:00 32.1 C 40 % 16.79 C
3029 30-06-2019 12:20:00 32.2 C 41 % 17.27 C
3030 30-06-2019 12:25:00 32.3 C 41 % 17.36 C
3031 30-06-2019 12:30:00 32.4 C 39 % 16.66 C
3032 30-06-2019 12:35:00 32.7 C 39 % 16.93 C
3033 30-06-2019 12:40:00 32.9 C 39 % 17.11 C
3034 30-06-2019 12:45:00 33.1 C 39 % 17.28 C
3035 30-06-2019 12:50:00 33.3 C 38 % 17.05 C
3036 30-06-2019 12:55:00 33.4 C 37 % 16.72 C
3037 30-06-2019 13:00:00 33.8 C 36 % 16.64 C
3038 30-06-2019 13:05:00 33.9 C 38 % 17.58 C
3039 30-06-2019 13:10:00 34 C 37 % 17.25 C
3040 30-06-2019 13:15:00 34.1 C 35 % 16.46 C
3041 30-06-2019 13:20:00 34.3 C 35 % 16.63 C
3042 30-06-2019 13:25:00 34.6 C 35 % 16.89 C
3043 30-06-2019 13:30:00 34.8 C 35 % 17.07 C
3044 30-06-2019 13:35:00 35 C 33 % 16.32 C
3045 30-06-2019 13:40:00 35.1 C 34 % 16.87 C
3046 30-06-2019 13:45:00 35.1 C 35 % 17.33 C
3047 30-06-2019 13:50:00 35.2 C 34 % 16.96 C
3048 30-06-2019 13:55:00 35.3 C 33 % 16.58 C
3049 30-06-2019 14:00:00 35.4 C 34 % 17.13 C
3050 30-06-2019 14:05:00 35.7 C 32 % 16.44 C
Sensor: Nr:Datum:Temp:Feuchte:Taupunkt:
Aussen-T/F 3051 30-06-2019 14:10:00 35.8 C 33 % 17.01 C
3052 30-06-2019 14:15:00 35.8 C 34 % 17.48 C
3053 30-06-2019 14:20:00 35.8 C 34 % 17.48 C
3054 30-06-2019 14:25:00 35.8 C 35 % 17.94 C
3055 30-06-2019 14:30:00 36 C 35 % 18.12 C
3056 30-06-2019 14:35:00 36.3 C 34 % 17.92 C
3057 30-06-2019 14:40:00 36.4 C 34 % 18 C
3058 30-06-2019 14:45:00 36.6 C 34 % 18.18 C
3059 30-06-2019 14:50:00 36.4 C 36 % 18.92 C
3060 30-06-2019 14:55:00 36.1 C 37 % 19.09 C
3061 30-06-2019 15:00:00 35.8 C 36 % 18.39 C
3062 30-06-2019 15:05:00 35.6 C 39 % 19.5 C
3063 30-06-2019 15:10:00 35.4 C 38 % 18.9 C
3064 30-06-2019 15:15:00 35.3 C 41 % 20.04 C
3065 30-06-2019 15:20:00 35.4 C 40 % 19.73 C
3066 30-06-2019 15:25:00 35.4 C 42 % 20.52 C
3067 30-06-2019 15:30:00 35.3 C 41 % 20.04 C
3068 30-06-2019 15:35:00 35.3 C 43 % 20.81 C
3069 30-06-2019 15:40:00 35.5 C 43 % 20.99 C
3070 30-06-2019 15:45:00 35.6 C 42 % 20.7 C
3071 30-06-2019 15:50:00 35.7 C 41 % 20.39 C
3072 30-06-2019 15:55:00 35.7 C 43 % 21.17 C
3073 30-06-2019 16:00:00 35.7 C 43 % 21.17 C
3074 30-06-2019 16:05:00 35.3 C 43 % 20.81 C
3075 30-06-2019 16:10:00 35.2 C 45 % 21.46 C
Sensor: Nr:Datum:Temp:Feuchte:Taupunkt:
Aussen-T/F 3076 30-06-2019 16:15:00 35.3 C 46 % 21.91 C
3077 30-06-2019 16:20:00 35.1 C 46 % 21.73 C
3078 30-06-2019 16:25:00 35 C 46 % 21.64 C
3079 30-06-2019 16:30:00 35.2 C 45 % 21.46 C
3080 30-06-2019 16:35:00 35.6 C 46 % 22.18 C
3081 30-06-2019 16:40:00 35.9 C 45 % 22.09 C
3082 30-06-2019 16:45:00 35.9 C 45 % 22.09 C
3083 30-06-2019 16:50:00 35.8 C 45 % 22 C
3084 30-06-2019 16:55:00 35.9 C 45 % 22.09 C
3085 30-06-2019 17:00:00 35.9 C 46 % 22.45 C
3086 30-06-2019 17:05:00 35.9 C 43 % 21.35 C
3087 30-06-2019 17:10:00 35.9 C 45 % 22.09 C
3088 30-06-2019 17:15:00 35.9 C 45 % 22.09 C
3089 30-06-2019 17:20:00 35.7 C 46 % 22.27 C
3090 30-06-2019 17:25:00 35.7 C 46 % 22.27 C
3091 30-06-2019 17:30:00 35.9 C 46 % 22.45 C
3092 30-06-2019 17:35:00 35.9 C 46 % 22.45 C
3093 30-06-2019 17:40:00 35.8 C 46 % 22.36 C
3094 30-06-2019 17:45:00 35.9 C 46 % 22.45 C
3095 30-06-2019 17:50:00 35.9 C 46 % 22.45 C
3096 30-06-2019 17:55:00 36.1 C 46 % 22.63 C
3097 30-06-2019 18:00:00 35.9 C 46 % 22.45 C
3098 30-06-2019 18:05:00 35.8 C 45 % 22 C
3099 30-06-2019 18:10:00 35.6 C 45 % 21.82 C
3100 30-06-2019 18:15:00 35.5 C 45 % 21.73 C
Sensor: Nr:Datum:Temp:Feuchte:Taupunkt:
Aussen-T/F 3101 30-06-2019 18:20:00 35.3 C 45 % 21.55 C
3102 30-06-2019 18:25:00 35.1 C 47 % 22.08 C
3103 30-06-2019 18:30:00 34.8 C 47 % 21.81 C
3104 30-06-2019 18:35:00 34.7 C 47 % 21.72 C
3105 30-06-2019 18:40:00 34.4 C 48 % 21.79 C
3106 30-06-2019 18:45:00 34.3 C 47 % 21.36 C
3107 30-06-2019 18:50:00 34.2 C 47 % 21.27 C
3108 30-06-2019 18:55:00 34.1 C 47 % 21.18 C
3109 30-06-2019 19:00:00 33.9 C 48 % 21.34 C
3110 30-06-2019 19:05:00 33.9 C 48 % 21.34 C
3111 30-06-2019 19:10:00 33.7 C 48 % 21.16 C
3112 30-06-2019 19:15:00 33.4 C 48 % 20.88 C
3113 30-06-2019 19:20:00 32.9 C 50 % 21.09 C
3114 30-06-2019 19:25:00 32.4 C 51 % 20.96 C
3115 30-06-2019 19:30:00 32.4 C 53 % 21.58 C
3116 30-06-2019 19:35:00 32.4 C 51 % 20.96 C
3117 30-06-2019 19:40:00 32.3 C 52 % 21.18 C
3118 30-06-2019 19:45:00 31.9 C 52 % 20.81 C
3119 30-06-2019 19:50:00 31.6 C 53 % 20.85 C
3120 30-06-2019 19:55:00 31.1 C 54 % 20.69 C
3121 30-06-2019 20:00:00 30.8 C 55 % 20.71 C
3122 30-06-2019 20:05:00 30.5 C 56 % 20.72 C
3123 30-06-2019 20:10:00 30.3 C 57 % 20.83 C
3124 30-06-2019 20:15:00 30 C 58 % 20.83 C
3125 30-06-2019 20:20:00 29.6 C 59 % 20.73 C
Sensor: Nr:Datum:Temp:Feuchte:Taupunkt:
Aussen-T/F 3126 30-06-2019 20:25:00 29.3 C 59 % 20.45 C
3127 30-06-2019 20:30:00 29.1 C 61 % 20.81 C
3128 30-06-2019 20:35:00 28.9 C 60 % 20.35 C
3129 30-06-2019 20:40:00 28.7 C 60 % 20.16 C
3130 30-06-2019 20:45:00 28.6 C 60 % 20.07 C
3131 30-06-2019 20:50:00 28.3 C 60 % 19.79 C
3132 30-06-2019 20:55:00 28.1 C 61 % 19.87 C
3133 30-06-2019 21:00:00 27.9 C 61 % 19.68 C
3134 30-06-2019 21:05:00 27.7 C 61 % 19.49 C
3135 30-06-2019 21:10:00 27.5 C 62 % 19.57 C
3136 30-06-2019 21:15:00 27.4 C 62 % 19.47 C
3137 30-06-2019 21:20:00 27.3 C 62 % 19.38 C
3138 30-06-2019 21:25:00 27.2 C 62 % 19.28 C
3139 30-06-2019 21:30:00 27.1 C 62 % 19.19 C
3140 30-06-2019 21:35:00 27 C 63 % 19.35 C
3141 30-06-2019 21:40:00 26.9 C 63 % 19.26 C
3142 30-06-2019 21:45:00 26.8 C 64 % 19.42 C
3143 30-06-2019 21:50:00 26.7 C 64 % 19.32 C
3144 30-06-2019 21:55:00 26.7 C 64 % 19.32 C
3145 30-06-2019 22:00:00 26.7 C 64 % 19.32 C
3146 30-06-2019 22:05:00 26.6 C 64 % 19.23 C
3147 30-06-2019 22:10:00 26.6 C 64 % 19.23 C
3148 30-06-2019 22:15:00 26.5 C 63 % 18.88 C
3149 30-06-2019 22:20:00 26.4 C 64 % 19.04 C
3150 30-06-2019 22:25:00 26.3 C 64 % 18.94 C
Sensor: Nr:Datum:Temp:Feuchte:Taupunkt:
Aussen-T/F 3151 30-06-2019 22:30:00 26.3 C 63 % 18.69 C
3152 30-06-2019 22:35:00 26.2 C 63 % 18.6 C
3153 30-06-2019 22:40:00 26.1 C 64 % 18.76 C
3154 30-06-2019 22:45:00 25.9 C 63 % 18.31 C
3155 30-06-2019 22:50:00 25.8 C 64 % 18.47 C
3156 30-06-2019 22:55:00 25.7 C 64 % 18.38 C
3157 30-06-2019 23:00:00 25.6 C 65 % 18.53 C
3158 30-06-2019 23:05:00 25.4 C 64 % 18.09 C
3159 30-06-2019 23:10:00 25.3 C 64 % 18 C
3160 30-06-2019 23:15:00 25.2 C 65 % 18.15 C
3161 30-06-2019 23:20:00 25 C 65 % 17.96 C
3162 30-06-2019 23:25:00 24.8 C 66 % 18.01 C
3163 30-06-2019 23:30:00 24.5 C 68 % 18.2 C
3164 30-06-2019 23:35:00 24.2 C 68 % 17.92 C
3165 30-06-2019 23:40:00 23.9 C 69 % 17.87 C
3166 30-06-2019 23:45:00 23.8 C 69 % 17.77 C
3167 30-06-2019 23:50:00 23.6 C 70 % 17.81 C
3168 30-06-2019 23:55:00 23.4 C 71 % 17.84 C
3169 01-07-2019 00:00:00 23.3 C 71 % 17.75 C
3170 01-07-2019 00:05:00 23.2 C 71 % 17.65 C
3171 01-07-2019 00:10:00 23.1 C 72 % 17.78 C
3172 01-07-2019 00:15:00 22.9 C 73 % 17.8 C
3173 01-07-2019 00:20:00 22.8 C 73 % 17.71 C
3174 01-07-2019 00:25:00 22.7 C 73 % 17.61 C
3175 01-07-2019 00:30:00 22.6 C 74 % 17.73 C
Sensor: Nr:Datum:Temp:Feuchte:Taupunkt:
Aussen-T/F 3176 01-07-2019 00:35:00 22.4 C 74 % 17.54 C
3177 01-07-2019 00:40:00 22.4 C 74 % 17.54 C
3178 01-07-2019 00:45:00 22.3 C 74 % 17.44 C
3179 01-07-2019 00:50:00 22.3 C 74 % 17.44 C
3180 01-07-2019 00:55:00 22.2 C 74 % 17.34 C
3181 01-07-2019 01:00:00 22.2 C 74 % 17.34 C
3182 01-07-2019 01:05:00 22.2 C 74 % 17.34 C
3183 01-07-2019 01:10:00 22.2 C 74 % 17.34 C
3184 01-07-2019 01:15:00 22.2 C 74 % 17.34 C
3185 01-07-2019 01:20:00 22.2 C 75 % 17.56 C
3186 01-07-2019 01:25:00 22.1 C 75 % 17.46 C
3187 01-07-2019 01:30:00 22.1 C 74 % 17.25 C
3188 01-07-2019 01:35:00 22.3 C 73 % 17.23 C
3189 01-07-2019 01:40:00 22.6 C 72 % 17.3 C
3190 01-07-2019 01:45:00 22.7 C 71 % 17.17 C
3191 01-07-2019 01:50:00 22.8 C 70 % 17.04 C
3192 01-07-2019 01:55:00 22.8 C 71 % 17.27 C
3193 01-07-2019 02:00:00 22.7 C 71 % 17.17 C
3194 01-07-2019 02:05:00 22.4 C 72 % 17.1 C
3195 01-07-2019 02:10:00 22.2 C 72 % 16.91 C
3196 01-07-2019 02:15:00 22 C 73 % 16.94 C
3197 01-07-2019 02:20:00 21.8 C 74 % 16.96 C
3198 01-07-2019 02:25:00 21.6 C 74 % 16.77 C
3199 01-07-2019 02:30:00 21.4 C 75 % 16.79 C
3200 01-07-2019 02:35:00 21.3 C 75 % 16.69 C
Sensor: Nr:Datum:Temp:Feuchte:Taupunkt:
Aussen-T/F 3201 01-07-2019 02:40:00 21.2 C 75 % 16.59 C
3202 01-07-2019 02:45:00 21.1 C 76 % 16.7 C
3203 01-07-2019 02:50:00 21 C 75 % 16.4 C
3204 01-07-2019 02:55:00 20.9 C 75 % 16.3 C
3205 01-07-2019 03:00:00 20.9 C 74 % 16.09 C
3206 01-07-2019 03:05:00 20.9 C 75 % 16.3 C
3207 01-07-2019 03:10:00 20.9 C 75 % 16.3 C
3208 01-07-2019 03:15:00 20.8 C 73 % 15.78 C
3209 01-07-2019 03:20:00 20.8 C 73 % 15.78 C
3210 01-07-2019 03:25:00 20.9 C 72 % 15.66 C
3211 01-07-2019 03:30:00 21.1 C 71 % 15.64 C
3212 01-07-2019 03:35:00 21.2 C 70 % 15.51 C
3213 01-07-2019 03:40:00 21.2 C 70 % 15.51 C
3214 01-07-2019 03:45:00 21.1 C 70 % 15.42 C
3215 01-07-2019 03:50:00 21.1 C 71 % 15.64 C
3216 01-07-2019 03:55:00 20.9 C 71 % 15.45 C
3217 01-07-2019 04:00:00 20.9 C 70 % 15.23 C
3218 01-07-2019 04:05:00 20.8 C 70 % 15.13 C
3219 01-07-2019 04:10:00 20.8 C 70 % 15.13 C
3220 01-07-2019 04:15:00 20.7 C 71 % 15.25 C
3221 01-07-2019 04:20:00 20.6 C 71 % 15.16 C
3222 01-07-2019 04:25:00 20.3 C 72 % 15.09 C
3223 01-07-2019 04:30:00 20.2 C 73 % 15.21 C
3224 01-07-2019 04:35:00 20 C 72 % 14.8 C
3225 01-07-2019 04:40:00 20 C 73 % 15.01 C
Sensor: Nr:Datum:Temp:Feuchte:Taupunkt:
Aussen-T/F 3226 01-07-2019 04:45:00 19.9 C 72 % 14.7 C
3227 01-07-2019 04:50:00 20 C 73 % 15.01 C
3228 01-07-2019 04:55:00 19.9 C 74 % 15.13 C
3229 01-07-2019 05:00:00 19.9 C 74 % 15.13 C
3230 01-07-2019 05:05:00 19.8 C 74 % 15.03 C
3231 01-07-2019 05:10:00 19.8 C 73 % 14.82 C
3232 01-07-2019 05:15:00 19.8 C 73 % 14.82 C
3233 01-07-2019 05:20:00 19.8 C 73 % 14.82 C
3234 01-07-2019 05:25:00 19.8 C 73 % 14.82 C
3235 01-07-2019 05:30:00 19.7 C 73 % 14.73 C
3236 01-07-2019 05:35:00 19.6 C 73 % 14.63 C
3237 01-07-2019 05:40:00 19.5 C 73 % 14.53 C
3238 01-07-2019 05:45:00 19.4 C 73 % 14.44 C
3239 01-07-2019 05:50:00 19.4 C 73 % 14.44 C
3240 01-07-2019 05:55:00 19.4 C 72 % 14.22 C
3241 01-07-2019 06:00:00 19.5 C 72 % 14.32 C
3242 01-07-2019 06:05:00 19.6 C 71 % 14.2 C
3243 01-07-2019 06:10:00 19.6 C 72 % 14.42 C
3244 01-07-2019 06:15:00 19.6 C 72 % 14.42 C
3245 01-07-2019 06:20:00 19.6 C 72 % 14.42 C
3246 01-07-2019 06:25:00 19.6 C 70 % 13.98 C
3247 01-07-2019 06:30:00 19.7 C 71 % 14.3 C
3248 01-07-2019 06:35:00 19.7 C 72 % 14.51 C
3249 01-07-2019 06:40:00 19.8 C 70 % 14.17 C
3250 01-07-2019 06:45:00 19.8 C 70 % 14.17 C
Sensor: Nr:Datum:Temp:Feuchte:Taupunkt:
Aussen-T/F 3251 01-07-2019 06:50:00 19.8 C 69 % 13.95 C
3252 01-07-2019 06:55:00 19.9 C 70 % 14.27 C
3253 01-07-2019 07:00:00 19.8 C 68 % 13.73 C
3254 01-07-2019 07:05:00 19.8 C 69 % 13.95 C
3255 01-07-2019 07:10:00 19.8 C 70 % 14.17 C
3256 01-07-2019 07:15:00 19.8 C 70 % 14.17 C
3257 01-07-2019 07:20:00 19.8 C 71 % 14.39 C
3258 01-07-2019 07:25:00 19.7 C 72 % 14.51 C
3259 01-07-2019 07:30:00 19.7 C 73 % 14.73 C
3260 01-07-2019 07:35:00 19.6 C 71 % 14.2 C
3261 01-07-2019 07:40:00 19.6 C 72 % 14.42 C
3262 01-07-2019 07:45:00 19.5 C 71 % 14.1 C
3263 01-07-2019 07:50:00 19.5 C 72 % 14.32 C
3264 01-07-2019 07:55:00 19.5 C 72 % 14.32 C
3265 01-07-2019 08:00:00 19.4 C 72 % 14.22 C
3266 01-07-2019 08:05:00 19.4 C 72 % 14.22 C
3267 01-07-2019 08:10:00 19.4 C 72 % 14.22 C
3268 01-07-2019 08:15:00 19.6 C 71 % 14.2 C
3269 01-07-2019 08:20:00 19.6 C 70 % 13.98 C
3270 01-07-2019 08:25:00 19.7 C 72 % 14.51 C
3271 01-07-2019 08:30:00 19.8 C 71 % 14.39 C
3272 01-07-2019 08:35:00 19.9 C 70 % 14.27 C
3273 01-07-2019 08:40:00 20 C 70 % 14.36 C
3274 01-07-2019 08:45:00 20.2 C 70 % 14.56 C
3275 01-07-2019 08:50:00 20.2 C 68 % 14.11 C
Sensor: Nr:Datum:Temp:Feuchte:Taupunkt:
Aussen-T/F 3276 01-07-2019 08:55:00 20.3 C 70 % 14.65 C
3277 01-07-2019 09:00:00 20.3 C 69 % 14.43 C
3278 01-07-2019 09:05:00 20.3 C 68 % 14.2 C
3279 01-07-2019 09:10:00 20.3 C 67 % 13.97 C
3280 01-07-2019 09:15:00 20.3 C 68 % 14.2 C
3281 01-07-2019 09:20:00 20.3 C 69 % 14.43 C
3282 01-07-2019 09:25:00 20.2 C 70 % 14.56 C
3283 01-07-2019 09:30:00 20.2 C 70 % 14.56 C
3284 01-07-2019 09:35:00 20.1 C 70 % 14.46 C
3285 01-07-2019 09:40:00 20.1 C 70 % 14.46 C
3286 01-07-2019 09:45:00 20.2 C 70 % 14.56 C
3287 01-07-2019 09:50:00 20.2 C 70 % 14.56 C
3288 01-07-2019 09:55:00 20.4 C 70 % 14.75 C
3289 01-07-2019 10:00:00 20.6 C 70 % 14.94 C
3290 01-07-2019 10:05:00 20.8 C 68 % 14.68 C
3291 01-07-2019 10:10:00 20.8 C 68 % 14.68 C
3292 01-07-2019 10:15:00 20.9 C 68 % 14.77 C
3293 01-07-2019 10:20:00 21.2 C 69 % 15.29 C
3294 01-07-2019 10:25:00 21.4 C 68 % 15.25 C
3295 01-07-2019 10:30:00 21.6 C 67 % 15.21 C
3296 01-07-2019 10:35:00 21.5 C 67 % 15.12 C
3297 01-07-2019 10:40:00 21.4 C 72 % 16.14 C
3298 01-07-2019 10:45:00 21.4 C 71 % 15.93 C
3299 01-07-2019 10:50:00 21.5 C 69 % 15.57 C
3300 01-07-2019 10:55:00 21.4 C 69 % 15.48 C
Sensor: Nr:Datum:Temp:Feuchte:Taupunkt:
Aussen-T/F 3301 01-07-2019 11:00:00 21.4 C 69 % 15.48 C
3302 01-07-2019 11:05:00 21.4 C 69 % 15.48 C
3303 01-07-2019 11:10:00 21.4 C 70 % 15.7 C
3304 01-07-2019 11:15:00 21.4 C 70 % 15.7 C
3305 01-07-2019 11:20:00 21.6 C 70 % 15.89 C
3306 01-07-2019 11:25:00 21.6 C 70 % 15.89 C
3307 01-07-2019 11:30:00 21.7 C 71 % 16.21 C
3308 01-07-2019 11:35:00 21.9 C 70 % 16.18 C
3309 01-07-2019 11:40:00 22.1 C 70 % 16.37 C
3310 01-07-2019 11:45:00 22.2 C 69 % 16.24 C
3311 01-07-2019 11:50:00 22.3 C 67 % 15.88 C
3312 01-07-2019 11:55:00 22.4 C 66 % 15.74 C
3313 01-07-2019 12:00:00 22.4 C 66 % 15.74 C
3314 01-07-2019 12:05:00 22.5 C 65 % 15.59 C
3315 01-07-2019 12:10:00 22.6 C 65 % 15.69 C
3316 01-07-2019 12:15:00 22.7 C 66 % 16.02 C
3317 01-07-2019 12:20:00 22.8 C 65 % 15.88 C
3318 01-07-2019 12:25:00 23 C 65 % 16.07 C
3319 01-07-2019 12:30:00 23.2 C 66 % 16.5 C
3320 01-07-2019 12:35:00 23.4 C 63 % 15.96 C
3321 01-07-2019 12:40:00 23.5 C 63 % 16.05 C
3322 01-07-2019 12:45:00 23.7 C 62 % 15.99 C
3323 01-07-2019 12:50:00 23.9 C 54 % 14.03 C
3324 01-07-2019 12:55:00 24.3 C 53 % 14.11 C
3325 01-07-2019 13:00:00 24.7 C 49 % 13.27 C
Sensor: Nr:Datum:Temp:Feuchte:Taupunkt:
Aussen-T/F 3326 01-07-2019 13:05:00 24.8 C 47 % 12.73 C
3327 01-07-2019 13:10:00 25.1 C 47 % 13 C
3328 01-07-2019 13:15:00 25 C 50 % 13.86 C
3329 01-07-2019 13:20:00 24.8 C 52 % 14.28 C
3330 01-07-2019 13:25:00 24.8 C 53 % 14.57 C
3331 01-07-2019 13:30:00 24.8 C 53 % 14.57 C
3332 01-07-2019 13:35:00 24.9 C 52 % 14.37 C
3333 01-07-2019 13:40:00 25 C 52 % 14.46 C
3334 01-07-2019 13:45:00 25 C 52 % 14.46 C
3335 01-07-2019 13:50:00 24.9 C 51 % 14.07 C
3336 01-07-2019 13:55:00 24.9 C 53 % 14.66 C
3337 01-07-2019 14:00:00 25.2 C 52 % 14.65 C
3338 01-07-2019 14:05:00 25.2 C 53 % 14.94 C
3339 01-07-2019 14:10:00 25.2 C 53 % 14.94 C
3340 01-07-2019 14:15:00 25.2 C 51 % 14.35 C
3341 01-07-2019 14:20:00 25.2 C 51 % 14.35 C
3342 01-07-2019 14:25:00 25.4 C 51 % 14.53 C
3343 01-07-2019 14:30:00 25.7 C 51 % 14.81 C
3344 01-07-2019 14:35:00 25.7 C 50 % 14.5 C
3345 01-07-2019 14:40:00 25.8 C 50 % 14.59 C
3346 01-07-2019 14:45:00 25.8 C 51 % 14.9 C
3347 01-07-2019 14:50:00 26 C 52 % 15.38 C
3348 01-07-2019 14:55:00 26.3 C 49 % 14.74 C
3349 01-07-2019 15:00:00 26.3 C 51 % 15.36 C
3350 01-07-2019 15:05:00 26.6 C 50 % 15.32 C
Sensor: Nr:Datum:Temp:Feuchte:Taupunkt:
Aussen-T/F 3351 01-07-2019 15:10:00 26.9 C 48 % 14.96 C
3352 01-07-2019 15:15:00 26.9 C 46 % 14.3 C
3353 01-07-2019 15:20:00 26.8 C 48 % 14.87 C
3354 01-07-2019 15:25:00 26.8 C 47 % 14.55 C
3355 01-07-2019 15:30:00 26.8 C 47 % 14.55 C
3356 01-07-2019 15:35:00 27 C 46 % 14.39 C
3357 01-07-2019 15:40:00 26.9 C 45 % 13.96 C
3358 01-07-2019 15:45:00 26.8 C 46 % 14.21 C
3359 01-07-2019 15:50:00 26.3 C 46 % 13.76 C
3360 01-07-2019 15:55:00 26 C 46 % 13.49 C
3361 01-07-2019 16:00:00 25.8 C 48 % 13.96 C
3362 01-07-2019 16:05:00 25.8 C 48 % 13.96 C
3363 01-07-2019 16:10:00 26.1 C 47 % 13.91 C
3364 01-07-2019 16:15:00 26.5 C 46 % 13.94 C
3365 01-07-2019 16:20:00 26.8 C 45 % 13.87 C
3366 01-07-2019 16:25:00 27.1 C 44 % 13.8 C
3367 01-07-2019 16:30:00 27.2 C 43 % 13.54 C
3368 01-07-2019 16:35:00 27.3 C 43 % 13.63 C
3369 01-07-2019 16:40:00 27.7 C 43 % 13.99 C
3370 01-07-2019 16:45:00 27.7 C 41 % 13.25 C
3371 01-07-2019 16:50:00 27.5 C 41 % 13.08 C
3372 01-07-2019 16:55:00 27.2 C 43 % 13.54 C
3373 01-07-2019 17:00:00 27.2 C 42 % 13.18 C
3374 01-07-2019 17:05:00 27.1 C 42 % 13.09 C
3375 01-07-2019 17:10:00 27.2 C 42 % 13.18 C
Sensor: Nr:Datum:Temp:Feuchte:Taupunkt:
Aussen-T/F 3376 01-07-2019 17:15:00 27.3 C 43 % 13.63 C
3377 01-07-2019 17:20:00 27.6 C 41 % 13.16 C
3378 01-07-2019 17:25:00 27.3 C 40 % 12.52 C
3379 01-07-2019 17:30:00 27.1 C 42 % 13.09 C
3380 01-07-2019 17:35:00 27.1 C 43 % 13.45 C
3381 01-07-2019 17:40:00 27 C 42 % 13 C
3382 01-07-2019 17:45:00 26.7 C 42 % 12.73 C
3383 01-07-2019 17:50:00 26.5 C 43 % 12.91 C
3384 01-07-2019 17:55:00 26.4 C 43 % 12.82 C
3385 01-07-2019 18:00:00 26 C 44 % 12.81 C
3386 01-07-2019 18:05:00 25.9 C 45 % 13.06 C
3387 01-07-2019 18:10:00 26.2 C 45 % 13.33 C
3388 01-07-2019 18:15:00 26.1 C 45 % 13.24 C
3389 01-07-2019 18:20:00 26.2 C 45 % 13.33 C
3390 01-07-2019 18:25:00 26.4 C 44 % 13.17 C
3391 01-07-2019 18:30:00 26.4 C 44 % 13.17 C
3392 01-07-2019 18:35:00 26.4 C 44 % 13.17 C
3393 01-07-2019 18:40:00 26.6 C 44 % 13.35 C
3394 01-07-2019 18:45:00 26.5 C 42 % 12.55 C
3395 01-07-2019 18:50:00 26.4 C 43 % 12.82 C
3396 01-07-2019 18:55:00 26.5 C 43 % 12.91 C
3397 01-07-2019 19:00:00 26.6 C 42 % 12.64 C
3398 01-07-2019 19:05:00 26.6 C 42 % 12.64 C
3399 01-07-2019 19:10:00 26.4 C 41 % 12.09 C
3400 01-07-2019 19:15:00 26.3 C 42 % 12.37 C
Sensor: Nr:Datum:Temp:Feuchte:Taupunkt:
Aussen-T/F 3401 01-07-2019 19:20:00 26.2 C 42 % 12.28 C
3402 01-07-2019 19:25:00 26 C 43 % 12.46 C
3403 01-07-2019 19:30:00 25.8 C 43 % 12.28 C
3404 01-07-2019 19:35:00 25.8 C 43 % 12.28 C
3405 01-07-2019 19:40:00 25.7 C 43 % 12.19 C
3406 01-07-2019 19:45:00 25.6 C 44 % 12.45 C
3407 01-07-2019 19:50:00 25.4 C 44 % 12.27 C
3408 01-07-2019 19:55:00 25.2 C 44 % 12.09 C
3409 01-07-2019 20:00:00 25.1 C 45 % 12.34 C
3410 01-07-2019 20:05:00 25 C 44 % 11.9 C
3411 01-07-2019 20:10:00 24.9 C 45 % 12.16 C
3412 01-07-2019 20:15:00 24.9 C 45 % 12.16 C
3413 01-07-2019 20:20:00 24.8 C 46 % 12.4 C
3414 01-07-2019 20:25:00 24.8 C 46 % 12.4 C
3415 01-07-2019 20:30:00 24.7 C 46 % 12.31 C
3416 01-07-2019 20:35:00 24.6 C 47 % 12.54 C
3417 01-07-2019 20:40:00 24.4 C 48 % 12.68 C
3418 01-07-2019 20:45:00 24.1 C 49 % 12.72 C
3419 01-07-2019 20:50:00 23.7 C 50 % 12.67 C
3420 01-07-2019 20:55:00 23.4 C 49 % 12.08 C
3421 01-07-2019 21:00:00 23.3 C 48 % 11.68 C
3422 01-07-2019 21:05:00 23.2 C 49 % 11.9 C
3423 01-07-2019 21:10:00 23.1 C 50 % 12.11 C
3424 01-07-2019 21:15:00 23 C 50 % 12.02 C
3425 01-07-2019 21:20:00 22.8 C 50 % 11.84 C
Sensor: Nr:Datum:Temp:Feuchte:Taupunkt:
Aussen-T/F 3426 01-07-2019 21:25:00 22.6 C 51 % 11.96 C
3427 01-07-2019 21:30:00 22.5 C 53 % 12.45 C
3428 01-07-2019 21:35:00 22.2 C 52 % 11.88 C
3429 01-07-2019 21:40:00 22.1 C 52 % 11.79 C
3430 01-07-2019 21:45:00 22.1 C 53 % 12.08 C
3431 01-07-2019 21:50:00 22 C 53 % 11.99 C
3432 01-07-2019 21:55:00 21.8 C 53 % 11.8 C
3433 01-07-2019 22:00:00 21.7 C 54 % 11.99 C
3434 01-07-2019 22:05:00 21.6 C 55 % 12.18 C
3435 01-07-2019 22:10:00 21.3 C 55 % 11.9 C
3436 01-07-2019 22:15:00 21.3 C 56 % 12.17 C
3437 01-07-2019 22:20:00 21.2 C 55 % 11.81 C
3438 01-07-2019 22:25:00 21.1 C 57 % 12.25 C
3439 01-07-2019 22:30:00 20.8 C 57 % 11.97 C
3440 01-07-2019 22:35:00 20.6 C 59 % 12.31 C
3441 01-07-2019 22:40:00 20.3 C 59 % 12.03 C
3442 01-07-2019 22:45:00 20.1 C 60 % 12.1 C
3443 01-07-2019 22:50:00 20 C 60 % 12 C
3444 01-07-2019 22:55:00 19.9 C 60 % 11.91 C
3445 01-07-2019 23:00:00 19.9 C 60 % 11.91 C
3446 01-07-2019 23:05:00 19.9 C 60 % 11.91 C
3447 01-07-2019 23:10:00 20.1 C 60 % 12.1 C
3448 01-07-2019 23:15:00 20.1 C 60 % 12.1 C
3449 01-07-2019 23:20:00 20.1 C 59 % 11.84 C
3450 01-07-2019 23:25:00 20.2 C 59 % 11.94 C
Sensor: Nr:Datum:Temp:Feuchte:Taupunkt:
Aussen-T/F 3451 01-07-2019 23:30:00 20.2 C 59 % 11.94 C
3452 01-07-2019 23:35:00 20.1 C 59 % 11.84 C
3453 01-07-2019 23:40:00 20.1 C 59 % 11.84 C
3454 01-07-2019 23:45:00 20 C 59 % 11.75 C
3455 01-07-2019 23:50:00 19.9 C 59 % 11.66 C
3456 01-07-2019 23:55:00 19.8 C 60 % 11.82 C
3457 02-07-2019 00:00:00 19.8 C 59 % 11.56 C
3458 02-07-2019 00:05:00 19.7 C 60 % 11.72 C
3459 02-07-2019 00:10:00 19.5 C 60 % 11.53 C
3460 02-07-2019 00:15:00 19.4 C 61 % 11.69 C
3461 02-07-2019 00:20:00 19.2 C 62 % 11.75 C
3462 02-07-2019 00:25:00 18.9 C 62 % 11.47 C
3463 02-07-2019 00:30:00 18.7 C 64 % 11.76 C
3464 02-07-2019 00:35:00 18.6 C 64 % 11.66 C
3465 02-07-2019 00:40:00 18.4 C 65 % 11.71 C
3466 02-07-2019 00:45:00 18.3 C 66 % 11.84 C
3467 02-07-2019 00:50:00 18.1 C 67 % 11.88 C
3468 02-07-2019 00:55:00 17.7 C 68 % 11.72 C
3469 02-07-2019 01:00:00 17.4 C 68 % 11.44 C
3470 02-07-2019 01:05:00 17.3 C 69 % 11.56 C
3471 02-07-2019 01:10:00 17.3 C 68 % 11.34 C
3472 02-07-2019 01:15:00 17.3 C 69 % 11.56 C
3473 02-07-2019 01:20:00 17.2 C 69 % 11.47 C
3474 02-07-2019 01:25:00 17 C 70 % 11.49 C
3475 02-07-2019 01:30:00 16.9 C 70 % 11.4 C
Sensor: Nr:Datum:Temp:Feuchte:Taupunkt:
Aussen-T/F 3476 02-07-2019 01:35:00 16.7 C 71 % 11.42 C
3477 02-07-2019 01:40:00 16.6 C 72 % 11.54 C
3478 02-07-2019 01:45:00 16.5 C 72 % 11.44 C
3479 02-07-2019 01:50:00 16.3 C 73 % 11.46 C
3480 02-07-2019 01:55:00 16.2 C 73 % 11.36 C
3481 02-07-2019 02:00:00 16.1 C 74 % 11.47 C
3482 02-07-2019 02:05:00 16 C 74 % 11.37 C
3483 02-07-2019 02:10:00 16.1 C 74 % 11.47 C
3484 02-07-2019 02:15:00 16 C 74 % 11.37 C
3485 02-07-2019 02:20:00 15.9 C 74 % 11.28 C
3486 02-07-2019 02:25:00 15.9 C 74 % 11.28 C
3487 02-07-2019 02:30:00 15.9 C 74 % 11.28 C
3488 02-07-2019 02:35:00 15.8 C 74 % 11.18 C
3489 02-07-2019 02:40:00 15.7 C 75 % 11.28 C
3490 02-07-2019 02:45:00 15.7 C 75 % 11.28 C
3491 02-07-2019 02:50:00 15.6 C 75 % 11.19 C
3492 02-07-2019 02:55:00 15.5 C 75 % 11.09 C
3493 02-07-2019 03:00:00 15.4 C 76 % 11.19 C
3494 02-07-2019 03:05:00 15.3 C 76 % 11.1 C
3495 02-07-2019 03:10:00 15.2 C 76 % 11 C
3496 02-07-2019 03:15:00 15.2 C 76 % 11 C
3497 02-07-2019 03:20:00 15.3 C 76 % 11.1 C
3498 02-07-2019 03:25:00 15.5 C 75 % 11.09 C
3499 02-07-2019 03:30:00 15.7 C 75 % 11.28 C
3500 02-07-2019 03:35:00 15.8 C 74 % 11.18 C
Sensor: Nr:Datum:Temp:Feuchte:Taupunkt:
Aussen-T/F 3501 02-07-2019 03:40:00 15.8 C 74 % 11.18 C
3502 02-07-2019 03:45:00 15.7 C 74 % 11.08 C
3503 02-07-2019 03:50:00 15.6 C 75 % 11.19 C
3504 02-07-2019 03:55:00 15.4 C 76 % 11.19 C
3505 02-07-2019 04:00:00 15.3 C 76 % 11.1 C
3506 02-07-2019 04:05:00 15.2 C 77 % 11.2 C
3507 02-07-2019 04:10:00 15 C 77 % 11 C
3508 02-07-2019 04:15:00 14.9 C 77 % 10.91 C
3509 02-07-2019 04:20:00 14.8 C 78 % 11 C
3510 02-07-2019 04:25:00 14.6 C 78 % 10.81 C
3511 02-07-2019 04:30:00 14.4 C 79 % 10.81 C
3512 02-07-2019 04:35:00 14.3 C 79 % 10.71 C
3513 02-07-2019 04:40:00 14.1 C 80 % 10.71 C
3514 02-07-2019 04:45:00 14 C 81 % 10.79 C
3515 02-07-2019 04:50:00 13.9 C 82 % 10.88 C
3516 02-07-2019 04:55:00 13.8 C 82 % 10.78 C
3517 02-07-2019 05:00:00 13.7 C 82 % 10.69 C
3518 02-07-2019 05:05:00 13.7 C 83 % 10.87 C
3519 02-07-2019 05:10:00 13.6 C 83 % 10.77 C
3520 02-07-2019 05:15:00 13.6 C 82 % 10.59 C
3521 02-07-2019 05:20:00 13.5 C 83 % 10.67 C
3522 02-07-2019 05:25:00 13.4 C 83 % 10.57 C
3523 02-07-2019 05:30:00 13.4 C 83 % 10.57 C
3524 02-07-2019 05:35:00 13.4 C 84 % 10.75 C
3525 02-07-2019 05:40:00 13.3 C 84 % 10.66 C
Sensor: Nr:Datum:Temp:Feuchte:Taupunkt:
Aussen-T/F 3526 02-07-2019 05:45:00 13.3 C 84 % 10.66 C
3527 02-07-2019 05:50:00 13.3 C 84 % 10.66 C
3528 02-07-2019 05:55:00 13.2 C 84 % 10.56 C
3529 02-07-2019 06:00:00 13.2 C 85 % 10.74 C
3530 02-07-2019 06:05:00 13.2 C 85 % 10.74 C
3531 02-07-2019 06:10:00 13.1 C 85 % 10.64 C
3532 02-07-2019 06:15:00 13.1 C 85 % 10.64 C
3533 02-07-2019 06:20:00 13.1 C 85 % 10.64 C
3534 02-07-2019 06:25:00 13.1 C 85 % 10.64 C
3535 02-07-2019 06:30:00 13.1 C 85 % 10.64 C
3536 02-07-2019 06:35:00 13.1 C 86 % 10.81 C
3537 02-07-2019 06:40:00 13.1 C 86 % 10.81 C
3538 02-07-2019 06:45:00 13.1 C 86 % 10.81 C
3539 02-07-2019 06:50:00 13.1 C 86 % 10.81 C
3540 02-07-2019 06:55:00 13 C 87 % 10.89 C
3541 02-07-2019 07:00:00 13 C 87 % 10.89 C
3542 02-07-2019 07:05:00 13 C 87 % 10.89 C
3543 02-07-2019 07:10:00 13.1 C 87 % 10.99 C
3544 02-07-2019 07:15:00 13.1 C 87 % 10.99 C
3545 02-07-2019 07:20:00 13.1 C 87 % 10.99 C
3546 02-07-2019 07:25:00 13.2 C 87 % 11.09 C
3547 02-07-2019 07:30:00 13.2 C 87 % 11.09 C
3548 02-07-2019 07:35:00 13.3 C 87 % 11.18 C
3549 02-07-2019 07:40:00 13.3 C 87 % 11.18 C
3550 02-07-2019 07:45:00 13.4 C 87 % 11.28 C
Sensor: Nr:Datum:Temp:Feuchte:Taupunkt:
Aussen-T/F 3551 02-07-2019 07:50:00 13.5 C 87 % 11.38 C
3552 02-07-2019 07:55:00 13.6 C 87 % 11.48 C
3553 02-07-2019 08:00:00 13.7 C 87 % 11.58 C
3554 02-07-2019 08:05:00 13.8 C 87 % 11.68 C
3555 02-07-2019 08:10:00 13.9 C 87 % 11.77 C
3556 02-07-2019 08:15:00 14 C 87 % 11.87 C
3557 02-07-2019 08:20:00 14.3 C 86 % 11.99 C
3558 02-07-2019 08:25:00 14.6 C 83 % 11.75 C
3559 02-07-2019 08:30:00 14.9 C 81 % 11.67 C
3560 02-07-2019 08:35:00 15.3 C 80 % 11.87 C
3561 02-07-2019 08:40:00 15.7 C 79 % 12.07 C
3562 02-07-2019 08:45:00 16.1 C 77 % 12.07 C
3563 02-07-2019 08:50:00 16.3 C 75 % 11.86 C
3564 02-07-2019 08:55:00 16.5 C 75 % 12.06 C
3565 02-07-2019 09:00:00 16.7 C 73 % 11.84 C
3566 02-07-2019 09:05:00 16.8 C 74 % 12.14 C
3567 02-07-2019 09:10:00 16.9 C 73 % 12.03 C
3568 02-07-2019 09:15:00 17.1 C 72 % 12.02 C
3569 02-07-2019 09:20:00 17.2 C 72 % 12.11 C
3570 02-07-2019 09:25:00 17.5 C 70 % 11.97 C
3571 02-07-2019 09:30:00 17.7 C 69 % 11.95 C
3572 02-07-2019 09:35:00 17.8 C 70 % 12.26 C
3573 02-07-2019 09:40:00 17.9 C 68 % 11.91 C
3574 02-07-2019 09:45:00 17.9 C 68 % 11.91 C
3575 02-07-2019 09:50:00 18.1 C 68 % 12.11 C
Sensor: Nr:Datum:Temp:Feuchte:Taupunkt:
Aussen-T/F 3576 02-07-2019 09:55:00 18.2 C 67 % 11.98 C
3577 02-07-2019 10:00:00 18.4 C 65 % 11.71 C
3578 02-07-2019 10:05:00 18.7 C 65 % 11.99 C
3579 02-07-2019 10:10:00 18.8 C 63 % 11.61 C
3580 02-07-2019 10:15:00 18.7 C 63 % 11.52 C
3581 02-07-2019 10:20:00 18.6 C 64 % 11.66 C
3582 02-07-2019 10:25:00 18.7 C 62 % 11.28 C
3583 02-07-2019 10:30:00 19 C 62 % 11.56 C
3584 02-07-2019 10:35:00 19.2 C 62 % 11.75 C
3585 02-07-2019 10:40:00 19.4 C 62 % 11.94 C
3586 02-07-2019 10:45:00 19.6 C 60 % 11.63 C
3587 02-07-2019 10:50:00 19.5 C 62 % 12.03 C
3588 02-07-2019 10:55:00 19.4 C 63 % 12.18 C
3589 02-07-2019 11:00:00 19.3 C 63 % 12.09 C
3590 02-07-2019 11:05:00 19.4 C 63 % 12.18 C
3591 02-07-2019 11:10:00 19.7 C 62 % 12.22 C
3592 02-07-2019 11:15:00 19.7 C 60 % 11.72 C
3593 02-07-2019 11:20:00 19.6 C 61 % 11.88 C
3594 02-07-2019 11:25:00 19.4 C 62 % 11.94 C
3595 02-07-2019 11:30:00 19.4 C 62 % 11.94 C
3596 02-07-2019 11:35:00 19.5 C 59 % 11.28 C
3597 02-07-2019 11:40:00 19.7 C 61 % 11.97 C
3598 02-07-2019 11:45:00 19.8 C 61 % 12.07 C
3599 02-07-2019 11:50:00 19.9 C 57 % 11.14 C
3600 02-07-2019 11:55:00 19.9 C 56 % 10.87 C
Sensor: Nr:Datum:Temp:Feuchte:Taupunkt:
Aussen-T/F 3601 02-07-2019 12:00:00 19.9 C 58 % 11.4 C
3602 02-07-2019 12:05:00 20 C 58 % 11.49 C
3603 02-07-2019 12:10:00 20 C 57 % 11.23 C
3604 02-07-2019 12:15:00 20.2 C 58 % 11.68 C
3605 02-07-2019 12:20:00 20.3 C 56 % 11.24 C
3606 02-07-2019 12:25:00 20.4 C 54 % 10.79 C
3607 02-07-2019 12:30:00 20.4 C 56 % 11.33 C
3608 02-07-2019 12:35:00 20.7 C 53 % 10.78 C
3609 02-07-2019 12:40:00 20.8 C 53 % 10.88 C
3610 02-07-2019 12:45:00 20.9 C 53 % 10.97 C
3611 02-07-2019 12:50:00 21.1 C 52 % 10.87 C
3612 02-07-2019 12:55:00 21.1 C 53 % 11.15 C
3613 02-07-2019 13:00:00 21.2 C 52 % 10.96 C
3614 02-07-2019 13:05:00 21.3 C 54 % 11.62 C
3615 02-07-2019 13:10:00 21.2 C 54 % 11.53 C
3616 02-07-2019 13:15:00 21.2 C 55 % 11.81 C
3617 02-07-2019 13:20:00 21.3 C 54 % 11.62 C
3618 02-07-2019 13:25:00 21.3 C 50 % 10.46 C
3619 02-07-2019 13:30:00 21.2 C 51 % 10.67 C
3620 02-07-2019 13:35:00 21.3 C 50 % 10.46 C
3621 02-07-2019 13:40:00 21.6 C 49 % 10.44 C
3622 02-07-2019 13:45:00 21.8 C 49 % 10.62 C
3623 02-07-2019 13:50:00 22 C 49 % 10.8 C
3624 02-07-2019 13:55:00 22.2 C 50 % 11.29 C
3625 02-07-2019 14:00:00 22.2 C 50 % 11.29 C
Sensor: Nr:Datum:Temp:Feuchte:Taupunkt:
Aussen-T/F 3626 02-07-2019 14:05:00 22.2 C 51 % 11.59 C
3627 02-07-2019 14:10:00 22 C 50 % 11.11 C
3628 02-07-2019 14:15:00 21.9 C 52 % 11.61 C
3629 02-07-2019 14:20:00 21.8 C 51 % 11.22 C
3630 02-07-2019 14:25:00 21.9 C 49 % 10.71 C
3631 02-07-2019 14:30:00 22.2 C 47 % 10.36 C
3632 02-07-2019 14:35:00 22.6 C 47 % 10.72 C
3633 02-07-2019 14:40:00 22.9 C 48 % 11.31 C
3634 02-07-2019 14:45:00 22.9 C 47 % 11 C
3635 02-07-2019 14:50:00 22.8 C 48 % 11.22 C
3636 02-07-2019 14:55:00 22.4 C 50 % 11.47 C
3637 02-07-2019 15:00:00 22.3 C 51 % 11.68 C
3638 02-07-2019 15:05:00 22.3 C 50 % 11.38 C
3639 02-07-2019 15:10:00 22.4 C 49 % 11.17 C
3640 02-07-2019 15:15:00 22.7 C 50 % 11.75 C
3641 02-07-2019 15:20:00 23 C 48 % 11.41 C
3642 02-07-2019 15:25:00 23.4 C 45 % 10.8 C
3643 02-07-2019 15:30:00 23.6 C 46 % 11.31 C
3644 02-07-2019 15:35:00 23.4 C 45 % 10.8 C
3645 02-07-2019 15:40:00 23.1 C 46 % 10.86 C
3646 02-07-2019 15:45:00 22.8 C 48 % 11.22 C
3647 02-07-2019 15:50:00 23.2 C 47 % 11.27 C
3648 02-07-2019 15:55:00 23.9 C 46 % 11.58 C
3649 02-07-2019 16:00:00 24.4 C 42 % 10.66 C
3650 02-07-2019 16:05:00 24.7 C 40 % 10.2 C
Sensor: Nr:Datum:Temp:Feuchte:Taupunkt:
Aussen-T/F 3651 02-07-2019 16:10:00 24.7 C 42 % 10.93 C
3652 02-07-2019 16:15:00 24.8 C 42 % 11.02 C
3653 02-07-2019 16:20:00 25 C 40 % 10.47 C
3654 02-07-2019 16:25:00 24.8 C 40 % 10.29 C
3655 02-07-2019 16:30:00 24.8 C 41 % 10.66 C
3656 02-07-2019 16:35:00 25.1 C 40 % 10.56 C
3657 02-07-2019 16:40:00 25.3 C 41 % 11.11 C
3658 02-07-2019 16:45:00 25.6 C 39 % 10.62 C
3659 02-07-2019 16:50:00 25.4 C 37 % 9.66 C
3660 02-07-2019 16:55:00 25.2 C 39 % 10.27 C
3661 02-07-2019 17:00:00 25.3 C 40 % 10.74 C
3662 02-07-2019 17:05:00 25.2 C 41 % 11.02 C
3663 02-07-2019 17:10:00 25.3 C 40 % 10.74 C
3664 02-07-2019 17:15:00 25.5 C 40 % 10.91 C
3665 02-07-2019 17:20:00 25.8 C 38 % 10.41 C
3666 02-07-2019 17:25:00 25.7 C 38 % 10.32 C
3667 02-07-2019 17:30:00 25.7 C 38 % 10.32 C
3668 02-07-2019 17:35:00 25.6 C 37 % 9.84 C
3669 02-07-2019 17:40:00 25.4 C 38 % 10.06 C
3670 02-07-2019 17:45:00 25.6 C 37 % 9.84 C
3671 02-07-2019 17:50:00 25.4 C 37 % 9.66 C
3672 02-07-2019 17:55:00 25.4 C 38 % 10.06 C
3673 02-07-2019 18:00:00 24.8 C 40 % 10.29 C
3674 02-07-2019 18:05:00 24.3 C 43 % 10.93 C
3675 02-07-2019 18:10:00 23.9 C 43 % 10.57 C
Sensor: Nr:Datum:Temp:Feuchte:Taupunkt:
Aussen-T/F 3676 02-07-2019 18:15:00 23.7 C 42 % 10.03 C
3677 02-07-2019 18:20:00 23.8 C 42 % 10.12 C
3678 02-07-2019 18:25:00 23.9 C 42 % 10.21 C
3679 02-07-2019 18:30:00 24.2 C 41 % 10.12 C
3680 02-07-2019 18:35:00 24.4 C 41 % 10.3 C
3681 02-07-2019 18:40:00 24.6 C 41 % 10.48 C
3682 02-07-2019 18:45:00 24.7 C 41 % 10.57 C
3683 02-07-2019 18:50:00 24.9 C 41 % 10.75 C
3684 02-07-2019 18:55:00 25.2 C 39 % 10.27 C
3685 02-07-2019 19:00:00 25.3 C 38 % 9.97 C
3686 02-07-2019 19:05:00 25.3 C 38 % 9.97 C
3687 02-07-2019 19:10:00 25.3 C 38 % 9.97 C
3688 02-07-2019 19:15:00 25.4 C 38 % 10.06 C
3689 02-07-2019 19:20:00 25.2 C 37 % 9.48 C
3690 02-07-2019 19:25:00 24.9 C 38 % 9.61 C
3691 02-07-2019 19:30:00 24.7 C 39 % 9.82 C
3692 02-07-2019 19:35:00 24.6 C 39 % 9.73 C
3693 02-07-2019 19:40:00 24.4 C 39 % 9.56 C
3694 02-07-2019 19:45:00 24.3 C 40 % 9.84 C
3695 02-07-2019 19:50:00 24.1 C 40 % 9.67 C
3696 02-07-2019 19:55:00 23.8 C 39 % 9.02 C
3697 02-07-2019 20:00:00 23.6 C 40 % 9.22 C
3698 02-07-2019 20:05:00 23.4 C 40 % 9.04 C
3699 02-07-2019 20:10:00 23.3 C 40 % 8.95 C
3700 02-07-2019 20:15:00 23.2 C 42 % 9.59 C
Sensor: Nr:Datum:Temp:Feuchte:Taupunkt:
Aussen-T/F 3701 02-07-2019 20:20:00 23.1 C 42 % 9.5 C
3702 02-07-2019 20:25:00 23 C 43 % 9.76 C
3703 02-07-2019 20:30:00 22.9 C 42 % 9.32 C
3704 02-07-2019 20:35:00 22.9 C 42 % 9.32 C
3705 02-07-2019 20:40:00 22.8 C 42 % 9.23 C
3706 02-07-2019 20:45:00 22.6 C 42 % 9.05 C
3707 02-07-2019 20:50:00 22.4 C 43 % 9.22 C
3708 02-07-2019 20:55:00 22.2 C 43 % 9.04 C
3709 02-07-2019 21:00:00 22 C 44 % 9.2 C
3710 02-07-2019 21:05:00 21.8 C 44 % 9.01 C
3711 02-07-2019 21:10:00 21.7 C 45 % 9.26 C
3712 02-07-2019 21:15:00 21.6 C 45 % 9.17 C
3713 02-07-2019 21:20:00 21.4 C 45 % 8.99 C
3714 02-07-2019 21:25:00 21.2 C 48 % 9.76 C
3715 02-07-2019 21:30:00 21 C 49 % 9.89 C
3716 02-07-2019 21:35:00 20.7 C 51 % 10.21 C
3717 02-07-2019 21:40:00 20.3 C 51 % 9.84 C
3718 02-07-2019 21:45:00 19.8 C 53 % 9.95 C
3719 02-07-2019 21:50:00 19.4 C 53 % 9.58 C
3720 02-07-2019 21:55:00 19 C 55 % 9.76 C
3721 02-07-2019 22:00:00 18.6 C 55 % 9.39 C
3722 02-07-2019 22:05:00 18.3 C 57 % 9.64 C
3723 02-07-2019 22:10:00 18.1 C 57 % 9.46 C
3724 02-07-2019 22:15:00 17.9 C 58 % 9.53 C
3725 02-07-2019 22:20:00 17.7 C 58 % 9.34 C
Sensor: Nr:Datum:Temp:Feuchte:Taupunkt:
Aussen-T/F 3726 02-07-2019 22:25:00 17.6 C 58 % 9.25 C
3727 02-07-2019 22:30:00 17.4 C 59 % 9.31 C
3728 02-07-2019 22:35:00 17.4 C 58 % 9.06 C
3729 02-07-2019 22:40:00 17.3 C 59 % 9.22 C
3730 02-07-2019 22:45:00 17.3 C 60 % 9.47 C
3731 02-07-2019 22:50:00 17.2 C 60 % 9.37 C
3732 02-07-2019 22:55:00 16.9 C 60 % 9.09 C
3733 02-07-2019 23:00:00 16.8 C 61 % 9.24 C
3734 02-07-2019 23:05:00 16.7 C 61 % 9.15 C
3735 02-07-2019 23:10:00 16.6 C 61 % 9.06 C
3736 02-07-2019 23:15:00 16.4 C 61 % 8.87 C
3737 02-07-2019 23:20:00 16.4 C 62 % 9.11 C
3738 02-07-2019 23:25:00 16.3 C 62 % 9.01 C
3739 02-07-2019 23:30:00 16.3 C 62 % 9.01 C
3740 02-07-2019 23:35:00 16.2 C 62 % 8.92 C
3741 02-07-2019 23:40:00 16.1 C 63 % 9.06 C
3742 02-07-2019 23:45:00 16 C 63 % 8.97 C
3743 02-07-2019 23:50:00 15.9 C 64 % 9.11 C
3744 02-07-2019 23:55:00 15.9 C 65 % 9.34 C
3745 03-07-2019 00:00:00 15.7 C 65 % 9.15 C
3746 03-07-2019 00:05:00 15.6 C 65 % 9.05 C
3747 03-07-2019 00:10:00 15.3 C 66 % 8.99 C
3748 03-07-2019 00:15:00 15.2 C 67 % 9.12 C
3749 03-07-2019 00:20:00 15.1 C 67 % 9.02 C
3750 03-07-2019 00:25:00 14.9 C 68 % 9.05 C
Sensor: Nr:Datum:Temp:Feuchte:Taupunkt:
Aussen-T/F 3751 03-07-2019 00:30:00 14.7 C 68 % 8.86 C
3752 03-07-2019 00:35:00 14.5 C 69 % 8.89 C
3753 03-07-2019 00:40:00 14.3 C 70 % 8.91 C
3754 03-07-2019 00:45:00 14.2 C 70 % 8.81 C
3755 03-07-2019 00:50:00 14.2 C 71 % 9.02 C
3756 03-07-2019 00:55:00 14 C 71 % 8.83 C
3757 03-07-2019 01:00:00 13.9 C 72 % 8.94 C
3758 03-07-2019 01:05:00 13.7 C 73 % 8.95 C
3759 03-07-2019 01:10:00 13.6 C 72 % 8.65 C
3760 03-07-2019 01:15:00 13.4 C 73 % 8.66 C
3761 03-07-2019 01:20:00 13.3 C 73 % 8.57 C
3762 03-07-2019 01:25:00 13.2 C 74 % 8.67 C
3763 03-07-2019 01:30:00 13.2 C 74 % 8.67 C
3764 03-07-2019 01:35:00 13.1 C 74 % 8.58 C
3765 03-07-2019 01:40:00 12.9 C 74 % 8.38 C
3766 03-07-2019 01:45:00 12.9 C 75 % 8.58 C
3767 03-07-2019 01:50:00 12.8 C 76 % 8.68 C
3768 03-07-2019 01:55:00 12.8 C 75 % 8.48 C
3769 03-07-2019 02:00:00 12.7 C 76 % 8.58 C
3770 03-07-2019 02:05:00 12.7 C 76 % 8.58 C
3771 03-07-2019 02:10:00 12.6 C 77 % 8.68 C
3772 03-07-2019 02:15:00 12.5 C 77 % 8.58 C
3773 03-07-2019 02:20:00 12.4 C 77 % 8.49 C
3774 03-07-2019 02:25:00 12.4 C 77 % 8.49 C
3775 03-07-2019 02:30:00 12.3 C 77 % 8.39 C
Sensor: Nr:Datum:Temp:Feuchte:Taupunkt:
Aussen-T/F 3776 03-07-2019 02:35:00 12.2 C 78 % 8.48 C
3777 03-07-2019 02:40:00 12.1 C 78 % 8.38 C
3778 03-07-2019 02:45:00 12 C 78 % 8.29 C
3779 03-07-2019 02:50:00 11.9 C 78 % 8.19 C
3780 03-07-2019 02:55:00 11.9 C 78 % 8.19 C
3781 03-07-2019 03:00:00 11.8 C 79 % 8.28 C
3782 03-07-2019 03:05:00 11.8 C 79 % 8.28 C
3783 03-07-2019 03:10:00 11.7 C 80 % 8.37 C
3784 03-07-2019 03:15:00 11.7 C 80 % 8.37 C
3785 03-07-2019 03:20:00 11.6 C 80 % 8.27 C
3786 03-07-2019 03:25:00 11.6 C 80 % 8.27 C
3787 03-07-2019 03:30:00 11.4 C 81 % 8.26 C
3788 03-07-2019 03:35:00 11.4 C 81 % 8.26 C
3789 03-07-2019 03:40:00 11.3 C 81 % 8.16 C
3790 03-07-2019 03:45:00 11.2 C 81 % 8.06 C
3791 03-07-2019 03:50:00 11.1 C 82 % 8.15 C
3792 03-07-2019 03:55:00 11.1 C 82 % 8.15 C
3793 03-07-2019 04:00:00 11 C 82 % 8.05 C
3794 03-07-2019 04:05:00 10.9 C 82 % 7.95 C
3795 03-07-2019 04:10:00 10.8 C 82 % 7.85 C
3796 03-07-2019 04:15:00 10.8 C 83 % 8.03 C
3797 03-07-2019 04:20:00 10.7 C 83 % 7.93 C
3798 03-07-2019 04:25:00 10.7 C 83 % 7.93 C
3799 03-07-2019 04:30:00 10.6 C 83 % 7.84 C
3800 03-07-2019 04:35:00 10.6 C 84 % 8.01 C
Sensor: Nr:Datum:Temp:Feuchte:Taupunkt:
Aussen-T/F 3801 03-07-2019 04:40:00 10.5 C 84 % 7.91 C
3802 03-07-2019 04:45:00 10.4 C 84 % 7.82 C
3803 03-07-2019 04:50:00 10.4 C 84 % 7.82 C
3804 03-07-2019 04:55:00 10.4 C 85 % 7.99 C
3805 03-07-2019 05:00:00 10.3 C 85 % 7.89 C
3806 03-07-2019 05:05:00 10.3 C 85 % 7.89 C
3807 03-07-2019 05:10:00 10.3 C 85 % 7.89 C
3808 03-07-2019 05:15:00 10.2 C 85 % 7.79 C
3809 03-07-2019 05:20:00 10.1 C 85 % 7.7 C
3810 03-07-2019 05:25:00 10.1 C 86 % 7.87 C
3811 03-07-2019 05:30:00 10.1 C 86 % 7.87 C
3812 03-07-2019 05:35:00 10 C 86 % 7.77 C
3813 03-07-2019 05:40:00 10 C 86 % 7.77 C
3814 03-07-2019 05:45:00 9.9 C 87 % 7.84 C
3815 03-07-2019 05:50:00 10 C 87 % 7.94 C
3816 03-07-2019 05:55:00 10 C 87 % 7.94 C
3817 03-07-2019 06:00:00 10 C 87 % 7.94 C
3818 03-07-2019 06:05:00 10 C 87 % 7.94 C
3819 03-07-2019 06:10:00 10 C 88 % 8.11 C
3820 03-07-2019 06:15:00 10.1 C 88 % 8.21 C
3821 03-07-2019 06:20:00 10.1 C 88 % 8.21 C
3822 03-07-2019 06:25:00 10.1 C 88 % 8.21 C
3823 03-07-2019 06:30:00 10.1 C 88 % 8.21 C
3824 03-07-2019 06:35:00 10.2 C 88 % 8.3 C
3825 03-07-2019 06:40:00 10.2 C 88 % 8.3 C
Sensor: Nr:Datum:Temp:Feuchte:Taupunkt:
Aussen-T/F 3826 03-07-2019 06:45:00 10.2 C 88 % 8.3 C
3827 03-07-2019 06:50:00 10.3 C 89 % 8.57 C
3828 03-07-2019 06:55:00 10.3 C 89 % 8.57 C
3829 03-07-2019 07:00:00 10.4 C 89 % 8.67 C
3830 03-07-2019 07:05:00 10.4 C 89 % 8.67 C
3831 03-07-2019 07:10:00 10.6 C 89 % 8.86 C
3832 03-07-2019 07:15:00 10.7 C 89 % 8.96 C
3833 03-07-2019 07:20:00 10.7 C 89 % 8.96 C
3834 03-07-2019 07:25:00 10.8 C 89 % 9.06 C
3835 03-07-2019 07:30:00 10.9 C 89 % 9.16 C
3836 03-07-2019 07:35:00 11.1 C 89 % 9.36 C
3837 03-07-2019 07:40:00 11.2 C 88 % 9.29 C
3838 03-07-2019 07:45:00 11.3 C 88 % 9.39 C
3839 03-07-2019 07:50:00 11.4 C 88 % 9.49 C
3840 03-07-2019 07:55:00 11.5 C 88 % 9.58 C
3841 03-07-2019 08:00:00 11.6 C 88 % 9.68 C
3842 03-07-2019 08:05:00 11.7 C 88 % 9.78 C
3843 03-07-2019 08:10:00 11.9 C 87 % 9.81 C
3844 03-07-2019 08:15:00 12 C 87 % 9.91 C
3845 03-07-2019 08:20:00 12.1 C 87 % 10 C
3846 03-07-2019 08:25:00 12.2 C 87 % 10.1 C
3847 03-07-2019 08:30:00 12.3 C 86 % 10.03 C
3848 03-07-2019 08:35:00 12.5 C 86 % 10.22 C
3849 03-07-2019 08:40:00 12.7 C 86 % 10.42 C
3850 03-07-2019 08:45:00 12.8 C 85 % 10.34 C
Sensor: Nr:Datum:Temp:Feuchte:Taupunkt:
Aussen-T/F 3851 03-07-2019 08:50:00 12.9 C 84 % 10.26 C
3852 03-07-2019 08:55:00 13.1 C 83 % 10.28 C
3853 03-07-2019 09:00:00 13.3 C 84 % 10.66 C
3854 03-07-2019 09:05:00 13.4 C 82 % 10.39 C
3855 03-07-2019 09:10:00 13.7 C 80 % 10.32 C
3856 03-07-2019 09:15:00 13.9 C 80 % 10.51 C
3857 03-07-2019 09:20:00 14.1 C 80 % 10.71 C
3858 03-07-2019 09:25:00 14.3 C 77 % 10.33 C
3859 03-07-2019 09:30:00 14.5 C 76 % 10.32 C
3860 03-07-2019 09:35:00 14.8 C 76 % 10.61 C
3861 03-07-2019 09:40:00 15 C 74 % 10.41 C
3862 03-07-2019 09:45:00 15.3 C 74 % 10.7 C
3863 03-07-2019 09:50:00 15.6 C 71 % 10.37 C
3864 03-07-2019 09:55:00 15.8 C 70 % 10.34 C
3865 03-07-2019 10:00:00 16.1 C 69 % 10.42 C
3866 03-07-2019 10:05:00 16.4 C 68 % 10.48 C
3867 03-07-2019 10:10:00 16.7 C 66 % 10.32 C
3868 03-07-2019 10:15:00 17 C 66 % 10.61 C
3869 03-07-2019 10:20:00 17.4 C 63 % 10.29 C
3870 03-07-2019 10:25:00 17.8 C 63 % 10.67 C
3871 03-07-2019 10:30:00 18.3 C 60 % 10.41 C
3872 03-07-2019 10:35:00 18.7 C 57 % 10.02 C
3873 03-07-2019 10:40:00 19 C 56 % 10.03 C
3874 03-07-2019 10:45:00 19.3 C 57 % 10.58 C
3875 03-07-2019 10:50:00 19.7 C 53 % 9.86 C
Sensor: Nr:Datum:Temp:Feuchte:Taupunkt:
Aussen-T/F 3876 03-07-2019 10:55:00 19.8 C 53 % 9.95 C
3877 03-07-2019 11:00:00 19.7 C 54 % 10.14 C